Provisional Data: Ninemile Run near Walton, PA


Please select a monitoring station.
Please select start date.
Please select start date.

Toggle Unit: C/F Toggle Unit: C/F
Sample Time Temperature (C) Temperature (F) Specific Conductivity (mS/cm) pH   Turbidity (NTU+) DO (mg/L)
3/23/2021 12:00:00 AM 5.65 42.17 0.047 6.36 2.77 11.98
3/23/2021 12:15:00 AM 5.57 42.026 0.047 6.36 2.68 12
3/23/2021 12:30:00 AM 5.48 41.864 0.047 6.36 2.87 12.03
3/23/2021 12:45:00 AM 5.4 41.72 0.047 6.36 2.81 12.05
3/23/2021 1:00:00 AM 5.32 41.576 0.047 6.38 2.74 12.08
3/23/2021 1:15:00 AM 5.25 41.45 0.047 6.38 2.71 12.1
3/23/2021 1:30:00 AM 5.19 41.342 0.047 6.39 2.67 12.13
3/23/2021 1:45:00 AM 5.12 41.216 0.047 6.36 2.62 12.14
3/23/2021 2:00:00 AM 5.06 41.108 0.047 6.39 2.83 12.17
3/23/2021 2:15:00 AM 5 41 0.047 6.38 2.6 12.18
3/23/2021 2:30:00 AM 4.94 40.892 0.047 6.38 2.62 12.2
3/23/2021 2:45:00 AM 4.89 40.802 0.047 6.34 2.63 12.21
3/23/2021 3:00:00 AM 4.83 40.694 0.047 6.36 2.65 12.24
3/23/2021 3:15:00 AM 4.78 40.604 0.047 6.38 2.6 12.25
3/23/2021 3:30:00 AM 4.73 40.514 0.047 6.4 2.73 12.26
3/23/2021 3:45:00 AM 4.69 40.442 0.047 6.4 2.55 12.28
3/23/2021 4:00:00 AM 4.64 40.352 0.047 6.36 2.56 12.3
3/23/2021 4:15:00 AM 4.59 40.262 0.046 6.4 2.64 12.31
3/23/2021 4:30:00 AM 4.55 40.19 0.046 6.36 2.71 12.32
3/23/2021 4:45:00 AM 4.5 40.1 0.046 6.4 2.65 12.34
3/23/2021 5:00:00 AM 4.46 40.028 0.046 6.39 2.75 12.35
3/23/2021 5:15:00 AM 4.42 39.956 0.046 6.39 2.54 12.36
3/23/2021 5:30:00 AM 4.38 39.884 0.046 6.39 2.65 12.38
3/23/2021 5:45:00 AM 4.34 39.812 0.046 6.36 2.76 12.39
3/23/2021 6:00:00 AM 4.3 39.74 0.046 6.41 2.49 12.4
3/23/2021 6:15:00 AM 4.26 39.668 0.046 6.39 2.68 12.41
3/23/2021 6:30:00 AM 4.23 39.614 0.046 6.39 2.54 12.43
3/23/2021 6:45:00 AM 4.19 39.542 0.046 6.35 2.55 12.44
3/23/2021 7:00:00 AM 4.15 39.47 0.046 6.41 2.52 12.46
3/23/2021 7:15:00 AM 4.12 39.416 0.046 6.38 2.62 12.47
3/23/2021 7:30:00 AM 4.1 39.38 0.046 6.39 2.49 12.49
3/23/2021 7:45:00 AM 4.08 39.344 0.046 6.41 2.56 12.52
3/23/2021 8:00:00 AM 4.07 39.326 0.046 6.42 2.47 12.55
3/23/2021 8:15:00 AM 4.07 39.326 0.046 6.4 2.47 12.58
3/23/2021 8:30:00 AM 4.1 39.38 0.046 6.41 2.42 12.61
3/23/2021 8:45:00 AM 4.14 39.452 0.046 6.45 2.42 12.64
3/23/2021 9:00:00 AM 4.2 39.56 0.046 6.46 2.36 12.65
3/23/2021 9:15:00 AM 4.26 39.668 0.045 6.46 2.38 12.66
3/23/2021 9:30:00 AM 4.34 39.812 0.045 6.48 2.38 12.66
3/23/2021 9:45:00 AM 4.44 39.992 0.045 6.49 2.37 12.66
3/23/2021 10:00:00 AM 4.56 40.208 0.045 6.46 2.29 12.65
3/23/2021 10:15:00 AM 4.7 40.46 0.045 6.48 2.32 12.63
3/23/2021 10:30:00 AM 4.87 40.766 0.045 6.5 2.42 12.6
3/23/2021 10:45:00 AM 5.06 41.108 0.045 6.5 2.33 12.56
3/23/2021 11:00:00 AM 5.26 41.468 0.045 6.52 2.21 12.52
3/23/2021 11:15:00 AM 5.48 41.864 0.045 6.52 2.32 12.47
3/23/2021 11:30:00 AM 5.69 42.242 0.045 6.54 2.3 12.42
3/23/2021 11:45:00 AM 5.9 42.62 0.045 6.51 2.29 12.37
3/23/2021 12:00:00 PM 6.12 43.016 0.045 6.52 2.32 12.31
3/23/2021 12:15:00 PM 6.35 43.43 0.045 6.55 2.33 12.25
3/23/2021 12:30:00 PM 6.59 43.862 0.045 6.51 2.29 12.18
3/23/2021 12:45:00 PM 6.83 44.294 0.045 6.55 2.35 12.11
3/23/2021 1:00:00 PM 7.02 44.636 0.045 6.54 2.36 12.05
3/23/2021 1:15:00 PM 7.24 45.032 0.045 6.51 2.38 11.99
3/23/2021 1:30:00 PM 7.43 45.374 0.045 6.55 2.33 11.91
3/23/2021 1:45:00 PM 7.66 45.788 0.044 6.52 2.41 11.85
3/23/2021 2:00:00 PM 7.84 46.112 0.044 6.55 2.44 11.78
3/23/2021 2:15:00 PM 8.02 46.436 0.044 6.54 2.37 11.72
3/23/2021 2:30:00 PM 8.21 46.778 0.044 6.55 2.34 11.67
3/23/2021 2:45:00 PM 8.33 46.994 0.044 6.49 2.41 11.62
3/23/2021 3:00:00 PM 8.45 47.21 0.044 6.52 2.48 11.57
3/23/2021 3:15:00 PM 8.55 47.39 0.044 6.5 2.43 11.54
3/23/2021 3:30:00 PM 8.62 47.516 0.044 6.53 2.47 11.49
3/23/2021 3:45:00 PM 8.64 47.552 0.044 6.5 2.41 11.46
3/23/2021 4:00:00 PM 8.67 47.606 0.044 6.52 2.54 11.45
3/23/2021 4:15:00 PM 8.69 47.642 0.044 6.51 2.56 11.43
3/23/2021 4:30:00 PM 8.71 47.678 0.045 6.53 2.58 11.42
3/23/2021 4:45:00 PM 8.7 47.66 0.045 6.47 2.5 11.4
3/23/2021 5:00:00 PM 8.73 47.714 0.045 6.48 2.62 11.4
3/23/2021 5:15:00 PM 8.72 47.696 0.045 6.51 2.68 11.39
3/23/2021 5:30:00 PM 8.67 47.606 0.045 6.5 2.66 11.36
3/23/2021 5:45:00 PM 8.61 47.498 0.045 6.45 2.55 11.35
3/23/2021 6:00:00 PM 8.58 47.444 0.045 6.49 2.71 11.36
3/23/2021 6:15:00 PM 8.53 47.354 0.045 6.48 2.71 11.36
3/23/2021 6:30:00 PM 8.46 47.228 0.045 6.47 2.72 11.36
3/23/2021 6:45:00 PM 8.38 47.084 0.045 6.42 2.69 11.35
3/23/2021 7:00:00 PM 8.3 46.94 0.045 6.44 2.9 11.35
3/23/2021 7:15:00 PM 8.2 46.76 0.046 6.43 2.93 11.33
3/23/2021 7:30:00 PM 8.11 46.598 0.046 6.42 2.9 11.32
3/23/2021 7:45:00 PM 8.02 46.436 0.046 6.4 2.94 11.32
3/23/2021 8:00:00 PM 7.92 46.256 0.046 6.35 3.03 11.32
3/23/2021 8:15:00 PM 7.82 46.076 0.046 6.39 3.04 11.34
3/23/2021 8:30:00 PM 7.74 45.932 0.046 6.36 3.12 11.36
3/23/2021 8:45:00 PM 7.64 45.752 0.046 6.38 3.18 11.38
3/23/2021 9:00:00 PM 7.55 45.59 0.046 6.33 2.99 11.4
3/23/2021 9:15:00 PM 7.46 45.428 0.046 6.35 3.18 11.42
3/23/2021 9:30:00 PM 7.37 45.266 0.046 6.37 3.15 11.44
3/23/2021 9:45:00 PM 7.27 45.086 0.046 6.33 3.21 11.47
3/23/2021 10:00:00 PM 7.17 44.906 0.046 6.37 3.06 11.5
3/23/2021 10:15:00 PM 7.09 44.762 0.046 6.37 3.06 11.52
3/23/2021 10:30:00 PM 7 44.6 0.046 6.33 3.07 11.54
3/23/2021 10:45:00 PM 6.91 44.438 0.046 6.34 3.23 11.57
3/23/2021 11:00:00 PM 6.82 44.276 0.046 6.38 3.05 11.59
3/23/2021 11:15:00 PM 6.74 44.132 0.046 6.37 3.05 11.62
3/23/2021 11:30:00 PM 6.65 43.97 0.046 6.35 2.88 11.64
3/23/2021 11:45:00 PM 6.57 43.826 0.046 6.37 2.95 11.66
3/24/2021 12:00:00 AM 6.5 43.7 0.046 6.37 2.94 11.68
3/24/2021 12:15:00 AM 6.43 43.574 0.046 6.38 2.92 11.71
3/24/2021 12:30:00 AM 6.36 43.448 0.045 6.37 2.97 11.73
3/24/2021 12:45:00 AM 6.31 43.358 0.045 6.37 2.98 11.74
3/24/2021 1:00:00 AM 6.26 43.268 0.045 6.38 3.07 11.76
3/24/2021 1:15:00 AM 6.21 43.178 0.045 6.34 2.99 11.78
3/24/2021 1:30:00 AM 6.17 43.106 0.045 6.39 2.82 11.79
3/24/2021 1:45:00 AM 6.13 43.034 0.045 6.38 2.91 11.8
3/24/2021 2:00:00 AM 6.09 42.962 0.045 6.34 2.92 11.81
3/24/2021 2:15:00 AM 6.06 42.908 0.045 6.36 3.07 11.82
3/24/2021 2:30:00 AM 6.02 42.836 0.045 6.36 3.01 11.83
3/24/2021 2:45:00 AM 6 42.8 0.045 6.36 2.9 11.84
3/24/2021 3:00:00 AM 5.99 42.782 0.045 6.39 2.89 11.85
3/24/2021 3:15:00 AM 5.97 42.746 0.045 6.36 2.93 11.85
3/24/2021 3:30:00 AM 5.96 42.728 0.045 6.36 3.14 11.86
3/24/2021 3:45:00 AM 5.96 42.728 0.045 6.33 2.92 11.86
3/24/2021 4:00:00 AM 5.96 42.728 0.045 6.4 2.95 11.86
3/24/2021 4:15:00 AM 5.96 42.728 0.045 6.38 2.89 11.86
3/24/2021 4:30:00 AM 5.96 42.728 0.045 6.34 2.79 11.85
3/24/2021 4:45:00 AM 5.97 42.746 0.045 6.39 2.99 11.86
3/24/2021 5:00:00 AM 5.98 42.764 0.044 6.35 2.96 11.85
3/24/2021 5:15:00 AM 5.99 42.782 0.044 6.37 3.12 11.85
3/24/2021 5:30:00 AM 6.01 42.818 0.044 6.39 3.09 11.84
3/24/2021 5:45:00 AM 6.02 42.836 0.044 6.38 2.97 11.84
3/24/2021 6:00:00 AM 6.04 42.872 0.044 6.38 3.05 11.82
3/24/2021 6:15:00 AM 6.06 42.908 0.044 6.36 2.95 11.82
3/24/2021 6:30:00 AM 6.08 42.944 0.044 6.37 3.05 11.81
3/24/2021 6:45:00 AM 6.11 42.998 0.044 6.36 3.07 11.81
3/24/2021 7:00:00 AM 6.13 43.034 0.044 6.35 3.05 11.8
3/24/2021 7:15:00 AM 6.15 43.07 0.044 6.39 2.99 11.8
3/24/2021 7:30:00 AM 6.17 43.106 0.044 6.38 3.13 11.8
3/24/2021 7:45:00 AM 6.19 43.142 0.044 6.38 3.06 11.79
3/24/2021 8:00:00 AM 6.22 43.196 0.044 6.34 3.31 11.79
3/24/2021 8:15:00 AM 6.24 43.232 0.044 6.37 3.24 11.78
3/24/2021 8:30:00 AM 6.26 43.268 0.044 6.39 3.29 11.78
3/24/2021 8:45:00 AM 6.28 43.304 0.044 6.38 3.5 11.79
3/24/2021 9:00:00 AM 6.31 43.358 0.044 6.39 3.78 11.8
3/24/2021 9:15:00 AM 6.33 43.394 0.044 6.35 4.22 11.81
3/24/2021 9:30:00 AM 6.36 43.448 0.044 6.38 4.49 11.81
3/24/2021 9:45:00 AM 6.4 43.52 0.044 6.38 4.86 11.83
3/24/2021 10:00:00 AM 6.44 43.592 0.044 6.42 4.97 11.84
3/24/2021 10:15:00 AM 6.48 43.664 0.044 6.4 5.42 11.85
3/24/2021 10:30:00 AM 6.53 43.754 0.045 6.38 5.34 11.86
3/24/2021 10:45:00 AM 6.59 43.862 0.045 6.45 5.85 11.86
3/24/2021 11:00:00 AM 6.64 43.952 0.045 6.39 5.35 11.85
3/24/2021 11:15:00 AM 6.69 44.042 0.046 6.43 5.55 11.83
3/24/2021 11:30:00 AM 6.74 44.132 0.046 6.47 5.75 11.83
3/24/2021 11:45:00 AM 6.79 44.222 0.046 6.45 5.64 11.81
3/24/2021 12:00:00 PM 6.83 44.294 0.046 6.4 5.11 11.79
3/24/2021 12:15:00 PM 6.88 44.384 0.046 6.46 8.11 11.77
3/24/2021 12:30:00 PM 6.94 44.492 0.046 6.46 4.91 11.76
3/24/2021 12:45:00 PM 7 44.6 0.046 6.42 4.83 11.75
3/24/2021 1:00:00 PM -99999.99 -179968 -99999.99 -99999.99 -99999.99 -99999.99
3/24/2021 1:15:00 PM 7.1 44.78 0.045 6.84 4.6 11.71
3/24/2021 1:30:00 PM 7.17 44.906 0.045 6.86 5.57 11.7
3/24/2021 1:45:00 PM 7.23 45.014 0.045 6.84 5.6 11.69
3/24/2021 2:00:00 PM 7.31 45.158 0.046 6.85 5.03 11.68
3/24/2021 2:15:00 PM 7.37 45.266 0.046 6.86 5.1 11.65
3/24/2021 2:30:00 PM 7.41 45.338 0.046 6.83 5.88 11.62
3/24/2021 2:45:00 PM 7.46 45.428 0.047 6.85 5.38 11.61
3/24/2021 3:00:00 PM 7.51 45.518 0.047 6.82 5.3 11.6
3/24/2021 3:15:00 PM 7.55 45.59 0.047 6.82 5.19 11.58
3/24/2021 3:30:00 PM 7.61 45.698 0.047 6.85 4.74 11.57
3/24/2021 3:45:00 PM 7.68 45.824 0.047 6.83 4.95 11.56
3/24/2021 4:00:00 PM 7.76 45.968 0.047 6.83 4.99 11.57
3/24/2021 4:15:00 PM 7.81 46.058 0.047 6.82 4.75 11.55
3/24/2021 4:30:00 PM 7.85 46.13 0.047 6.83 5.07 11.52
3/24/2021 4:45:00 PM 7.89 46.202 0.047 6.82 4.75 11.5
3/24/2021 5:00:00 PM 7.92 46.256 0.047 6.83 4.93 11.48
3/24/2021 5:15:00 PM 7.94 46.292 0.046 6.8 4.89 11.44
3/24/2021 5:30:00 PM 7.95 46.31 0.048 6.78 8.44 11.41
3/24/2021 5:45:00 PM 7.95 46.31 0.046 6.83 5.03 11.38
3/24/2021 6:00:00 PM 7.96 46.328 0.046 6.8 4.9 11.36
3/24/2021 6:15:00 PM 7.97 46.346 0.046 6.8 5.05 11.35
3/24/2021 6:30:00 PM 7.98 46.364 0.046 6.79 4.99 11.33
3/24/2021 6:45:00 PM 7.97 46.346 0.045 6.81 4.88 11.3
3/24/2021 7:00:00 PM 7.95 46.31 0.046 6.79 5.15 11.29
3/24/2021 7:15:00 PM 7.94 46.292 0.045 6.79 4.84 11.28
3/24/2021 7:30:00 PM 7.93 46.274 0.045 6.79 5.07 11.27
3/24/2021 7:45:00 PM 7.9 46.22 0.045 6.78 5.11 11.26
3/24/2021 8:00:00 PM 7.87 46.166 0.045 6.79 5.16 11.26
3/24/2021 8:15:00 PM 7.83 46.094 0.045 6.78 5.83 11.26
3/24/2021 8:30:00 PM 7.8 46.04 0.045 6.76 5.46 11.27
3/24/2021 8:45:00 PM 7.77 45.986 0.044 6.77 5.91 11.26
3/24/2021 9:00:00 PM 7.73 45.914 0.044 6.77 5.85 11.28
3/24/2021 9:15:00 PM 7.7 45.86 0.044 6.77 5.84 11.28
3/24/2021 9:30:00 PM 7.66 45.788 0.044 6.76 5.47 11.29
3/24/2021 9:45:00 PM 7.63 45.734 0.044 6.74 6.19 11.3
3/24/2021 10:00:00 PM 7.6 45.68 0.044 6.77 5.69 11.31
3/24/2021 10:15:00 PM 7.58 45.644 0.044 6.78 5.41 11.32
3/24/2021 10:30:00 PM 7.55 45.59 0.044 6.76 5.81 11.32
3/24/2021 10:45:00 PM 7.52 45.536 0.044 6.75 5.78 11.34
3/24/2021 11:00:00 PM 7.5 45.5 0.044 6.76 6.2 11.34
3/24/2021 11:15:00 PM 7.48 45.464 0.044 6.76 5.55 11.35
3/24/2021 11:30:00 PM 7.46 45.428 0.043 6.75 5.84 11.35
3/24/2021 11:45:00 PM 7.44 45.392 0.043 6.75 5.9 11.36
3/25/2021 12:00:00 AM 7.42 45.356 0.043 6.75 5.45 11.36
3/25/2021 12:15:00 AM 7.41 45.338 0.043 6.76 5.93 11.37
3/25/2021 12:30:00 AM 7.4 45.32 0.043 6.77 6.17 11.37
3/25/2021 12:45:00 AM 7.39 45.302 0.043 6.77 5.96 11.38
3/25/2021 1:00:00 AM 7.38 45.284 0.043 6.75 5.73 11.38
3/25/2021 1:15:00 AM 7.37 45.266 0.043 6.72 5.38 11.38
3/25/2021 1:30:00 AM 7.36 45.248 0.042 6.73 5.98 11.38
3/25/2021 1:45:00 AM 7.34 45.212 0.042 6.75 5.19 11.39
3/25/2021 2:00:00 AM 7.34 45.212 0.042 6.75 5.5 11.39
3/25/2021 2:15:00 AM 7.33 45.194 0.042 6.76 5.72 11.4
3/25/2021 2:30:00 AM 7.32 45.176 0.042 6.75 5.69 11.4
3/25/2021 2:45:00 AM 7.31 45.158 0.042 6.75 5.52 11.4
3/25/2021 3:00:00 AM 7.31 45.158 0.042 6.73 5.34 11.4
3/25/2021 3:15:00 AM 7.3 45.14 0.042 6.75 5.66 11.4
3/25/2021 3:30:00 AM 7.3 45.14 0.042 6.76 5.83 11.4
3/25/2021 3:45:00 AM 7.29 45.122 0.042 6.76 5.85 11.41
3/25/2021 4:00:00 AM 7.28 45.104 0.042 6.75 5.21 11.41
3/25/2021 4:15:00 AM 7.27 45.086 0.042 6.75 5.69 11.41
3/25/2021 4:30:00 AM 7.26 45.068 0.042 6.73 5.38 11.41
3/25/2021 4:45:00 AM 7.25 45.05 0.042 6.74 5.79 11.42
3/25/2021 5:00:00 AM 7.24 45.032 0.042 6.75 5.36 11.42
3/25/2021 5:15:00 AM 7.23 45.014 0.042 6.76 5.92 11.43
3/25/2021 5:30:00 AM 7.23 45.014 0.042 6.75 5.12 11.43
3/25/2021 5:45:00 AM 7.22 44.996 0.042 6.72 5.21 11.43
3/25/2021 6:00:00 AM 7.21 44.978 0.042 6.75 5.21 11.43
3/25/2021 6:15:00 AM 7.2 44.96 0.041 6.72 5.16 11.44
3/25/2021 6:30:00 AM 7.2 44.96 0.041 6.74 5.36 11.44
3/25/2021 6:45:00 AM 7.19 44.942 0.041 6.73 5.46 11.45
3/25/2021 7:00:00 AM 7.18 44.924 0.041 6.75 5.03 11.45
3/25/2021 7:15:00 AM 7.17 44.906 0.041 6.72 5.28 11.46
3/25/2021 7:30:00 AM 7.17 44.906 0.041 6.75 5.23 11.46
3/25/2021 7:45:00 AM 7.17 44.906 0.041 6.75 5.6 11.48
3/25/2021 8:00:00 AM 7.17 44.906 0.041 6.73 5.22 11.49
3/25/2021 8:15:00 AM 7.17 44.906 0.041 6.76 5.07 11.5
3/25/2021 8:30:00 AM 7.18 44.924 0.041 6.76 5.25 11.52
3/25/2021 8:45:00 AM 7.2 44.96 0.041 6.76 4.79 11.55
3/25/2021 9:00:00 AM 7.23 45.014 0.041 6.79 4.77 11.56
3/25/2021 9:15:00 AM 7.3 45.14 0.041 6.78 4.77 11.59
3/25/2021 9:30:00 AM 7.33 45.194 0.041 6.82 4.79 11.59
3/25/2021 9:45:00 AM 7.41 45.338 0.041 6.82 4.69 11.61
3/25/2021 10:00:00 AM 7.44 45.392 0.041 6.81 4.53 11.6
3/25/2021 10:15:00 AM 7.56 45.608 0.041 6.82 4.64 11.62
3/25/2021 10:30:00 AM 7.62 45.716 0.041 6.84 4.68 11.61
3/25/2021 10:45:00 AM 7.69 45.842 0.041 6.84 4.78 11.61
3/25/2021 11:00:00 AM 7.85 46.13 0.04 6.86 4.86 11.59
3/25/2021 11:15:00 AM 8 46.4 0.04 6.87 4.4 11.57
3/25/2021 11:30:00 AM 8.16 46.688 0.04 6.86 4.96 11.53
3/25/2021 11:45:00 AM 8.34 47.012 0.04 6.87 4.64 11.5
3/25/2021 12:00:00 PM 8.53 47.354 0.04 6.86 4.79 11.46
3/25/2021 12:15:00 PM 8.72 47.696 0.04 6.89 4.4 11.4
3/25/2021 12:30:00 PM 8.91 48.038 0.04 6.87 4.23 11.36
3/25/2021 12:45:00 PM 9.13 48.434 0.04 6.89 4.4 11.32
3/25/2021 1:00:00 PM 9.3 48.74 0.04 6.88 4.65 11.26
3/25/2021 1:15:00 PM 9.45 49.01 0.04 6.9 4.77 11.21
3/25/2021 1:30:00 PM 9.63 49.334 0.04 6.88 4.71 11.17
3/25/2021 1:45:00 PM 9.83 49.694 0.04 6.89 4.74 11.12
3/25/2021 2:00:00 PM 10 50 0.04 6.9 4.35 11.07
3/25/2021 2:15:00 PM 10.15 50.27 0.04 6.87 4.48 11.02
3/25/2021 2:30:00 PM 10.27 50.486 0.04 6.9 4.67 10.99
3/25/2021 2:45:00 PM 10.38 50.684 0.04 6.91 4.64 10.95
3/25/2021 3:00:00 PM 10.5 50.9 0.04 6.76 4.6 10.91
3/25/2021 3:15:00 PM 10.6 51.08 0.04 6.9 4.58 10.87
3/25/2021 3:30:00 PM 10.66 51.188 0.04 6.92 4.8 10.84
3/25/2021 3:45:00 PM 10.69 51.242 0.04 6.91 4.72 10.82
3/25/2021 4:00:00 PM 10.68 51.224 0.04 6.9 4.47 10.8
3/25/2021 4:15:00 PM 10.65 51.17 0.04 6.91 4.41 10.78
3/25/2021 4:30:00 PM 10.62 51.116 0.04 6.92 4.77 10.77
3/25/2021 4:45:00 PM 10.57 51.026 0.04 6.89 4.82 10.76
3/25/2021 5:00:00 PM 10.51 50.918 0.04 6.88 4.74 10.76
3/25/2021 5:15:00 PM 10.46 50.828 0.04 6.87 4.59 10.76
3/25/2021 5:30:00 PM 10.39 50.702 0.04 6.88 4.55 10.76
3/25/2021 5:45:00 PM 10.3 50.54 0.04 6.87 5.15 10.76
3/25/2021 6:00:00 PM 10.23 50.414 0.04 6.87 5.06 10.76
3/25/2021 6:15:00 PM 10.12 50.216 0.04 6.86 4.48 10.75
3/25/2021 6:30:00 PM 10.02 50.036 0.04 6.86 4.69 10.75
3/25/2021 6:45:00 PM 9.91 49.838 0.04 6.83 5.23 10.76
3/25/2021 7:00:00 PM 9.79 49.622 0.04 6.82 4.82 10.77
3/25/2021 7:15:00 PM 9.67 49.406 0.04 6.8 4.52 10.77
3/25/2021 7:30:00 PM 9.56 49.208 0.04 6.78 4.93 10.78
3/25/2021 7:45:00 PM 9.46 49.028 0.04 6.68 5.18 10.79
3/25/2021 8:00:00 PM 9.37 48.866 0.04 6.77 4.89 10.8
3/25/2021 8:15:00 PM 9.27 48.686 0.04 6.61 4.58 10.81
3/25/2021 8:30:00 PM 9.18 48.524 0.041 6.77 4.83 10.84
3/25/2021 8:45:00 PM 9.11 48.398 0.041 6.65 4.68 10.86
3/25/2021 9:00:00 PM 9.03 48.254 0.041 6.76 4.98 10.87
3/25/2021 9:15:00 PM 8.96 48.128 0.041 6.75 5.03 10.89
3/25/2021 9:30:00 PM 8.9 48.02 0.041 6.78 5.18 10.91
3/25/2021 9:45:00 PM 8.85 47.93 0.04 6.75 4.91 10.92
3/25/2021 10:00:00 PM 8.79 47.822 0.041 6.78 4.94 10.94
3/25/2021 10:15:00 PM 8.74 47.732 0.041 6.76 5.28 10.94
3/25/2021 10:30:00 PM 8.71 47.678 0.04 6.8 4.86 10.95
3/25/2021 10:45:00 PM 8.67 47.606 0.041 6.78 4.6 10.96
3/25/2021 11:00:00 PM 8.63 47.534 0.04 6.78 4.79 10.97
3/25/2021 11:15:00 PM 8.61 47.498 0.041 6.78 4.76 10.98
3/25/2021 11:30:00 PM 8.58 47.444 0.041 6.79 5.2 10.98
3/25/2021 11:45:00 PM 8.56 47.408 0.041 6.79 5.21 10.99
3/26/2021 12:00:00 AM 8.55 47.39 0.041 6.75 4.82 10.99
3/26/2021 12:15:00 AM 8.54 47.372 0.04 6.78 5.14 10.99
3/26/2021 12:30:00 AM 8.52 47.336 0.04 6.75 4.92 11
3/26/2021 12:45:00 AM 8.52 47.336 0.04 6.79 4.89 11
3/26/2021 1:00:00 AM 8.51 47.318 0.041 6.62 4.94 10.99
3/26/2021 1:15:00 AM 8.5 47.3 0.04 6.8 4.73 10.99
3/26/2021 1:30:00 AM 8.5 47.3 0.041 6.76 4.82 10.99
3/26/2021 1:45:00 AM 8.49 47.282 0.04 6.78 4.65 10.99
3/26/2021 2:00:00 AM 8.48 47.264 0.04 6.78 4.59 10.99
3/26/2021 2:15:00 AM 8.47 47.246 0.04 6.74 5.3 10.99
3/26/2021 2:30:00 AM 8.45 47.21 0.04 6.77 4.63 10.99
3/26/2021 2:45:00 AM 8.44 47.192 0.04 6.78 4.51 10.99
3/26/2021 3:00:00 AM 8.45 47.21 0.04 6.79 4.96 10.98
3/26/2021 3:15:00 AM 8.44 47.192 0.04 6.78 4.59 10.98
3/26/2021 3:30:00 AM 8.45 47.21 0.04 6.78 4.92 10.97
3/26/2021 3:45:00 AM 8.46 47.228 0.04 6.77 4.64 10.97
3/26/2021 4:00:00 AM 8.48 47.264 0.04 6.79 4.68 10.96
3/26/2021 4:15:00 AM 8.49 47.282 0.04 6.79 4.56 10.95
3/26/2021 4:30:00 AM 8.5 47.3 0.04 6.79 4.64 10.94
3/26/2021 4:45:00 AM 8.5 47.3 0.04 6.76 4.71 10.94
3/26/2021 5:00:00 AM 8.48 47.264 0.04 6.77 4.88 10.93
3/26/2021 5:15:00 AM 8.44 47.192 0.04 6.78 4.62 10.94
3/26/2021 5:30:00 AM 8.42 47.156 0.04 6.77 4.86 10.94
3/26/2021 5:45:00 AM 8.41 47.138 0.04 6.77 4.43 10.93
3/26/2021 6:00:00 AM 8.4 47.12 0.04 6.77 4.4 10.93
3/26/2021 6:15:00 AM 8.42 47.156 0.04 6.77 4.69 10.93
3/26/2021 6:30:00 AM 8.41 47.138 0.04 6.77 4.9 10.93
3/26/2021 6:45:00 AM 8.4 47.12 0.04 6.77 4.81 10.93
3/26/2021 7:00:00 AM 8.4 47.12 0.04 6.73 4.97 10.93
3/26/2021 7:15:00 AM 8.41 47.138 0.04 6.77 4.42 10.93
3/26/2021 7:30:00 AM 8.4 47.12 0.04 6.73 5.32 10.94
3/26/2021 7:45:00 AM 8.38 47.084 0.04 6.72 4.76 10.95
3/26/2021 8:00:00 AM 8.41 47.138 0.04 6.8 4.85 10.98
3/26/2021 8:15:00 AM 8.45 47.21 0.04 6.77 4.43 10.99
3/26/2021 8:30:00 AM 8.47 47.246 0.04 6.8 2.31 11
3/26/2021 8:45:00 AM 8.5 47.3 0.04 6.78 4.94 11.02
3/26/2021 9:00:00 AM 8.52 47.336 0.04 6.83 4.65 11.02
3/26/2021 9:15:00 AM 8.61 47.498 0.04 6.81 4.74 11.06
3/26/2021 9:30:00 AM 8.68 47.624 0.041 6.82 4.12 11.05
3/26/2021 9:45:00 AM 8.71 47.678 0.04 6.81 4.28 11.03
3/26/2021 10:00:00 AM 8.74 47.732 0.041 6.86 4.71 11.02
3/26/2021 10:15:00 AM 8.77 47.786 0.041 6.83 4.33 11.01
3/26/2021 10:30:00 AM 8.79 47.822 0.04 6.84 4.46 10.99
3/26/2021 10:45:00 AM 8.85 47.93 0.04 6.83 4.5 11.02
3/26/2021 11:00:00 AM 8.93 48.074 0.041 6.87 4.45 11.03
3/26/2021 11:15:00 AM 8.97 48.146 0.041 6.86 4.28 11.02
3/26/2021 11:30:00 AM 9.03 48.254 0.041 6.87 4.24 11.04
3/26/2021 11:45:00 AM 9.14 48.452 0.041 6.85 4.46 11.04
3/26/2021 12:00:00 PM 9.13 48.434 0.041 6.89 4.53 11
3/26/2021 12:15:00 PM 9.14 48.452 0.041 6.86 5.5 11.01
3/26/2021 12:30:00 PM 9.27 48.686 0.041 6.9 4.38 11.02
3/26/2021 12:45:00 PM 9.36 48.848 0.041 6.86 4.67 11.01
3/26/2021 1:00:00 PM 9.44 48.992 0.041 6.9 4.69 11.02
3/26/2021 1:15:00 PM 9.58 49.244 0.041 6.89 4.99 11.01
3/26/2021 1:30:00 PM 9.61 49.298 0.041 6.9 4.85 10.98
3/26/2021 1:45:00 PM 9.62 49.316 0.041 6.89 4.56 10.98
3/26/2021 2:00:00 PM 9.59 49.262 0.041 6.91 4.93 10.97
3/26/2021 2:15:00 PM 9.64 49.352 0.041 6.88 4.66 10.98
3/26/2021 2:30:00 PM 9.64 49.352 0.041 6.92 4.57 10.97
3/26/2021 2:45:00 PM 9.65 49.37 0.041 6.89 4.89 10.98
3/26/2021 3:00:00 PM 9.64 49.352 0.041 6.92 5 10.99
3/26/2021 3:15:00 PM 9.6 49.28 0.041 6.88 4.61 10.99
3/26/2021 3:30:00 PM 9.55 49.19 0.041 6.91 4.51 10.99
3/26/2021 3:45:00 PM 9.48 49.064 0.041 6.89 4.82 10.99
3/26/2021 4:00:00 PM 9.4 48.92 0.041 6.91 4.83 11.01
3/26/2021 4:15:00 PM 9.32 48.776 0.041 6.88 4.85 11.03
3/26/2021 4:30:00 PM 9.24 48.632 0.041 6.87 4.62 11.04
3/26/2021 4:45:00 PM 9.14 48.452 0.041 6.86 4.45 11.06
3/26/2021 5:00:00 PM 9.04 48.272 0.041 6.85 4.86 11.07
3/26/2021 5:15:00 PM 8.95 48.11 0.041 6.85 4.68 11.08
3/26/2021 5:30:00 PM 8.86 47.948 0.041 6.88 4.84 11.1
3/26/2021 5:45:00 PM 8.78 47.804 0.041 6.83 4.59 11.12
3/26/2021 6:00:00 PM 8.7 47.66 0.041 6.87 4.76 11.13
3/26/2021 6:15:00 PM 8.6 47.48 0.041 6.82 4.26 11.13
3/26/2021 6:30:00 PM 8.52 47.336 0.041 6.85 4.58 11.15
3/26/2021 6:45:00 PM 8.43 47.174 0.041 6.81 4.23 11.16
3/26/2021 7:00:00 PM 8.34 47.012 0.041 6.84 4.27 11.16
3/26/2021 7:15:00 PM 8.26 46.868 0.041 6.8 4.8 11.16
3/26/2021 7:30:00 PM 8.19 46.742 0.041 6.78 4.35 11.17
3/26/2021 7:45:00 PM 8.11 46.598 0.041 6.79 4.56 11.17
3/26/2021 8:00:00 PM 8.03 46.454 0.041 6.81 4.35 11.19
3/26/2021 8:15:00 PM 7.96 46.328 0.041 6.77 4.24 11.2
3/26/2021 8:30:00 PM 7.89 46.202 0.041 6.79 4.67 11.22
3/26/2021 8:45:00 PM 7.83 46.094 0.041 6.76 4.58 11.24
3/26/2021 9:00:00 PM 7.77 45.986 0.041 6.78 4.94 11.26
3/26/2021 9:15:00 PM 7.71 45.878 0.041 6.8 4.65 11.28
3/26/2021 9:30:00 PM 7.66 45.788 0.041 6.8 4.79 11.3
3/26/2021 9:45:00 PM 7.61 45.698 0.041 6.79 4.24 11.31
3/26/2021 10:00:00 PM 7.56 45.608 0.041 6.77 4.64 11.32
3/26/2021 10:15:00 PM 7.52 45.536 0.041 6.8 4.26 11.34
3/26/2021 10:30:00 PM 7.48 45.464 0.041 6.77 4.38 11.35
3/26/2021 10:45:00 PM 7.44 45.392 0.041 6.8 4.45 11.35
3/26/2021 11:00:00 PM 7.41 45.338 0.041 6.76 4.37 11.37
3/26/2021 11:15:00 PM 7.38 45.284 0.041 6.81 4.29 11.39
3/26/2021 11:30:00 PM 7.34 45.212 0.041 6.77 4.61 11.4
3/26/2021 11:45:00 PM 7.31 45.158 0.041 6.77 4.64 11.41
3/27/2021 12:00:00 AM 7.29 45.122 0.041 6.77 4.29 11.42
3/27/2021 12:15:00 AM 7.27 45.086 0.041 6.8 4.37 11.42
3/27/2021 12:30:00 AM 7.25 45.05 0.042 6.77 5.66 11.42
3/27/2021 12:45:00 AM 7.24 45.032 0.041 6.78 4.34 11.43
3/27/2021 1:00:00 AM 7.23 45.014 0.041 6.78 4.19 11.43
3/27/2021 1:15:00 AM 7.22 44.996 0.041 6.79 4.16 11.44
3/27/2021 1:30:00 AM 7.21 44.978 0.041 6.77 4.23 11.44
3/27/2021 1:45:00 AM 7.2 44.96 0.041 6.79 4 11.44
3/27/2021 2:00:00 AM 7.19 44.942 0.042 6.77 4.06 11.44
3/27/2021 2:15:00 AM 7.19 44.942 0.042 6.79 3.83 11.44
3/27/2021 2:30:00 AM 7.18 44.924 0.042 6.79 4.14 11.45
3/27/2021 2:45:00 AM 7.18 44.924 0.042 6.79 4.2 11.45
3/27/2021 3:00:00 AM 7.17 44.906 0.041 6.78 4.15 11.45
3/27/2021 3:15:00 AM 7.17 44.906 0.042 6.78 4.17 11.45
3/27/2021 3:30:00 AM 7.17 44.906 0.042 6.8 4.54 11.45
3/27/2021 3:45:00 AM 7.16 44.888 0.042 6.77 4.23 11.45
3/27/2021 4:00:00 AM 7.16 44.888 0.042 6.8 4.02 11.45
3/27/2021 4:15:00 AM 7.16 44.888 0.042 6.76 3.94 11.45
3/27/2021 4:30:00 AM 7.16 44.888 0.042 6.79 4.07 11.46
3/27/2021 4:45:00 AM 7.16 44.888 0.042 6.76 4.2 11.45
3/27/2021 5:00:00 AM 7.16 44.888 0.042 6.79 4.16 11.46
3/27/2021 5:15:00 AM 7.16 44.888 0.042 6.77 4.28 11.45
3/27/2021 5:30:00 AM 7.15 44.87 0.042 6.75 4.45 11.46
3/27/2021 5:45:00 AM 7.15 44.87 0.042 6.79 4.4 11.46
3/27/2021 6:00:00 AM 7.15 44.87 0.042 6.77 3.75 11.46
3/27/2021 6:15:00 AM 7.15 44.87 0.042 6.78 4.31 11.46
3/27/2021 6:30:00 AM 7.15 44.87 0.042 6.76 4.02 11.46
3/27/2021 6:45:00 AM 7.15 44.87 0.042 6.79 4.13 11.46
3/27/2021 7:00:00 AM 7.15 44.87 0.042 6.76 3.87 11.46
3/27/2021 7:15:00 AM 7.15 44.87 0.042 6.8 3.98 11.47
3/27/2021 7:30:00 AM 7.15 44.87 0.042 6.76 3.97 11.48
3/27/2021 7:45:00 AM 7.15 44.87 0.042 6.8 3.97 11.5
3/27/2021 8:00:00 AM 7.16 44.888 0.042 6.79 3.81 11.51
3/27/2021 8:15:00 AM 7.17 44.906 0.042 6.81 3.99 11.52
3/27/2021 8:30:00 AM 7.18 44.924 0.042 6.83 3.94 11.54
3/27/2021 8:45:00 AM 7.21 44.978 0.042 6.83 3.88 11.58
3/27/2021 9:00:00 AM 7.24 45.032 0.041 6.85 3.6 11.6
3/27/2021 9:15:00 AM 7.28 45.104 0.042 6.86 3.82 11.62
3/27/2021 9:30:00 AM 7.34 45.212 0.042 6.85 3.65 11.64
3/27/2021 9:45:00 AM 7.37 45.266 0.041 6.88 3.75 11.64
3/27/2021 10:00:00 AM 7.45 45.41 0.041 6.86 3.71 11.65
3/27/2021 10:15:00 AM 7.51 45.518 0.041 6.87 3.57 11.64
3/27/2021 10:30:00 AM 7.58 45.644 0.041 6.9 4.09 11.64
3/27/2021 10:45:00 AM 7.62 45.716 0.041 6.92 3.72 11.63
3/27/2021 11:00:00 AM 7.71 45.878 0.041 6.89 3.69 11.62
3/27/2021 11:15:00 AM 7.84 46.112 0.041 6.87 4 11.62
3/27/2021 11:30:00 AM 8.04 46.472 0.041 6.92 3.91 11.58
3/27/2021 11:45:00 AM 8.29 46.922 0.041 6.94 3.94 11.55
3/27/2021 12:00:00 PM 8.4 47.12 0.041 6.93 3.63 11.52
3/27/2021 12:15:00 PM 8.61 47.498 0.041 6.91 3.7 11.47
3/27/2021 12:30:00 PM 8.84 47.912 0.041 6.93 3.68 11.41
3/27/2021 12:45:00 PM 9.03 48.254 0.041 6.93 3.96 11.36
3/27/2021 1:00:00 PM 9.21 48.578 0.041 6.94 3.81 11.31
3/27/2021 1:15:00 PM 9.36 48.848 0.041 6.94 3.64 11.26
3/27/2021 1:30:00 PM 9.52 49.136 0.041 6.95 3.86 11.23
3/27/2021 1:45:00 PM 9.65 49.37 0.041 6.93 3.68 11.19
3/27/2021 2:00:00 PM 9.77 49.586 0.041 6.95 3.92 11.15
3/27/2021 2:15:00 PM 9.89 49.802 0.041 6.94 3.77 11.12
3/27/2021 2:30:00 PM 9.98 49.964 0.041 6.94 3.78 11.08
3/27/2021 2:45:00 PM 10.08 50.144 0.041 6.94 3.71 11.04
3/27/2021 3:00:00 PM 10.2 50.36 0.041 6.96 4.14 11.01
3/27/2021 3:15:00 PM 10.29 50.522 0.041 6.94 4.14 10.97
3/27/2021 3:30:00 PM 10.34 50.612 0.041 6.96 3.77 10.95
3/27/2021 3:45:00 PM 10.38 50.684 0.041 6.96 3.89 10.92
3/27/2021 4:00:00 PM 10.41 50.738 0.041 6.97 3.81 10.91
3/27/2021 4:15:00 PM 10.43 50.774 0.041 6.94 3.73 10.9
3/27/2021 4:30:00 PM 10.42 50.756 0.041 6.96 3.74 10.88
3/27/2021 4:45:00 PM 10.42 50.756 0.041 6.95 3.86 10.87
3/27/2021 5:00:00 PM 10.4 50.72 0.041 6.95 3.74 10.86
3/27/2021 5:15:00 PM 10.41 50.738 0.041 6.94 3.76 10.85
3/27/2021 5:30:00 PM 10.39 50.702 0.042 6.96 3.66 10.83
3/27/2021 5:45:00 PM 10.35 50.63 0.042 6.95 3.77 10.82
3/27/2021 6:00:00 PM 10.27 50.486 0.042 6.95 3.71 10.81
3/27/2021 6:15:00 PM 10.18 50.324 0.042 6.94 4.29 10.8
3/27/2021 6:30:00 PM 10.07 50.126 0.042 6.89 3.72 10.79
3/27/2021 6:45:00 PM 9.95 49.91 0.042 6.9 3.79 10.79
3/27/2021 7:00:00 PM 9.82 49.676 0.042 6.9 3.75 10.79
3/27/2021 7:15:00 PM 9.71 49.478 0.042 6.87 4.07 10.79
3/27/2021 7:30:00 PM 9.58 49.244 0.042 6.85 3.95 10.78
3/27/2021 7:45:00 PM 9.47 49.046 0.042 6.83 3.9 10.79
3/27/2021 8:00:00 PM 9.34 48.812 0.042 6.81 4.2 10.81
3/27/2021 8:15:00 PM 9.22 48.596 0.042 6.83 4.15 10.83
3/27/2021 8:30:00 PM 9.11 48.398 0.042 6.82 4.51 10.85
3/27/2021 8:45:00 PM 8.98 48.164 0.042 6.81 4.01 10.88
3/27/2021 9:00:00 PM 8.87 47.966 0.042 6.82 4.02 10.9
3/27/2021 9:15:00 PM 8.74 47.732 0.042 6.79 4.11 10.93
3/27/2021 9:30:00 PM 8.62 47.516 0.042 6.81 3.96 10.97
3/27/2021 9:45:00 PM 8.5 47.3 0.042 6.79 3.99 11
3/27/2021 10:00:00 PM 8.39 47.102 0.042 6.78 4.03 11.03
3/27/2021 10:15:00 PM 8.27 46.886 0.042 6.81 4.28 11.07
3/27/2021 10:30:00 PM 8.16 46.688 0.042 6.79 3.94 11.09
3/27/2021 10:45:00 PM 8.06 46.508 0.042 6.81 4.09 11.11
3/27/2021 11:00:00 PM 7.96 46.328 0.042 6.79 3.98 11.15
3/27/2021 11:15:00 PM 7.87 46.166 0.042 6.77 4.06 11.17
3/27/2021 11:30:00 PM 7.78 46.004 0.042 6.78 3.84 11.2
3/27/2021 11:45:00 PM 7.7 45.86 0.042 6.8 4.12 11.22
3/28/2021 12:00:00 AM 7.62 45.716 0.042 6.8 4.09 11.24
3/28/2021 12:15:00 AM 7.54 45.572 0.042 6.8 4.15 11.25
3/28/2021 12:30:00 AM 7.47 45.446 0.042 6.77 4.18 11.27
3/28/2021 12:45:00 AM 7.4 45.32 0.042 6.78 4.03 11.29
3/28/2021 1:00:00 AM 7.33 45.194 0.042 6.79 3.99 11.3
3/28/2021 1:15:00 AM 7.27 45.086 0.042 6.79 4.06 11.32
3/28/2021 1:30:00 AM 7.21 44.978 0.042 6.77 4.23 11.34
3/28/2021 1:45:00 AM 7.15 44.87 0.042 6.78 3.99 11.36
3/28/2021 2:00:00 AM 7.09 44.762 0.042 6.76 3.95 11.38
3/28/2021 2:15:00 AM 7.04 44.672 0.042 6.73 3.88 11.38
3/28/2021 2:30:00 AM 6.99 44.582 0.043 6.78 4.15 11.4
3/28/2021 2:45:00 AM 6.94 44.492 0.042 6.76 4.02 11.41
3/28/2021 3:00:00 AM 6.9 44.42 0.042 6.79 4.2 11.42
3/28/2021 3:15:00 AM 6.85 44.33 0.043 6.76 3.77 11.43
3/28/2021 3:30:00 AM 6.81 44.258 0.043 6.77 4.01 11.43
3/28/2021 3:45:00 AM 6.77 44.186 0.043 6.77 3.85 11.45
3/28/2021 4:00:00 AM 6.73 44.114 0.043 6.79 4.07 11.46
3/28/2021 4:15:00 AM 6.69 44.042 0.042 6.76 4.08 11.47
3/28/2021 4:30:00 AM 6.67 44.006 0.042 6.79 3.94 11.47
3/28/2021 4:45:00 AM 6.65 43.97 0.043 6.75 4 11.48
3/28/2021 5:00:00 AM 6.63 43.934 0.042 6.79 3.89 11.48
3/28/2021 5:15:00 AM 6.61 43.898 0.042 6.76 3.9 11.48
3/28/2021 5:30:00 AM 6.61 43.898 0.042 6.79 4.03 11.49
3/28/2021 5:45:00 AM 6.6 43.88 0.043 6.75 3.96 11.49
3/28/2021 6:00:00 AM 6.6 43.88 0.042 6.76 4.02 11.49
3/28/2021 6:15:00 AM 6.6 43.88 0.042 6.75 4.07 11.49
3/28/2021 6:30:00 AM 6.6 43.88 0.042 6.78 3.8 11.48
3/28/2021 6:45:00 AM 6.62 43.916 0.042 6.76 4.22 11.48
3/28/2021 7:00:00 AM 6.64 43.952 0.043 6.79 4.01 11.47
3/28/2021 7:15:00 AM 6.67 44.006 0.043 6.76 3.94 11.46
3/28/2021 7:30:00 AM 6.69 44.042 0.043 6.78 3.78 11.45
3/28/2021 7:45:00 AM 6.73 44.114 0.042 6.76 3.69 11.45
3/28/2021 8:00:00 AM 6.77 44.186 0.042 6.79 3.64 11.45
3/28/2021 8:15:00 AM 6.81 44.258 0.043 6.77 3.59 11.43
3/28/2021 8:30:00 AM 6.86 44.348 0.042 6.81 3.66 11.42
3/28/2021 8:45:00 AM 6.9 44.42 0.042 6.78 3.57 11.42
3/28/2021 9:00:00 AM 6.95 44.51 0.042 6.82 3.68 11.42
3/28/2021 9:15:00 AM 7 44.6 0.042 6.8 3.97 11.41
3/28/2021 9:30:00 AM 7.05 44.69 0.042 6.79 3.77 11.41
3/28/2021 9:45:00 AM 7.1 44.78 0.042 6.81 3.68 11.4
3/28/2021 10:00:00 AM 7.16 44.888 0.042 6.82 4.19 11.38
3/28/2021 10:15:00 AM 7.22 44.996 0.042 6.82 3.67 11.37
3/28/2021 10:30:00 AM 7.29 45.122 0.042 6.85 3.63 11.35
3/28/2021 10:45:00 AM 7.36 45.248 0.042 6.82 3.73 11.35
3/28/2021 11:00:00 AM 7.42 45.356 0.042 6.85 3.58 11.34
3/28/2021 11:15:00 AM 7.51 45.518 0.042 6.85 3.53 11.34
3/28/2021 11:30:00 AM 7.59 45.662 0.042 6.87 3.65 11.32
3/28/2021 11:45:00 AM 7.65 45.77 0.042 6.85 3.55 11.31
3/28/2021 12:00:00 PM 7.71 45.878 0.042 6.87 3.53 11.29
3/28/2021 12:15:00 PM 7.78 46.004 0.042 6.87 3.82 11.29
3/28/2021 12:30:00 PM 7.85 46.13 0.042 6.86 3.7 11.27
3/28/2021 12:45:00 PM 7.9 46.22 0.042 6.86 3.64 11.25
3/28/2021 1:00:00 PM 7.96 46.328 0.042 6.89 3.74 11.24
3/28/2021 1:15:00 PM 8.03 46.454 0.042 6.86 3.55 11.22
3/28/2021 1:30:00 PM 8.09 46.562 0.042 6.88 3.72 11.2
3/28/2021 1:45:00 PM 8.14 46.652 0.042 6.86 3.61 11.17
3/28/2021 2:00:00 PM 8.19 46.742 0.042 6.9 4.17 11.15
3/28/2021 2:15:00 PM 8.25 46.85 0.042 6.87 3.61 11.11
3/28/2021 2:30:00 PM 8.31 46.958 0.042 6.88 4.31 11.1
3/28/2021 2:45:00 PM 8.35 47.03 0.042 6.86 3.94 11.07
3/28/2021 3:00:00 PM 8.37 47.066 0.043 6.87 6.46 11.02
3/28/2021 3:15:00 PM 8.42 47.156 0.043 6.85 5.17 11.03
3/28/2021 3:30:00 PM 8.47 47.246 0.043 6.85 5.2 11.04
3/28/2021 3:45:00 PM 8.5 47.3 0.045 6.83 5.71 11
3/28/2021 4:00:00 PM 8.54 47.372 0.046 6.88 6.22 11.02
3/28/2021 4:15:00 PM 8.53 47.354 0.049 6.87 7.22 11.01
3/28/2021 4:30:00 PM 8.53 47.354 0.051 6.91 8.56 11.02
3/28/2021 4:45:00 PM 8.52 47.336 0.051 6.88 8.58 11.02
3/28/2021 5:00:00 PM 8.5 47.3 0.053 6.91 9.81 11.01
3/28/2021 5:15:00 PM 8.47 47.246 0.054 6.89 10.25 11.03
3/28/2021 5:30:00 PM 8.43 47.174 0.055 6.91 9.92 11.03
3/28/2021 5:45:00 PM 8.39 47.102 0.055 6.89 10.42 11.04
3/28/2021 6:00:00 PM 8.34 47.012 0.055 6.89 9.8 11.04
3/28/2021 6:15:00 PM 8.27 46.886 0.055 6.86 10.6 11.03
3/28/2021 6:30:00 PM 8.21 46.778 0.055 6.9 10.11 11.03
3/28/2021 6:45:00 PM 8.13 46.634 0.056 6.86 8.67 11.04
3/28/2021 7:00:00 PM 8.05 46.49 0.057 6.86 9.07 11.04
3/28/2021 7:15:00 PM 7.96 46.328 0.058 6.88 8.82 11.06
3/28/2021 7:30:00 PM 7.89 46.202 0.059 6.87 8.04 11.07
3/28/2021 7:45:00 PM 7.79 46.022 0.061 6.85 8.1 11.07
3/28/2021 8:00:00 PM 7.69 45.842 0.063 6.82 7.94 11.09
3/28/2021 8:15:00 PM 7.61 45.698 0.065 6.86 8.25 11.12
3/28/2021 8:30:00 PM 7.51 45.518 0.066 6.83 7.89 11.13
3/28/2021 8:45:00 PM 7.43 45.374 0.066 6.87 8.09 11.16
3/28/2021 9:00:00 PM 7.33 45.194 0.066 6.84 7.47 11.19
3/28/2021 9:15:00 PM 7.25 45.05 0.067 6.83 7.41 11.22
3/28/2021 9:30:00 PM 7.18 44.924 0.067 6.86 7.04 11.24
3/28/2021 9:45:00 PM 7.11 44.798 0.066 6.86 7.44 11.26
3/28/2021 10:00:00 PM 7.04 44.672 0.066 6.84 7.04 11.29
3/28/2021 10:15:00 PM 6.97 44.546 0.066 6.86 6.71 11.31
3/28/2021 10:30:00 PM 6.91 44.438 0.065 6.83 6.6 11.34
3/28/2021 10:45:00 PM 6.85 44.33 0.065 6.85 6.39 11.36
3/28/2021 11:00:00 PM 6.79 44.222 0.064 6.83 6.82 11.38
3/28/2021 11:15:00 PM 6.72 44.096 0.064 6.82 6.42 11.4
3/28/2021 11:30:00 PM 6.66 43.988 0.063 6.82 5.88 11.43
3/28/2021 11:45:00 PM 6.59 43.862 0.063 6.86 5.32 11.45
3/29/2021 12:00:00 AM 6.47 43.646 0.062 6.81 5.63 11.46
3/29/2021 12:15:00 AM 6.37 43.466 0.062 6.86 5.33 11.5
3/29/2021 12:30:00 AM 6.3 43.34 0.061 6.82 5.45 11.53
3/29/2021 12:45:00 AM 6.24 43.232 0.061 6.82 5.64 11.55
3/29/2021 1:00:00 AM 6.16 43.088 0.06 6.82 5.13 11.58
3/29/2021 1:15:00 AM 6.09 42.962 0.06 6.82 5.28 11.6
3/29/2021 1:30:00 AM 6.03 42.854 0.059 6.84 5.05 11.63
3/29/2021 1:45:00 AM 5.95 42.71 0.059 6.82 4.81 11.66
3/29/2021 2:00:00 AM 5.87 42.566 0.059 6.85 5.21 11.69
3/29/2021 2:15:00 AM 5.81 42.458 0.058 6.81 4.87 11.71
3/29/2021 2:30:00 AM 5.74 42.332 0.058 6.82 4.93 11.73
3/29/2021 2:45:00 AM 5.69 42.242 0.057 6.82 4.74 11.76
3/29/2021 3:00:00 AM 5.62 42.116 0.057 6.81 4.75 11.78
3/29/2021 3:15:00 AM 5.56 42.008 0.057 6.81 4.91 11.8
3/29/2021 3:30:00 AM 5.51 41.918 0.057 6.83 4.73 11.81
3/29/2021 3:45:00 AM 5.47 41.846 0.057 6.81 4.64 11.83
3/29/2021 4:00:00 AM 5.43 41.774 0.056 6.81 4.33 11.85
3/29/2021 4:15:00 AM 5.39 41.702 0.056 6.82 4.52 11.88
3/29/2021 4:30:00 AM 5.36 41.648 0.056 6.78 4.71 11.89
3/29/2021 4:45:00 AM 5.34 41.612 0.056 6.81 4.5 11.9
3/29/2021 5:00:00 AM 5.29 41.522 0.056 6.8 4.4 11.92
3/29/2021 5:15:00 AM 5.26 41.468 0.056 6.8 4.28 11.93
3/29/2021 5:30:00 AM 5.25 41.45 0.055 6.78 4.14 11.94
3/29/2021 5:45:00 AM 5.23 41.414 0.055 6.84 4.15 11.95
3/29/2021 6:00:00 AM 5.21 41.378 0.055 6.79 4.29 11.96
3/29/2021 6:15:00 AM 5.19 41.342 0.055 6.82 4.39 11.97
3/29/2021 6:30:00 AM 5.17 41.306 0.055 6.79 4.61 11.98
3/29/2021 6:45:00 AM 5.14 41.252 0.055 6.84 4.38 11.99
3/29/2021 7:00:00 AM 5.12 41.216 0.055 6.8 4.13 12.01
3/29/2021 7:15:00 AM 5.09 41.162 0.054 6.83 4.4 12.02
3/29/2021 7:30:00 AM 5.08 41.144 0.054 6.85 4.02 12.04
3/29/2021 7:45:00 AM 5.06 41.108 0.054 6.82 4.17 12.06
3/29/2021 8:00:00 AM 5.04 41.072 0.054 6.78 4.04 12.07
3/29/2021 8:15:00 AM 5.02 41.036 0.054 6.84 4.31 12.09
3/29/2021 8:30:00 AM 5.01 41.018 0.054 6.82 3.84 12.12
3/29/2021 8:45:00 AM 5.01 41.018 0.054 6.87 3.68 12.16
3/29/2021 9:00:00 AM 5 41 0.053 6.85 3.9 12.19
3/29/2021 9:15:00 AM 5 41 0.053 6.83 3.7 12.21
3/29/2021 9:30:00 AM 5 41 0.053 6.89 3.72 12.23
3/29/2021 9:45:00 AM 5.01 41.018 0.053 6.86 3.87 12.25
3/29/2021 10:00:00 AM 5.02 41.036 0.053 6.9 3.86 12.27
3/29/2021 10:15:00 AM 5.05 41.09 0.053 6.91 3.76 12.29
3/29/2021 10:30:00 AM 5.08 41.144 0.052 6.89 3.79 12.3
3/29/2021 10:45:00 AM 5.12 41.216 0.052 6.92 3.65 12.32
3/29/2021 11:00:00 AM 5.19 41.342 0.052 6.88 3.88 12.33
3/29/2021 11:15:00 AM 5.27 41.486 0.052 6.91 3.89 12.33
3/29/2021 11:30:00 AM 5.37 41.666 0.052 6.91 3.94 12.33
3/29/2021 11:45:00 AM 5.51 41.918 0.052 6.95 3.83 12.31
3/29/2021 12:00:00 PM 5.63 42.134 0.051 6.93 3.63 12.3
3/29/2021 12:15:00 PM 5.8 42.44 0.051 6.96 3.72 12.27
3/29/2021 12:30:00 PM 6.07 42.926 0.051 6.93 4.28 12.23
3/29/2021 12:45:00 PM 6.26 43.268 0.051 6.95 3.66 12.18
3/29/2021 1:00:00 PM 6.27 43.286 0.051 6.95 3.63 12.13
3/29/2021 1:15:00 PM 6.39 43.502 0.051 6.96 3.67 12.11
3/29/2021 1:30:00 PM 6.56 43.808 0.051 6.94 3.6 12.07
3/29/2021 1:45:00 PM 6.77 44.186 0.05 6.96 3.71 12
3/29/2021 2:00:00 PM 6.97 44.546 0.05 6.93 3.78 11.95
3/29/2021 2:15:00 PM 7.18 44.924 0.05 6.96 4.03 11.89
3/29/2021 2:30:00 PM 7.4 45.32 0.05 6.94 3.7 11.81
3/29/2021 2:45:00 PM 7.59 45.662 0.05 6.96 3.58 11.75
3/29/2021 3:00:00 PM 7.76 45.968 0.05 6.94 3.78 11.7
3/29/2021 3:15:00 PM 7.9 46.22 0.05 6.94 3.75 11.65
3/29/2021 3:30:00 PM 8.02 46.436 0.05 6.97 3.75 11.6
3/29/2021 3:45:00 PM 8.11 46.598 0.049 6.94 3.7 11.56
3/29/2021 4:00:00 PM 8.19 46.742 0.049 6.97 3.85 11.52
3/29/2021 4:15:00 PM 8.25 46.85 0.049 6.94 3.67 11.5
3/29/2021 4:30:00 PM 8.28 46.904 0.049 6.96 3.8 11.47
3/29/2021 4:45:00 PM 8.27 46.886 0.049 6.94 3.64 11.46
3/29/2021 5:00:00 PM 8.25 46.85 0.049 6.95 3.68 11.45
3/29/2021 5:15:00 PM 8.21 46.778 0.049 6.95 3.74 11.44
3/29/2021 5:30:00 PM 8.14 46.652 0.049 6.95 3.85 11.44
3/29/2021 5:45:00 PM 8.07 46.526 0.049 6.92 3.76 11.44
3/29/2021 6:00:00 PM 7.99 46.382 0.049 6.95 3.73 11.44
3/29/2021 6:15:00 PM 7.89 46.202 0.049 6.91 3.66 11.45
3/29/2021 6:30:00 PM 7.77 45.986 0.049 6.91 3.85 11.45
3/29/2021 6:45:00 PM 7.65 45.77 0.049 6.9 3.76 11.46
3/29/2021 7:00:00 PM 7.53 45.554 0.049 6.91 3.86 11.46
3/29/2021 7:15:00 PM 7.41 45.338 0.049 6.89 3.9 11.47
3/29/2021 7:30:00 PM 7.28 45.104 0.049 6.89 3.98 11.49
3/29/2021 7:45:00 PM 7.15 44.87 0.049 6.86 3.97 11.51
3/29/2021 8:00:00 PM 7.02 44.636 0.049 6.88 3.99 11.53
3/29/2021 8:15:00 PM 6.88 44.384 0.049 6.85 4.05 11.56
3/29/2021 8:30:00 PM 6.76 44.168 0.049 6.87 3.89 11.59
3/29/2021 8:45:00 PM 6.63 43.934 0.049 6.83 4.07 11.63
3/29/2021 9:00:00 PM 6.5 43.7 0.049 6.84 3.8 11.66
3/29/2021 9:15:00 PM 6.39 43.502 0.049 6.83 3.97 11.7
3/29/2021 9:30:00 PM 6.27 43.286 0.049 6.83 4.26 11.73
3/29/2021 9:45:00 PM 6.17 43.106 0.049 6.83 3.94 11.76
3/29/2021 10:00:00 PM 6.07 42.926 0.048 6.84 3.96 11.79
3/29/2021 10:15:00 PM 5.97 42.746 0.048 6.85 3.97 11.83
3/29/2021 10:30:00 PM 5.89 42.602 0.048 6.82 3.97 11.86
3/29/2021 10:45:00 PM 5.8 42.44 0.048 6.83 4.02 11.88
3/29/2021 11:00:00 PM 5.73 42.314 0.048 6.82 3.97 11.9
3/29/2021 11:15:00 PM 5.65 42.17 0.048 6.8 3.92 11.92
3/29/2021 11:30:00 PM 5.58 42.044 0.048 6.83 4.42 11.94
3/29/2021 11:45:00 PM 5.52 41.936 0.048 6.82 3.93 11.97
3/30/2021 12:00:00 AM 5.46 41.828 0.048 6.83 3.94 11.99
3/30/2021 12:15:00 AM 5.4 41.72 0.048 6.81 3.97 12.01
3/30/2021 12:30:00 AM 5.35 41.63 0.048 6.82 3.89 12.03
3/30/2021 12:45:00 AM 5.3 41.54 0.047 6.8 4.19 12.04
3/30/2021 1:00:00 AM 5.25 41.45 0.047 6.81 3.9 12.06
3/30/2021 1:15:00 AM 5.2 41.36 0.047 6.78 4.05 12.08
3/30/2021 1:30:00 AM 5.16 41.288 0.047 6.81 3.81 12.09
3/30/2021 1:45:00 AM 5.11 41.198 0.047 6.78 3.77 12.1
3/30/2021 2:00:00 AM 5.07 41.126 0.047 6.8 3.86 12.12
3/30/2021 2:15:00 AM 5.03 41.054 0.047 6.78 3.75 12.13
3/30/2021 2:30:00 AM 4.99 40.982 0.047 6.78 3.73 12.15
3/30/2021 2:45:00 AM 4.95 40.91 0.047 6.77 3.67 12.15
3/30/2021 3:00:00 AM 4.92 40.856 0.047 6.79 3.79 12.16
3/30/2021 3:15:00 AM 4.89 40.802 0.047 6.77 4.01 12.18
3/30/2021 3:30:00 AM 4.85 40.73 0.047 6.79 4.05 12.19
3/30/2021 3:45:00 AM 4.82 40.676 0.047 6.77 3.67 12.2
3/30/2021 4:00:00 AM 4.78 40.604 0.047 6.8 3.76 12.21
3/30/2021 4:15:00 AM 4.75 40.55 0.046 6.78 3.89 12.22
3/30/2021 4:30:00 AM 4.73 40.514 0.047 6.79 3.86 12.23
3/30/2021 4:45:00 AM 4.7 40.46 0.046 6.77 3.88 12.24
3/30/2021 5:00:00 AM 4.67 40.406 0.046 6.8 3.65 12.25
3/30/2021 5:15:00 AM 4.64 40.352 0.046 6.78 3.85 12.26
3/30/2021 5:30:00 AM 4.62 40.316 0.046 6.79 3.87 12.27
3/30/2021 5:45:00 AM 4.59 40.262 0.046 6.78 3.63 12.28
3/30/2021 6:00:00 AM 4.57 40.226 0.046 6.78 3.69 12.29
3/30/2021 6:15:00 AM 4.55 40.19 0.046 6.76 3.78 12.29
3/30/2021 6:30:00 AM 4.53 40.154 0.047 6.79 3.84 12.3
3/30/2021 6:45:00 AM 4.51 40.118 0.046 6.76 3.93 12.31
3/30/2021 7:00:00 AM 4.49 40.082 0.047 6.78 3.95 12.31
3/30/2021 7:15:00 AM 4.47 40.046 0.046 6.77 3.82 12.33
3/30/2021 7:30:00 AM 4.46 40.028 0.046 6.81 3.76 12.35
3/30/2021 7:45:00 AM 4.45 40.01 0.046 6.79 3.86 12.37
3/30/2021 8:00:00 AM 4.46 40.028 0.046 6.82 3.68 12.39
3/30/2021 8:15:00 AM 4.48 40.064 0.046 6.8 3.71 12.41
3/30/2021 8:30:00 AM 4.53 40.154 0.046 6.85 3.7 12.44
3/30/2021 8:45:00 AM 4.59 40.262 0.046 6.83 3.87 12.46
3/30/2021 9:00:00 AM 4.66 40.388 0.046 6.87 3.53 12.46
3/30/2021 9:15:00 AM 4.76 40.568 0.046 6.85 3.73 12.46
3/30/2021 9:30:00 AM 4.87 40.766 0.046 6.89 3.54 12.45
3/30/2021 9:45:00 AM 5.01 41.018 0.046 6.87 3.57 12.43
3/30/2021 10:00:00 AM 5.16 41.288 0.046 6.9 3.74 12.41
3/30/2021 10:15:00 AM 5.32 41.576 0.046 6.9 3.48 12.38
3/30/2021 10:30:00 AM 5.51 41.918 0.046 6.91 3.53 12.34
3/30/2021 10:45:00 AM 5.7 42.26 0.046 6.89 3.59 12.3
3/30/2021 11:00:00 AM 5.92 42.656 0.046 6.94 3.62 12.25
3/30/2021 11:15:00 AM 6.13 43.034 0.046 6.9 3.6 12.19
3/30/2021 11:30:00 AM 6.36 43.448 0.046 6.93 3.5 12.13
3/30/2021 11:45:00 AM 6.6 43.88 0.045 6.92 3.6 12.07
3/30/2021 12:00:00 PM 6.84 44.312 0.045 6.94 3.49 12
3/30/2021 12:15:00 PM 7.08 44.744 0.045 6.95 3.49 11.94
3/30/2021 12:30:00 PM 7.34 45.212 0.045 6.94 3.43 11.87
3/30/2021 12:45:00 PM 7.6 45.68 0.045 6.93 3.82 11.78
3/30/2021 1:00:00 PM 7.86 46.148 0.045 6.95 3.4 11.71
3/30/2021 1:15:00 PM 8.12 46.616 0.045 6.94 3.29 11.63
3/30/2021 1:30:00 PM 8.38 47.084 0.045 6.97 3.36 11.56
3/30/2021 1:45:00 PM 8.63 47.534 0.045 6.95 3.52 11.49
3/30/2021 2:00:00 PM 8.87 47.966 0.045 6.97 3.31 11.41
3/30/2021 2:15:00 PM 9.11 48.398 0.045 6.95 3.44 11.35
3/30/2021 2:30:00 PM 9.33 48.794 0.045 6.96 3.69 11.28
3/30/2021 2:45:00 PM 9.53 49.154 0.045 6.94 3.51 11.22
3/30/2021 3:00:00 PM 9.7 49.46 0.045 6.95 3.44 11.17
3/30/2021 3:15:00 PM 9.86 49.748 0.045 6.94 3.58 11.12
3/30/2021 3:30:00 PM 9.99 49.982 0.045 6.98 3.58 11.07
3/30/2021 3:45:00 PM 10.11 50.198 0.045 6.95 3.57 11.03
3/30/2021 4:00:00 PM 10.19 50.342 0.045 6.98 3.65 10.99
3/30/2021 4:15:00 PM 10.23 50.414 0.045 6.95 3.72 10.96
3/30/2021 4:30:00 PM 10.23 50.414 0.045 6.97 3.7 10.95
3/30/2021 4:45:00 PM 10.22 50.396 0.045 6.96 3.51 10.93
3/30/2021 5:00:00 PM 10.22 50.396 0.045 6.97 3.66 10.91
3/30/2021 5:15:00 PM 10.19 50.342 0.045 6.96 3.89 10.9
3/30/2021 5:30:00 PM 10.14 50.252 0.045 6.98 3.64 10.89
3/30/2021 5:45:00 PM 10.06 50.108 0.045 6.96 4.04 10.88
3/30/2021 6:00:00 PM 9.97 49.946 0.045 6.96 3.75 10.88
3/30/2021 6:15:00 PM 9.85 49.73 0.045 6.95 3.51 10.89
3/30/2021 6:30:00 PM 9.75 49.55 0.045 6.95 3.69 10.9
3/30/2021 6:45:00 PM 9.64 49.352 0.045 6.9 3.68 10.9
3/30/2021 7:00:00 PM 9.52 49.136 0.045 6.93 3.69 10.9
3/30/2021 7:15:00 PM 9.39 48.902 0.045 6.91 3.76 10.91
3/30/2021 7:30:00 PM 9.27 48.686 0.045 6.88 3.84 10.91
3/30/2021 7:45:00 PM 9.13 48.434 0.045 6.85 3.84 10.93
3/30/2021 8:00:00 PM 9 48.2 0.045 6.84 3.84 10.94
3/30/2021 8:15:00 PM 8.88 47.984 0.045 6.87 3.95 10.96
3/30/2021 8:30:00 PM 8.76 47.768 0.045 6.83 3.83 10.98
3/30/2021 8:45:00 PM 8.65 47.57 0.045 6.87 4.1 11
3/30/2021 9:00:00 PM 8.55 47.39 0.045 6.84 3.97 11.03
3/30/2021 9:15:00 PM 8.44 47.192 0.045 6.85 3.86 11.06
3/30/2021 9:30:00 PM 8.34 47.012 0.045 6.83 3.99 11.09
3/30/2021 9:45:00 PM 8.25 46.85 0.045 6.86 4.12 11.12
3/30/2021 10:00:00 PM 8.16 46.688 0.045 6.82 3.99 11.14
3/30/2021 10:15:00 PM 8.08 46.544 0.045 6.85 4.08 11.16
3/30/2021 10:30:00 PM 8.01 46.418 0.045 6.82 3.85 11.18
3/30/2021 10:45:00 PM 7.94 46.292 0.045 6.84 3.89 11.2
3/30/2021 11:00:00 PM 7.87 46.166 0.045 6.82 3.95 11.23
3/30/2021 11:15:00 PM 7.81 46.058 0.045 6.84 4.08 11.25
3/30/2021 11:30:00 PM 7.74 45.932 0.045 6.82 3.98 11.26
3/30/2021 11:45:00 PM 7.68 45.824 0.045 6.83 3.82 11.28
3/31/2021 12:00:00 AM 7.62 45.716 0.044 6.82 4 11.29
3/31/2021 12:15:00 AM 7.57 45.626 0.044 6.83 3.71 11.31
3/31/2021 12:30:00 AM 7.51 45.518 0.044 6.81 3.89 11.32
3/31/2021 12:45:00 AM 7.46 45.428 0.045 6.83 3.87 11.33
3/31/2021 1:00:00 AM 7.42 45.356 0.044 6.8 4.2 11.34
3/31/2021 1:15:00 AM 7.38 45.284 0.044 6.81 3.84 11.36
3/31/2021 1:30:00 AM 7.34 45.212 0.044 6.81 3.67 11.37
3/31/2021 1:45:00 AM 7.31 45.158 0.044 6.79 3.93 11.38
3/31/2021 2:00:00 AM 7.27 45.086 0.044 6.84 3.73 11.39
3/31/2021 2:15:00 AM 7.24 45.032 0.044 6.82 3.78 11.4
3/31/2021 2:30:00 AM 7.21 44.978 0.044 6.82 3.87 11.41
3/31/2021 2:45:00 AM 7.18 44.924 0.044 6.82 3.83 11.41
3/31/2021 3:00:00 AM 7.16 44.888 0.044 6.8 4.14 11.42
3/31/2021 3:15:00 AM 7.13 44.834 0.044 6.81 3.7 11.43
3/31/2021 3:30:00 AM 7.1 44.78 0.044 6.79 3.82 11.44
3/31/2021 3:45:00 AM 7.08 44.744 0.044 6.83 3.76 11.44
3/31/2021 4:00:00 AM 7.06 44.708 0.044 6.79 3.94 11.44
3/31/2021 4:15:00 AM 7.04 44.672 0.044 6.82 3.58 11.44
3/31/2021 4:30:00 AM 7.03 44.654 0.044 6.79 3.77 11.44
3/31/2021 4:45:00 AM 7.01 44.618 0.044 6.82 3.69 11.45
3/31/2021 5:00:00 AM 7 44.6 0.044 6.8 3.84 11.45
3/31/2021 5:15:00 AM 6.99 44.582 0.044 6.82 3.87 11.45
3/31/2021 5:30:00 AM 6.98 44.564 0.044 6.8 3.81 11.46
3/31/2021 5:45:00 AM 6.97 44.546 0.044 6.79 3.8 11.46
3/31/2021 6:00:00 AM 6.96 44.528 0.044 6.81 3.77 11.46
3/31/2021 6:15:00 AM 6.95 44.51 0.044 6.79 3.77 11.46
3/31/2021 6:30:00 AM 6.95 44.51 0.044 6.81 3.96 11.46
3/31/2021 6:45:00 AM 6.94 44.492 0.044 6.8 4.02 11.46
3/31/2021 7:00:00 AM 6.93 44.474 0.044 6.81 3.66 11.47
3/31/2021 7:15:00 AM 6.93 44.474 0.044 6.78 3.93 11.47
3/31/2021 7:30:00 AM 6.93 44.474 0.044 6.81 3.73 11.48
3/31/2021 7:45:00 AM 6.94 44.492 0.044 6.79 3.73 11.49
3/31/2021 8:00:00 AM 6.95 44.51 0.044 6.84 3.88 11.5
3/31/2021 8:15:00 AM 6.97 44.546 0.044 6.8 3.62 11.5
3/31/2021 8:30:00 AM 6.98 44.564 0.044 6.81 4.24 11.51
3/31/2021 8:45:00 AM 7 44.6 0.044 6.8 3.72 11.51
3/31/2021 9:00:00 AM 7.02 44.636 0.044 6.84 3.58 11.52
3/31/2021 9:15:00 AM 7.05 44.69 0.044 6.82 3.84 11.53
3/31/2021 9:30:00 AM 7.07 44.726 0.044 6.82 3.51 11.53
3/31/2021 9:45:00 AM 7.09 44.762 0.044 6.81 3.89 11.53
3/31/2021 10:00:00 AM 7.12 44.816 0.044 6.85 3.83 11.52
3/31/2021 10:15:00 AM 7.15 44.87 0.043 6.83 3.74 11.54
3/31/2021 10:30:00 AM 7.19 44.942 0.044 6.86 3.94 11.54
3/31/2021 10:45:00 AM 7.23 45.014 0.043 6.84 3.94 11.55
3/31/2021 11:00:00 AM 7.26 45.068 0.044 6.88 3.79 11.55
3/31/2021 11:15:00 AM 7.29 45.122 0.043 6.85 3.85 11.54
3/31/2021 11:30:00 AM 7.32 45.176 0.044 6.87 3.92 11.53
3/31/2021 11:45:00 AM 7.34 45.212 0.043 6.86 3.84 11.51
3/31/2021 12:00:00 PM 7.37 45.266 0.044 6.86 4.08 11.51
3/31/2021 12:15:00 PM 7.4 45.32 0.044 6.85 4.16 11.5
3/31/2021 12:30:00 PM 7.43 45.374 0.044 6.86 3.99 11.49
3/31/2021 12:45:00 PM 7.46 45.428 0.044 6.89 4.39 11.49
3/31/2021 1:00:00 PM 7.51 45.518 0.044 6.86 3.85 11.51
3/31/2021 1:15:00 PM 7.56 45.608 0.044 6.89 3.84 11.5
3/31/2021 1:30:00 PM 7.59 45.662 0.044 6.87 3.65 11.48
3/31/2021 1:45:00 PM 7.62 45.716 0.044 6.89 3.84 11.47
3/31/2021 2:00:00 PM 7.65 45.77 0.044 6.87 3.77 11.46
3/31/2021 2:15:00 PM 7.7 45.86 0.044 6.91 3.83 11.46
3/31/2021 2:30:00 PM 7.74 45.932 0.044 6.87 3.72 11.45
3/31/2021 2:45:00 PM 7.77 45.986 0.045 6.91 3.86 11.43
3/31/2021 3:00:00 PM 7.8 46.04 0.045 6.88 3.69 11.42
3/31/2021 3:15:00 PM 7.84 46.112 0.045 6.89 3.62 11.39
3/31/2021 3:30:00 PM 7.87 46.166 0.045 6.88 3.58 11.37
3/31/2021 3:45:00 PM 7.89 46.202 0.045 6.9 3.84 11.36
3/31/2021 4:00:00 PM 7.91 46.238 0.046 6.87 3.68 11.34
3/31/2021 4:15:00 PM 7.93 46.274 0.046 6.89 3.73 11.32
3/31/2021 4:30:00 PM 7.94 46.292 0.046 6.87 3.57 11.29
3/31/2021 4:45:00 PM 7.94 46.292 0.046 6.88 3.77 11.28
3/31/2021 5:00:00 PM 7.93 46.274 0.047 6.75 3.6 11.27
3/31/2021 5:15:00 PM 7.93 46.274 0.046 6.89 3.62 11.27
3/31/2021 5:30:00 PM 7.93 46.274 0.047 6.86 3.59 11.27
3/31/2021 5:45:00 PM 7.92 46.256 0.047 6.88 3.62 11.28
3/31/2021 6:00:00 PM 7.91 46.238 0.047 6.87 3.86 11.29
3/31/2021 6:15:00 PM 7.88 46.184 0.047 6.88 3.56 11.28
3/31/2021 6:30:00 PM 7.85 46.13 0.047 6.86 3.74 11.3
3/31/2021 6:45:00 PM 7.83 46.094 0.046 6.87 3.66 11.31
3/31/2021 7:00:00 PM 7.8 46.04 0.046 6.87 3.78 11.33
3/31/2021 7:15:00 PM 7.76 45.968 0.046 6.89 3.68 11.33
3/31/2021 7:30:00 PM 7.72 45.896 0.046 6.87 3.58 11.32
3/31/2021 7:45:00 PM 7.67 45.806 0.046 6.87 3.84 11.31
3/31/2021 8:00:00 PM 7.62 45.716 0.046 6.86 3.94 11.31
3/31/2021 8:15:00 PM 7.57 45.626 0.047 6.83 4.27 11.3
3/31/2021 8:30:00 PM 7.51 45.518 0.047 6.84 3.75 11.32
3/31/2021 8:45:00 PM 7.45 45.41 0.047 6.83 4.03 11.32
3/31/2021 9:00:00 PM 7.38 45.284 0.047 6.85 3.9 11.34
3/31/2021 9:15:00 PM 7.32 45.176 0.047 6.82 3.83 11.35
3/31/2021 9:30:00 PM 7.26 45.068 0.047 6.83 4.18 11.37
3/31/2021 9:45:00 PM 7.2 44.96 0.047 6.81 3.79 11.39
3/31/2021 10:00:00 PM 7.14 44.852 0.047 6.84 3.7 11.4
3/31/2021 10:15:00 PM 7.09 44.762 0.047 6.81 3.67 11.42
3/31/2021 10:30:00 PM 7.04 44.672 0.047 6.83 3.81 11.43
3/31/2021 10:45:00 PM 7 44.6 0.047 6.81 3.85 11.45
3/31/2021 11:00:00 PM 6.95 44.51 0.047 6.83 3.79 11.46
3/31/2021 11:15:00 PM 6.91 44.438 0.047 6.81 3.73 11.47
3/31/2021 11:30:00 PM 6.87 44.366 0.047 6.84 3.9 11.48
3/31/2021 11:45:00 PM 6.83 44.294 0.047 6.82 3.56 11.5
4/1/2021 12:00:00 AM 6.8 44.24 0.047 6.8 3.83 11.51
4/1/2021 12:15:00 AM 6.76 44.168 0.047 6.81 3.74 11.52
4/1/2021 12:30:00 AM 6.72 44.096 0.047 6.82 3.67 11.53
4/1/2021 12:45:00 AM 6.68 44.024 0.047 6.83 3.8 11.55
4/1/2021 1:00:00 AM 6.64 43.952 0.047 6.84 3.71 11.56
4/1/2021 1:15:00 AM 6.59 43.862 0.047 6.83 3.9 11.57
4/1/2021 1:30:00 AM 6.54 43.772 0.047 6.82 3.94 11.58
4/1/2021 1:45:00 AM 6.47 43.646 0.047 6.83 4.13 11.59
4/1/2021 2:00:00 AM 6.38 43.484 0.047 6.83 3.8 11.61
4/1/2021 2:15:00 AM 6.29 43.322 0.047 6.84 3.63 11.62
4/1/2021 2:30:00 AM 6.23 43.214 0.047 6.82 3.84 11.64
4/1/2021 2:45:00 AM 6.18 43.124 0.047 6.82 3.75 11.65
4/1/2021 3:00:00 AM 6.12 43.016 0.047 6.83 3.84 11.68
4/1/2021 3:15:00 AM 6.07 42.926 0.047 6.82 4.12 11.7
4/1/2021 3:30:00 AM 6.02 42.836 0.047 6.83 3.84 11.72
4/1/2021 3:45:00 AM 5.98 42.764 0.047 6.84 3.66 11.73
4/1/2021 4:00:00 AM 5.94 42.692 0.047 6.83 3.61 11.74
4/1/2021 4:15:00 AM 5.91 42.638 0.047 6.83 3.91 11.76
4/1/2021 4:30:00 AM 5.88 42.584 0.047 6.84 4.05 11.77
4/1/2021 4:45:00 AM 5.84 42.512 0.047 6.84 3.7 11.78
4/1/2021 5:00:00 AM 5.81 42.458 0.048 6.83 3.65 11.8
4/1/2021 5:15:00 AM 5.77 42.386 0.048 6.83 3.7 11.8
4/1/2021 5:30:00 AM 5.73 42.314 0.048 6.82 3.86 11.82
4/1/2021 5:45:00 AM 5.7 42.26 0.048 6.83 4.04 11.83
4/1/2021 6:00:00 AM 5.66 42.188 0.048 6.83 3.86 11.84
4/1/2021 6:15:00 AM 5.63 42.134 0.048 6.79 3.71 11.85
4/1/2021 6:30:00 AM 5.6 42.08 0.048 6.84 3.85 11.85
4/1/2021 6:45:00 AM 5.58 42.044 0.048 6.81 3.76 11.86
4/1/2021 7:00:00 AM 5.56 42.008 0.048 6.81 3.84 11.86
4/1/2021 7:15:00 AM 5.54 41.972 0.048 6.83 3.6 11.88
4/1/2021 7:30:00 AM 5.52 41.936 0.048 6.81 3.73 11.89
4/1/2021 7:45:00 AM 5.49 41.882 0.048 6.85 3.88 11.92
4/1/2021 8:00:00 AM 5.46 41.828 0.049 6.82 4.18 11.96
4/1/2021 8:15:00 AM 5.43 41.774 0.049 6.81 3.56 12
4/1/2021 8:30:00 AM 5.41 41.738 0.049 6.86 3.55 12.05
4/1/2021 8:45:00 AM 5.43 41.774 0.049 6.88 3.61 12.08
4/1/2021 9:00:00 AM 5.44 41.792 0.049 6.89 3.51 12.11
4/1/2021 9:15:00 AM 5.46 41.828 0.049 6.89 3.52 12.13
4/1/2021 9:30:00 AM 5.49 41.882 0.049 6.88 3.57 12.16
4/1/2021 9:45:00 AM 5.54 41.972 0.049 6.92 3.52 12.17
4/1/2021 10:00:00 AM 5.6 42.08 0.049 6.91 3.37 12.17
4/1/2021 10:15:00 AM 5.66 42.188 0.049 6.92 3.47 12.17
4/1/2021 10:30:00 AM 5.75 42.35 0.049 6.92 3.61 12.18
4/1/2021 10:45:00 AM 5.79 42.422 0.049 6.93 3.61 12.16
4/1/2021 11:00:00 AM 5.74 42.332 0.049 6.93 3.48 12.15
4/1/2021 11:15:00 AM 5.65 42.17 0.049 6.94 3.41 12.16
4/1/2021 11:30:00 AM 5.7 42.26 0.049 6.92 3.57 12.17
4/1/2021 11:45:00 AM 5.81 42.458 0.049 6.95 3.74 12.15
4/1/2021 12:00:00 PM 5.85 42.53 0.049 6.93 3.37 12.14
4/1/2021 12:15:00 PM 5.99 42.782 0.049 6.92 3.35 12.14
4/1/2021 12:30:00 PM 6.08 42.944 0.049 6.95 3.53 12.11
4/1/2021 12:45:00 PM 6.19 43.142 0.049 6.94 3.42 12.08
4/1/2021 1:00:00 PM 6.34 43.412 0.049 6.95 3.49 12.05
4/1/2021 1:15:00 PM 6.38 43.484 0.048 6.95 3.42 12.01
4/1/2021 1:30:00 PM 6.36 43.448 0.049 6.94 3.62 11.99
4/1/2021 1:45:00 PM 6.38 43.484 0.048 6.94 3.73 11.97
4/1/2021 2:00:00 PM 6.43 43.574 0.048 6.94 3.49 11.96
4/1/2021 2:15:00 PM 6.45 43.61 0.048 6.94 3.54 11.93
4/1/2021 2:30:00 PM 6.45 43.61 0.048 6.94 3.48 11.92
4/1/2021 2:45:00 PM 6.48 43.664 0.048 6.95 3.52 11.93
4/1/2021 3:00:00 PM 6.52 43.736 0.048 6.95 3.57 11.91
4/1/2021 3:15:00 PM 6.53 43.754 0.048 6.94 3.55 11.91
4/1/2021 3:30:00 PM 6.5 43.7 0.048 6.96 3.35 11.92
4/1/2021 3:45:00 PM 6.52 43.736 0.048 6.95 3.47 11.93
4/1/2021 4:00:00 PM 6.51 43.718 0.048 6.95 3.54 11.92
4/1/2021 4:15:00 PM 6.49 43.682 0.048 6.96 3.51 11.93
4/1/2021 4:30:00 PM 6.53 43.754 0.048 6.97 3.48 11.94
4/1/2021 4:45:00 PM 6.6 43.88 0.048 6.95 3.61 11.93
4/1/2021 5:00:00 PM 6.58 43.844 0.048 6.97 3.61 11.91
4/1/2021 5:15:00 PM 6.49 43.682 0.048 6.95 3.41 11.91
4/1/2021 5:30:00 PM 6.43 43.574 0.048 6.94 3.57 11.92
4/1/2021 5:45:00 PM 6.37 43.466 0.048 6.94 3.63 11.91
4/1/2021 6:00:00 PM 6.28 43.304 0.048 6.95 3.65 11.91
4/1/2021 6:15:00 PM 6.17 43.106 0.049 6.92 3.67 11.93
4/1/2021 6:30:00 PM 6.07 42.926 0.048 6.94 3.73 11.95
4/1/2021 6:45:00 PM 6 42.8 0.049 6.91 3.63 11.95
4/1/2021 7:00:00 PM 5.92 42.656 0.049 6.92 3.38 11.96
4/1/2021 7:15:00 PM 5.83 42.494 0.049 6.89 3.5 11.96
4/1/2021 7:30:00 PM 5.72 42.296 0.049 6.9 3.7 11.95
4/1/2021 7:45:00 PM 5.38 41.684 0.049 6.86 3.6 11.95
4/1/2021 8:00:00 PM 5.13 41.234 0.049 6.85 3.86 11.98
4/1/2021 8:15:00 PM 5.07 41.126 0.049 6.85 3.64 12.02
4/1/2021 8:30:00 PM 5.02 41.036 0.049 6.87 3.44 12.05
4/1/2021 8:45:00 PM 4.98 40.964 0.049 6.86 3.69 12.07
4/1/2021 9:00:00 PM 4.97 40.946 0.049 6.84 3.35 12.09
4/1/2021 9:15:00 PM 4.93 40.874 0.049 6.83 3.63 12.1
4/1/2021 9:30:00 PM 4.9 40.82 0.049 6.86 3.52 12.11
4/1/2021 9:45:00 PM 4.86 40.748 0.049 6.83 3.5 12.13
4/1/2021 10:00:00 PM 4.81 40.658 0.049 6.86 3.81 12.16
4/1/2021 10:15:00 PM 4.73 40.514 0.049 6.84 3.64 12.19
4/1/2021 10:30:00 PM 4.64 40.352 0.049 6.84 3.64 12.22
4/1/2021 10:45:00 PM 4.59 40.262 0.049 6.85 3.65 12.24
4/1/2021 11:00:00 PM 4.53 40.154 0.049 6.85 3.89 12.26
4/1/2021 11:15:00 PM 4.48 40.064 0.049 6.85 3.86 12.28
4/1/2021 11:30:00 PM 4.42 39.956 0.049 6.84 3.48 12.3
4/1/2021 11:45:00 PM 4.35 39.83 0.049 6.85 3.62 12.32
4/2/2021 12:00:00 AM 4.29 39.722 0.049 6.8 3.92 12.34
4/2/2021 12:15:00 AM 4.23 39.614 0.049 6.8 3.7 12.36
4/2/2021 12:30:00 AM 4.18 39.524 0.049 6.79 3.53 12.39
4/2/2021 12:45:00 AM 4.14 39.452 0.048 6.81 3.56 12.39
4/2/2021 1:00:00 AM 4.11 39.398 0.048 6.8 3.6 12.4
4/2/2021 1:15:00 AM 4.08 39.344 0.048 6.79 3.55 12.42
4/2/2021 1:30:00 AM 4.03 39.254 0.048 6.82 3.42 12.43
4/2/2021 1:45:00 AM 3.87 38.966 0.048 6.77 3.63 12.44
4/2/2021 2:00:00 AM 3.86 38.948 0.048 6.79 3.52 12.47
4/2/2021 2:15:00 AM 3.84 38.912 0.049 6.8 3.61 12.48
4/2/2021 2:30:00 AM 3.83 38.894 0.049 6.82 3.38 12.49
4/2/2021 2:45:00 AM 3.8 38.84 0.049 6.8 3.4 12.5
4/2/2021 3:00:00 AM 3.76 38.768 0.049 6.79 3.5 12.51
4/2/2021 3:15:00 AM 3.72 38.696 0.049 6.82 3.59 12.53
4/2/2021 3:30:00 AM 3.68 38.624 0.049 6.79 3.87 12.54
4/2/2021 3:45:00 AM 3.64 38.552 0.049 6.83 3.48 12.55
4/2/2021 4:00:00 AM 3.6 38.48 0.049 6.79 3.52 12.57
4/2/2021 4:15:00 AM 3.56 38.408 0.049 6.81 3.37 12.58
4/2/2021 4:30:00 AM 3.51 38.318 0.049 6.81 3.6 12.6
4/2/2021 4:45:00 AM 3.46 38.228 0.049 6.82 3.41 12.62
4/2/2021 5:00:00 AM 3.41 38.138 0.049 6.8 3.37 12.63
4/2/2021 5:15:00 AM 3.37 38.066 0.049 6.78 3.29 12.65
4/2/2021 5:30:00 AM 3.32 37.976 0.049 6.76 3.7 12.67
4/2/2021 5:45:00 AM 3.28 37.904 0.049 6.81 3.5 12.68
4/2/2021 6:00:00 AM 3.23 37.814 0.049 6.78 3.44 12.7
4/2/2021 6:15:00 AM 3.19 37.742 0.049 6.81 3.56 12.71
4/2/2021 6:30:00 AM 3.16 37.688 0.049 6.78 3.38 12.73
4/2/2021 6:45:00 AM 3.12 37.616 0.049 6.8 3.73 12.74
4/2/2021 7:00:00 AM 3.09 37.562 0.048 6.77 3.48 12.76
4/2/2021 7:15:00 AM 3.07 37.526 0.048 6.79 3.52 12.78
4/2/2021 7:30:00 AM 3.05 37.49 0.048 6.78 3.52 12.8
4/2/2021 7:45:00 AM 3.04 37.472 0.048 6.83 3.93 12.83
4/2/2021 8:00:00 AM 3.05 37.49 0.048 6.82 3.54 12.86
4/2/2021 8:15:00 AM 3.07 37.526 0.048 6.84 3.47 12.89
4/2/2021 8:30:00 AM 3.11 37.598 0.048 6.84 3.58 12.91
4/2/2021 8:45:00 AM 3.15 37.67 0.048 6.88 3.45 12.94
4/2/2021 9:00:00 AM 3.2 37.76 0.048 6.87 3.22 12.96
4/2/2021 9:15:00 AM 3.23 37.814 0.048 6.9 3.79 12.97
4/2/2021 9:30:00 AM 3.28 37.904 0.048 6.89 3.64 12.98
4/2/2021 9:45:00 AM 3.36 38.048 0.048 6.91 3.47 12.98
4/2/2021 10:00:00 AM 3.48 38.264 0.048 6.89 3.43 12.97
4/2/2021 10:15:00 AM 3.6 38.48 0.048 6.9 3.25 12.94
4/2/2021 10:30:00 AM 3.72 38.696 0.048 6.94 3.26 12.92
4/2/2021 10:45:00 AM 3.84 38.912 0.048 6.94 3.36 12.9
4/2/2021 11:00:00 AM 3.97 39.146 0.048 6.95 3.26 12.88
4/2/2021 11:15:00 AM 4.13 39.434 0.048 6.94 3.26 12.84
4/2/2021 11:30:00 AM 4.3 39.74 0.048 6.93 3.36 12.79
4/2/2021 11:45:00 AM 4.48 40.064 0.048 6.93 3.5 12.75
4/2/2021 12:00:00 PM 4.66 40.388 0.048 6.96 3.34 12.69
4/2/2021 12:15:00 PM 4.84 40.712 0.048 6.93 3.72 12.64
4/2/2021 12:30:00 PM 5.01 41.018 0.048 6.96 3.53 12.58
4/2/2021 12:45:00 PM 5.19 41.342 0.048 6.93 3.21 12.53
4/2/2021 1:00:00 PM 5.38 41.684 0.047 6.96 3.11 12.48
4/2/2021 1:15:00 PM 5.59 42.062 0.047 6.94 3.23 12.41
4/2/2021 1:30:00 PM 5.78 42.404 0.047 6.94 3.18 12.35
4/2/2021 1:45:00 PM 5.96 42.728 0.047 6.95 3.26 12.29
4/2/2021 2:00:00 PM 6.17 43.106 0.047 6.97 3.27 12.22
4/2/2021 2:15:00 PM 6.35 43.43 0.047 6.97 3.13 12.16
4/2/2021 2:30:00 PM 6.52 43.736 0.047 6.94 3.29 12.11
4/2/2021 2:45:00 PM 6.68 44.024 0.047 6.96 3.23 12.05
4/2/2021 3:00:00 PM 6.83 44.294 0.047 6.97 3.39 11.99
4/2/2021 3:15:00 PM 6.94 44.492 0.047 6.96 3.31 11.95
4/2/2021 3:30:00 PM 7.03 44.654 0.047 6.97 3.6 11.91
4/2/2021 3:45:00 PM 7.11 44.798 0.047 6.96 3.3 11.88
4/2/2021 4:00:00 PM 7.16 44.888 0.047 6.95 3.34 11.85
4/2/2021 4:15:00 PM 7.2 44.96 0.047 6.94 3.34 11.82
4/2/2021 4:30:00 PM 7.21 44.978 0.047 6.98 3.44 11.8
4/2/2021 4:45:00 PM 7.21 44.978 0.047 6.94 3.3 11.78
4/2/2021 5:00:00 PM 7.18 44.924 0.047 6.98 3.66 11.78
4/2/2021 5:15:00 PM 7.13 44.834 0.047 6.94 3.51 11.77
4/2/2021 5:30:00 PM 7.04 44.672 0.047 6.94 3.28 11.77
4/2/2021 5:45:00 PM 6.93 44.474 0.047 6.94 3.51 11.78
4/2/2021 6:00:00 PM 6.82 44.276 0.047 6.96 3.41 11.79
4/2/2021 6:15:00 PM 6.71 44.078 0.047 6.93 3.31 11.8
4/2/2021 6:30:00 PM 6.56 43.808 0.047 6.92 3.41 11.82
4/2/2021 6:45:00 PM 6.42 43.556 0.048 6.91 3.74 11.83
4/2/2021 7:00:00 PM 6.27 43.286 0.048 6.93 3.46 11.85
4/2/2021 7:15:00 PM 6.13 43.034 0.048 6.89 3.79 11.87
4/2/2021 7:30:00 PM 6 42.8 0.048 6.9 3.56 11.89
4/2/2021 7:45:00 PM 5.85 42.53 0.048 6.88 3.73 11.92
4/2/2021 8:00:00 PM 5.72 42.296 0.048 6.88 3.81 11.94
4/2/2021 8:15:00 PM 5.6 42.08 0.048 6.87 3.81 11.97
4/2/2021 8:30:00 PM 5.48 41.864 0.048 6.86 3.85 12
4/2/2021 8:45:00 PM 5.36 41.648 0.048 6.85 3.52 12.04
4/2/2021 9:00:00 PM 5.24 41.432 0.048 6.87 3.49 12.08
4/2/2021 9:15:00 PM 5.12 41.216 0.048 6.84 3.43 12.11
4/2/2021 9:30:00 PM 5.01 41.018 0.048 6.86 3.73 12.15
4/2/2021 9:45:00 PM 4.9 40.82 0.048 6.87 3.66 12.18
4/2/2021 10:00:00 PM 4.79 40.622 0.048 6.86 3.88 12.22
4/2/2021 10:15:00 PM 4.68 40.424 0.048 6.85 3.65 12.26
4/2/2021 10:30:00 PM 4.58 40.244 0.048 6.84 3.63 12.29
4/2/2021 10:45:00 PM 4.48 40.064 0.048 6.85 3.93 12.33
4/2/2021 11:00:00 PM 4.39 39.902 0.048 6.86 3.42 12.35
4/2/2021 11:15:00 PM 4.31 39.758 0.048 6.85 3.57 12.37
4/2/2021 11:30:00 PM 4.24 39.632 0.048 6.85 3.64 12.4
4/2/2021 11:45:00 PM 4.17 39.506 0.048 6.86 3.58 12.43
4/3/2021 12:00:00 AM 4.1 39.38 0.048 6.83 3.56 12.45
4/3/2021 12:15:00 AM 4.04 39.272 0.048 6.84 3.49 12.47
4/3/2021 12:30:00 AM 3.98 39.164 0.048 6.82 3.55 12.49
4/3/2021 12:45:00 AM 3.92 39.056 0.048 6.84 3.33 12.52
4/3/2021 1:00:00 AM 3.86 38.948 0.048 6.82 3.56 12.53
4/3/2021 1:15:00 AM 3.81 38.858 0.048 6.85 3.39 12.55
4/3/2021 1:30:00 AM 3.76 38.768 0.048 6.83 3.68 12.56
4/3/2021 1:45:00 AM 3.71 38.678 0.048 6.84 3.45 12.58
4/3/2021 2:00:00 AM 3.67 38.606 0.048 6.82 3.64 12.6
4/3/2021 2:15:00 AM 3.62 38.516 0.048 6.84 3.76 12.62
4/3/2021 2:30:00 AM 3.58 38.444 0.047 6.81 3.61 12.63
4/3/2021 2:45:00 AM 3.54 38.372 0.047 6.81 3.72 12.65
4/3/2021 3:00:00 AM 3.5 38.3 0.047 6.78 3.56 12.67
4/3/2021 3:15:00 AM 3.46 38.228 0.047 6.79 3.73 12.68
4/3/2021 3:30:00 AM 3.42 38.156 0.047 6.78 3.63 12.69
4/3/2021 3:45:00 AM 3.38 38.084 0.047 6.82 3.48 12.71
4/3/2021 4:00:00 AM 3.35 38.03 0.047 6.79 3.71 12.72
4/3/2021 4:15:00 AM 3.31 37.958 0.047 6.83 3.61 12.73
4/3/2021 4:30:00 AM 3.28 37.904 0.047 6.8 3.42 12.75
4/3/2021 4:45:00 AM 3.24 37.832 0.047 6.79 3.48 12.76
4/3/2021 5:00:00 AM 3.21 37.778 0.047 6.82 3.46 12.77
4/3/2021 5:15:00 AM 3.17 37.706 0.047 6.82 3.62 12.78
4/3/2021 5:30:00 AM 3.14 37.652 0.047 6.79 3.52 12.8
4/3/2021 5:45:00 AM 3.1 37.58 0.047 6.79 3.48 12.81
4/3/2021 6:00:00 AM 3.07 37.526 0.047 6.82 4.08 12.83
4/3/2021 6:15:00 AM 3.04 37.472 0.047 6.79 3.57 12.83
4/3/2021 6:30:00 AM 3 37.4 0.047 6.8 3.48 12.85
4/3/2021 6:45:00 AM 2.97 37.346 0.047 6.79 3.72 12.86
4/3/2021 7:00:00 AM 2.94 37.292 0.047 6.8 3.68 12.89
4/3/2021 7:15:00 AM 2.92 37.256 0.047 6.79 3.44 12.9
4/3/2021 7:30:00 AM 2.9 37.22 0.047 6.81 3.65 12.94
4/3/2021 7:45:00 AM 2.89 37.202 0.047 6.81 3.6 12.96
4/3/2021 8:00:00 AM 2.9 37.22 0.047 6.84 3.43 12.99
4/3/2021 8:15:00 AM 2.92 37.256 0.047 6.83 3.4 13.02
4/3/2021 8:30:00 AM 2.96 37.328 0.047 6.87 3.4 13.03
4/3/2021 8:45:00 AM 3.03 37.454 0.047 6.86 3.42 13.05
4/3/2021 9:00:00 AM 3.1 37.58 0.047 6.87 3.42 13.05
4/3/2021 9:15:00 AM 3.2 37.76 0.047 6.87 3.36 13.06
4/3/2021 9:30:00 AM 3.31 37.958 0.047 6.91 3.35 13.05
4/3/2021 9:45:00 AM 3.44 38.192 0.047 6.89 3.35 13.03
4/3/2021 10:00:00 AM 3.59 38.462 0.047 6.92 3.42 13
4/3/2021 10:15:00 AM 3.76 38.768 0.047 6.9 3.45 12.96
4/3/2021 10:30:00 AM 3.95 39.11 0.047 6.91 3.35 12.93
4/3/2021 10:45:00 AM 4.14 39.452 0.047 6.92 3.23 12.88
4/3/2021 11:00:00 AM 4.35 39.83 0.047 6.94 3.29 12.82
4/3/2021 11:15:00 AM 4.56 40.208 0.046 6.92 3.46 12.77
4/3/2021 11:30:00 AM 4.79 40.622 0.046 6.95 3.5 12.7
4/3/2021 11:45:00 AM 5.02 41.036 0.046 6.93 3.49 12.64
4/3/2021 12:00:00 PM 5.24 41.432 0.046 6.97 3.35 12.58
4/3/2021 12:15:00 PM 5.41 41.738 0.046 6.93 3.48 12.52
4/3/2021 12:30:00 PM 5.5 41.9 0.046 6.98 3.26 12.46
4/3/2021 12:45:00 PM 5.64 42.152 0.046 6.97 3.65 12.42
4/3/2021 1:00:00 PM 5.74 42.332 0.046 6.97 3.43 12.37
4/3/2021 1:15:00 PM 5.94 42.692 0.046 6.95 3.3 12.33
4/3/2021 1:30:00 PM 6.19 43.142 0.046 6.99 3.24 12.26
4/3/2021 1:45:00 PM 6.46 43.628 0.046 6.95 3.22 12.2
4/3/2021 2:00:00 PM 6.72 44.096 0.046 6.98 3.23 12.13
4/3/2021 2:15:00 PM 6.95 44.51 0.046 6.97 3.21 12.04
4/3/2021 2:30:00 PM 7.14 44.852 0.046 6.98 3.18 11.98
4/3/2021 2:45:00 PM 7.37 45.266 0.046 6.98 3.51 11.9
4/3/2021 3:00:00 PM 7.54 45.572 0.046 6.98 3.48 11.83
4/3/2021 3:15:00 PM 7.75 45.95 0.046 6.98 3.39 11.77
4/3/2021 3:30:00 PM 7.86 46.148 0.046 6.98 3.36 11.72
4/3/2021 3:45:00 PM 7.9 46.22 0.046 6.97 3.47 11.67
4/3/2021 4:00:00 PM 7.91 46.238 0.046 7 3.57 11.64
4/3/2021 4:15:00 PM 7.92 46.256 0.046 6.98 3.34 11.62
4/3/2021 4:30:00 PM 7.95 46.31 0.046 7.01 3.3 11.61
4/3/2021 4:45:00 PM 7.99 46.382 0.046 6.99 3.7 11.59
4/3/2021 5:00:00 PM 8 46.4 0.046 6.96 3.37 11.58
4/3/2021 5:15:00 PM 7.96 46.328 0.046 7.01 3.4 11.58
4/3/2021 5:30:00 PM 7.92 46.256 0.046 6.98 3.6 11.57
4/3/2021 5:45:00 PM 7.89 46.202 0.046 7.01 3.44 11.55
4/3/2021 6:00:00 PM 7.86 46.148 0.046 7 3.55 11.55
4/3/2021 6:15:00 PM 7.78 46.004 0.046 6.98 3.39 11.52
4/3/2021 6:30:00 PM 7.7 45.86 0.046 6.95 3.58 11.5
4/3/2021 6:45:00 PM 7.63 45.734 0.047 6.94 3.73 11.47
4/3/2021 7:00:00 PM 7.56 45.608 0.047 6.9 3.5 11.45
4/3/2021 7:15:00 PM 7.49 45.482 0.047 6.94 3.54 11.45
4/3/2021 7:30:00 PM 7.41 45.338 0.047 6.89 3.53 11.44
4/3/2021 7:45:00 PM 7.32 45.176 0.047 6.89 3.76 11.45
4/3/2021 8:00:00 PM 7.23 45.014 0.047 6.87 3.66 11.46
4/3/2021 8:15:00 PM 7.15 44.87 0.047 6.87 3.97 11.48
4/3/2021 8:30:00 PM 7.06 44.708 0.047 6.86 3.83 11.5
4/3/2021 8:45:00 PM 6.97 44.546 0.047 6.87 3.8 11.52
4/3/2021 9:00:00 PM 6.89 44.402 0.047 6.86 4.3 11.55
4/3/2021 9:15:00 PM 6.8 44.24 0.047 6.87 4.22 11.57
4/3/2021 9:30:00 PM 6.72 44.096 0.047 6.86 3.84 11.6
4/3/2021 9:45:00 PM 6.64 43.952 0.047 6.87 3.95 11.63
4/3/2021 10:00:00 PM 6.56 43.808 0.048 6.85 3.91 11.65
4/3/2021 10:15:00 PM 6.49 43.682 0.048 6.86 4.17 11.67
4/3/2021 10:30:00 PM 6.42 43.556 0.048 6.83 4.27 11.69
4/3/2021 10:45:00 PM 6.35 43.43 0.048 6.84 3.87 11.71
4/3/2021 11:00:00 PM 6.29 43.322 0.048 6.85 3.82 11.73
4/3/2021 11:15:00 PM 6.23 43.214 0.048 6.84 4 11.74
4/3/2021 11:30:00 PM 6.18 43.124 0.048 6.86 4.4 11.76
4/3/2021 11:45:00 PM 6.13 43.034 0.048 6.85 4.48 11.77
4/4/2021 12:00:00 AM 6.08 42.944 0.048 6.83 4.32 11.79
4/4/2021 12:15:00 AM 6.03 42.854 0.048 6.84 4.62 11.8
4/4/2021 12:30:00 AM 5.99 42.782 0.048 6.85 4.38 11.81
4/4/2021 12:45:00 AM 5.95 42.71 0.047 6.83 4.35 11.82
4/4/2021 1:00:00 AM 5.91 42.638 0.047 6.85 4.07 11.83
4/4/2021 1:15:00 AM 5.88 42.584 0.047 6.83 4.28 11.85
4/4/2021 1:30:00 AM 5.84 42.512 0.047 6.85 4.13 11.85
4/4/2021 1:45:00 AM 5.81 42.458 0.047 6.83 3.94 11.86
4/4/2021 2:00:00 AM 5.78 42.404 0.047 6.85 3.97 11.87
4/4/2021 2:15:00 AM 5.75 42.35 0.047 6.82 3.85 11.87
4/4/2021 2:30:00 AM 5.72 42.296 0.047 6.84 3.75 11.88
4/4/2021 2:45:00 AM 5.69 42.242 0.047 6.82 3.64 11.89
4/4/2021 3:00:00 AM 5.66 42.188 0.047 6.83 3.86 11.9
4/4/2021 3:15:00 AM 5.63 42.134 0.047 6.81 3.78 11.9
4/4/2021 3:30:00 AM 5.61 42.098 0.047 6.83 3.85 11.9
4/4/2021 3:45:00 AM 5.57 42.026 0.047 6.83 4.09 11.91
4/4/2021 4:00:00 AM 5.52 41.936 0.047 6.84 3.77 11.92
4/4/2021 4:15:00 AM 5.47 41.846 0.047 6.83 4.04 11.94
4/4/2021 4:30:00 AM 5.42 41.756 0.047 6.85 3.76 11.95
4/4/2021 4:45:00 AM 5.38 41.684 0.047 6.82 3.67 11.97
4/4/2021 5:00:00 AM 5.35 41.63 0.047 6.83 3.78 11.97
4/4/2021 5:15:00 AM 5.31 41.558 0.047 6.82 3.52 11.99
4/4/2021 5:30:00 AM 5.29 41.522 0.047 6.85 4.09 11.99
4/4/2021 5:45:00 AM 5.26 41.468 0.047 6.82 3.6 12.01
4/4/2021 6:00:00 AM 5.23 41.414 0.047 6.83 3.82 12.01
4/4/2021 6:15:00 AM 5.19 41.342 0.047 6.81 3.72 12.03
4/4/2021 6:30:00 AM 5.14 41.252 0.047 6.84 3.78 12.04
4/4/2021 6:45:00 AM 5.09 41.162 0.047 6.82 3.77 12.06
4/4/2021 7:00:00 AM 5.05 41.09 0.047 6.85 3.92 12.07
4/4/2021 7:15:00 AM 5.01 41.018 0.047 6.83 3.7 12.1
4/4/2021 7:30:00 AM 4.97 40.946 0.047 6.85 3.88 12.13
4/4/2021 7:45:00 AM 4.94 40.892 0.047 6.84 3.82 12.16
4/4/2021 8:00:00 AM 4.93 40.874 0.046 6.86 3.52 12.21
4/4/2021 8:15:00 AM 4.93 40.874 0.046 6.85 3.76 12.24
4/4/2021 8:30:00 AM 4.95 40.91 0.046 6.87 3.37 12.27
4/4/2021 8:45:00 AM 5 41 0.046 6.88 3.5 12.29
4/4/2021 9:00:00 AM 5.06 41.108 0.046 6.9 3.93 12.31
4/4/2021 9:15:00 AM 5.15 41.27 0.046 6.9 3.32 12.32
4/4/2021 9:30:00 AM 5.26 41.468 0.046 6.92 3.82 12.33
4/4/2021 9:45:00 AM 5.38 41.684 0.046 6.92 3.72 12.31
4/4/2021 10:00:00 AM 5.52 41.936 0.046 6.95 3.61 12.29
4/4/2021 10:15:00 AM 5.67 42.206 0.046 6.93 3.38 12.26
4/4/2021 10:30:00 AM 5.85 42.53 0.046 6.96 3.37 12.24
4/4/2021 10:45:00 AM 6.06 42.908 0.046 6.95 3.24 12.2
4/4/2021 11:00:00 AM 6.27 43.286 0.046 6.95 3.31 12.15
4/4/2021 11:15:00 AM 6.49 43.682 0.046 6.95 3.3 12.11
4/4/2021 11:30:00 AM 6.71 44.078 0.046 6.99 3.52 12.05
4/4/2021 11:45:00 AM 6.94 44.492 0.045 6.94 3.32 11.98
4/4/2021 12:00:00 PM 7.18 44.924 0.046 6.96 3.34 11.93
4/4/2021 12:15:00 PM 7.41 45.338 0.046 6.96 3.4 11.87
4/4/2021 12:30:00 PM 7.65 45.77 0.045 6.97 3.26 11.81
4/4/2021 12:45:00 PM 7.89 46.202 0.046 7 3.52 11.74
4/4/2021 1:00:00 PM 8.13 46.634 0.045 6.98 3.65 11.67
4/4/2021 1:15:00 PM 8.37 47.066 0.045 6.96 3.51 11.61
4/4/2021 1:30:00 PM 8.61 47.498 0.045 6.98 3.24 11.54
4/4/2021 1:45:00 PM 8.85 47.93 0.046 6.96 3.49 11.47
4/4/2021 2:00:00 PM 9.06 48.308 0.046 7.01 3.57 11.41
4/4/2021 2:15:00 PM 9.23 48.614 0.045 6.95 3.45 11.34
4/4/2021 2:30:00 PM 9.42 48.956 0.045 6.99 3.53 11.27
4/4/2021 2:45:00 PM 9.59 49.262 0.046 7.02 3.5 11.22
4/4/2021 3:00:00 PM 9.76 49.568 0.046 6.97 3.44 11.18
4/4/2021 3:15:00 PM 9.91 49.838 0.046 6.94 3.38 11.13
4/4/2021 3:30:00 PM 10.07 50.126 0.046 6.99 3.56 11.08
4/4/2021 3:45:00 PM 10.18 50.324 0.046 6.96 3.61 11.04
4/4/2021 4:00:00 PM 10.26 50.468 0.046 7.03 3.42 11.01
4/4/2021 4:15:00 PM 10.31 50.558 0.046 7 3.62 10.98
4/4/2021 4:30:00 PM 10.33 50.594 0.046 6.99 3.51 10.95
4/4/2021 4:45:00 PM 10.33 50.594 0.046 6.96 3.53 10.94
4/4/2021 5:00:00 PM 10.31 50.558 0.046 7 3.92 10.92
4/4/2021 5:15:00 PM 10.27 50.486 0.046 7.02 3.83 10.91
4/4/2021 5:30:00 PM 10.22 50.396 0.046 6.98 3.62 10.9
4/4/2021 5:45:00 PM 10.14 50.252 0.046 6.97 3.81 10.89
4/4/2021 6:00:00 PM 10.05 50.09 0.046 7 3.76 10.88
4/4/2021 6:15:00 PM 9.94 49.892 0.046 6.94 3.46 10.88
4/4/2021 6:30:00 PM 9.81 49.658 0.046 6.98 3.72 10.88
4/4/2021 6:45:00 PM 9.68 49.424 0.046 6.93 3.8 10.88
4/4/2021 7:00:00 PM 9.54 49.172 0.046 6.93 3.4 10.89
4/4/2021 7:15:00 PM 9.39 48.902 0.046 6.93 3.87 10.89
4/4/2021 7:30:00 PM 9.26 48.668 0.046 6.91 3.71 10.91
4/4/2021 7:45:00 PM 9.12 48.416 0.046 6.89 3.88 10.91
4/4/2021 8:00:00 PM 8.99 48.182 0.046 6.86 4.64 10.93
4/4/2021 8:15:00 PM 8.85 47.93 0.046 6.84 3.78 10.95
4/4/2021 8:30:00 PM 8.71 47.678 0.046 6.84 4.33 10.97
4/4/2021 8:45:00 PM 8.56 47.408 0.046 6.85 4.03 11.01
4/4/2021 9:00:00 PM 8.42 47.156 0.046 6.82 3.77 11.05
4/4/2021 9:15:00 PM 8.27 46.886 0.046 6.84 4.23 11.08
4/4/2021 9:30:00 PM 8.12 46.616 0.047 6.85 3.85 11.12
4/4/2021 9:45:00 PM 7.98 46.364 0.047 6.86 3.94 11.16
4/4/2021 10:00:00 PM 7.83 46.094 0.047 6.85 3.96 11.21
4/4/2021 10:15:00 PM 7.69 45.842 0.047 6.86 3.78 11.24
4/4/2021 10:30:00 PM 7.54 45.572 0.047 6.82 3.8 11.29
4/4/2021 10:45:00 PM 7.4 45.32 0.047 6.87 3.65 11.32
4/4/2021 11:00:00 PM 7.27 45.086 0.047 6.83 3.79 11.37
4/4/2021 11:15:00 PM 7.14 44.852 0.047 6.81 3.74 11.41
4/4/2021 11:30:00 PM 7.01 44.618 0.047 6.8 3.4 11.45
4/4/2021 11:45:00 PM 6.89 44.402 0.047 6.84 3.77 11.48
4/5/2021 12:00:00 AM 6.77 44.186 0.047 6.81 3.55 11.52
4/5/2021 12:15:00 AM 6.66 43.988 0.047 6.86 3.62 11.55
4/5/2021 12:30:00 AM 6.56 43.808 0.047 6.81 3.88 11.58
4/5/2021 12:45:00 AM 6.46 43.628 0.047 6.84 3.7 11.62
4/5/2021 1:00:00 AM 6.36 43.448 0.047 6.82 3.61 11.65
4/5/2021 1:15:00 AM 6.26 43.268 0.047 6.86 3.66 11.67
4/5/2021 1:30:00 AM 6.17 43.106 0.047 6.84 3.96 11.7
4/5/2021 1:45:00 AM 6.08 42.944 0.047 6.84 4.25 11.73
4/5/2021 2:00:00 AM 5.99 42.782 0.047 6.83 3.73 11.77
4/5/2021 2:15:00 AM 5.91 42.638 0.047 6.83 3.84 11.79
4/5/2021 2:30:00 AM 5.84 42.512 0.047 6.82 4.11 11.81
4/5/2021 2:45:00 AM 5.76 42.368 0.047 6.83 3.84 11.84
4/5/2021 3:00:00 AM 5.69 42.242 0.047 6.82 4.15 11.86
4/5/2021 3:15:00 AM 5.61 42.098 0.047 6.83 3.96 11.88
4/5/2021 3:30:00 AM 5.54 41.972 0.047 6.8 4.04 11.91
4/5/2021 3:45:00 AM 5.48 41.864 0.047 6.81 3.79 11.93
4/5/2021 4:00:00 AM 5.41 41.738 0.046 6.83 3.53 11.96
4/5/2021 4:15:00 AM 5.35 41.63 0.047 6.84 3.63 11.97
4/5/2021 4:30:00 AM 5.29 41.522 0.046 6.83 3.61 11.99
4/5/2021 4:45:00 AM 5.23 41.414 0.047 6.83 4.13 12.01
4/5/2021 5:00:00 AM 5.18 41.324 0.046 6.83 3.98 12.03
4/5/2021 5:15:00 AM 5.12 41.216 0.046 6.83 3.91 12.05
4/5/2021 5:30:00 AM 5.07 41.126 0.046 6.84 3.87 12.07
4/5/2021 5:45:00 AM 5.02 41.036 0.046 6.82 5.09 12.08
4/5/2021 6:00:00 AM 4.98 40.964 0.046 6.82 4.16 12.1
4/5/2021 6:15:00 AM 4.94 40.892 0.046 6.81 3.87 12.11
4/5/2021 6:30:00 AM 4.9 40.82 0.046 6.81 3.86 12.12
4/5/2021 6:45:00 AM 4.87 40.766 0.046 6.83 3.76 12.14
4/5/2021 7:00:00 AM 4.84 40.712 0.047 6.82 3.83 12.16
4/5/2021 7:15:00 AM 4.82 40.676 0.046 6.84 3.87 12.19
4/5/2021 7:30:00 AM 4.8 40.64 0.046 6.83 3.72 12.22
4/5/2021 7:45:00 AM 4.79 40.622 0.046 6.86 3.65 12.25
4/5/2021 8:00:00 AM 4.79 40.622 0.046 6.86 3.88 12.28
4/5/2021 8:15:00 AM 4.82 40.676 0.046 6.88 3.97 12.31
4/5/2021 8:30:00 AM 4.86 40.748 0.046 6.88 3.56 12.34
4/5/2021 8:45:00 AM 4.93 40.874 0.046 6.89 3.64 12.35
4/5/2021 9:00:00 AM 5.02 41.036 0.046 6.89 3.33 12.36
4/5/2021 9:15:00 AM 5.12 41.216 0.046 6.93 3.51 12.36
4/5/2021 9:30:00 AM 5.23 41.414 0.046 6.94 3.53 12.36
4/5/2021 9:45:00 AM 5.38 41.684 0.046 6.95 3.43 12.34
4/5/2021 10:00:00 AM 5.53 41.954 0.046 6.93 3.42 12.32
4/5/2021 10:15:00 AM 5.71 42.278 0.046 6.97 3.25 12.28
4/5/2021 10:30:00 AM 5.91 42.638 0.046 6.98 3.35 12.25
4/5/2021 10:45:00 AM 6.11 42.998 0.046 6.99 3.58 12.21
4/5/2021 11:00:00 AM 6.32 43.376 0.046 6.98 3.88 12.15
4/5/2021 11:15:00 AM 6.54 43.772 0.046 6.97 3.42 12.11
4/5/2021 11:30:00 AM 6.77 44.186 0.046 7 3.88 12.04
4/5/2021 11:45:00 AM 7.01 44.618 0.046 6.98 3.78 11.99
4/5/2021 12:00:00 PM 7.26 45.068 0.045 7 3.58 11.93
4/5/2021 12:15:00 PM 7.5 45.5 0.045 6.99 3.55 11.85
4/5/2021 12:30:00 PM 7.74 45.932 0.045 6.98 3.57 11.8
4/5/2021 12:45:00 PM 7.99 46.382 0.045 7.01 3.35 11.73
4/5/2021 1:00:00 PM 8.23 46.814 0.045 7.02 3.62 11.66
4/5/2021 1:15:00 PM 8.47 47.246 0.045 7 3.64 11.6
4/5/2021 1:30:00 PM 8.7 47.66 0.045 7 3.51 11.52
4/5/2021 1:45:00 PM 8.92 48.056 0.045 7.03 3.79 11.47
4/5/2021 2:00:00 PM 9.11 48.398 0.045 7.03 3.28 11.4
4/5/2021 2:15:00 PM 9.3 48.74 0.045 7.01 3.48 11.35
4/5/2021 2:30:00 PM 9.49 49.082 0.045 7 3.52 11.28
4/5/2021 2:45:00 PM 9.65 49.37 0.045 7 3.33 11.23
4/5/2021 3:00:00 PM 9.79 49.622 0.045 7.04 3.47 11.19
4/5/2021 3:15:00 PM 9.9 49.82 0.045 7 3.58 11.15
4/5/2021 3:30:00 PM 9.99 49.982 0.045 7.05 3.4 11.1
4/5/2021 3:45:00 PM 10.1 50.18 0.045 7.03 3.61 11.07
4/5/2021 4:00:00 PM 10.18 50.324 0.046 7.06 3.66 11.04
4/5/2021 4:15:00 PM 10.2 50.36 0.046 7.03 3.76 11
4/5/2021 4:30:00 PM 10.23 50.414 0.046 7.04 3.82 10.98
4/5/2021 4:45:00 PM 10.2 50.36 0.046 7.01 3.8 10.96
4/5/2021 5:00:00 PM 10.16 50.288 0.046 7.03 3.9 10.93
4/5/2021 5:15:00 PM 10.1 50.18 0.045 6.99 3.66 10.9
4/5/2021 5:30:00 PM 10.05 50.09 0.046 7 3.56 10.87
4/5/2021 5:45:00 PM 9.99 49.982 0.046 6.97 3.86 10.87
4/5/2021 6:00:00 PM 9.93 49.874 0.046 6.97 3.63 10.86
4/5/2021 6:15:00 PM 9.86 49.748 0.046 6.99 3.76 10.85
4/5/2021 6:30:00 PM 9.79 49.622 0.046 6.98 3.76 10.86
4/5/2021 6:45:00 PM 9.73 49.514 0.046 6.94 4 10.85
4/5/2021 7:00:00 PM 9.65 49.37 0.046 6.92 3.6 10.84
4/5/2021 7:15:00 PM 9.57 49.226 0.046 6.96 3.74 10.84
4/5/2021 7:30:00 PM 9.48 49.064 0.046 6.94 3.88 10.83
4/5/2021 7:45:00 PM 9.38 48.884 0.046 6.93 4.16 10.83
4/5/2021 8:00:00 PM 9.29 48.722 0.046 6.9 3.67 10.84
4/5/2021 8:15:00 PM 9.2 48.56 0.046 6.89 3.99 10.85
4/5/2021 8:30:00 PM 9.11 48.398 0.046 6.87 4.34 10.86
4/5/2021 8:45:00 PM 9.02 48.236 0.047 6.86 3.9 10.87
4/5/2021 9:00:00 PM 8.93 48.074 0.047 6.84 4.7 10.89
4/5/2021 9:15:00 PM 8.85 47.93 0.047 6.87 4.12 10.91
4/5/2021 9:30:00 PM 8.77 47.786 0.047 6.83 4.19 10.93
4/5/2021 9:45:00 PM 8.68 47.624 0.047 6.82 4.57 10.96
4/5/2021 10:00:00 PM 8.6 47.48 0.047 6.84 3.82 10.99
4/5/2021 10:15:00 PM 8.52 47.336 0.047 6.87 3.8 11.01
4/5/2021 10:30:00 PM 8.44 47.192 0.047 6.85 4.11 11.03
4/5/2021 10:45:00 PM 8.37 47.066 0.047 6.84 3.92 11.05
4/5/2021 11:00:00 PM 8.3 46.94 0.047 6.86 4.35 11.07
4/5/2021 11:15:00 PM 8.23 46.814 0.047 6.88 4.16 11.08
4/5/2021 11:30:00 PM 8.17 46.706 0.047 6.89 3.67 11.1
4/5/2021 11:45:00 PM 8.11 46.598 0.047 6.83 3.8 11.11
4/6/2021 12:00:00 AM 8.04 46.472 0.047 6.84 4.32 11.13
4/6/2021 12:15:00 AM 7.98 46.364 0.047 6.88 3.61 11.15
4/6/2021 12:30:00 AM 7.92 46.256 0.047 6.85 3.68 11.17
4/6/2021 12:45:00 AM 7.87 46.166 0.047 6.83 4.69 11.19
4/6/2021 1:00:00 AM 7.81 46.058 0.047 6.84 4.3 11.2
4/6/2021 1:15:00 AM 7.75 45.95 0.047 6.83 4.01 11.22
4/6/2021 1:30:00 AM 7.68 45.824 0.047 6.88 4.09 11.23
4/6/2021 1:45:00 AM 7.61 45.698 0.047 6.83 4.32 11.24
4/6/2021 2:00:00 AM 7.54 45.572 0.047 6.84 4.02 11.26
4/6/2021 2:15:00 AM 7.47 45.446 0.047 6.88 3.9 11.28
4/6/2021 2:30:00 AM 7.39 45.302 0.047 6.83 3.94 11.3
4/6/2021 2:45:00 AM 7.32 45.176 0.047 6.86 4.09 11.32
4/6/2021 3:00:00 AM 7.24 45.032 0.047 6.82 3.98 11.35
4/6/2021 3:15:00 AM 7.16 44.888 0.047 6.85 3.98 11.37
4/6/2021 3:30:00 AM 7.08 44.744 0.047 6.84 3.89 11.39
4/6/2021 3:45:00 AM 7.01 44.618 0.046 6.84 3.77 11.41
4/6/2021 4:00:00 AM 6.93 44.474 0.047 6.85 3.98 11.42
4/6/2021 4:15:00 AM 6.86 44.348 0.046 6.84 3.68 11.45
4/6/2021 4:30:00 AM 6.78 44.204 0.046 6.84 4.01 11.47
4/6/2021 4:45:00 AM 6.71 44.078 0.047 6.84 3.83 11.5
4/6/2021 5:00:00 AM 6.64 43.952 0.047 6.84 3.76 11.51
4/6/2021 5:15:00 AM 6.56 43.808 0.046 6.81 4.39 11.54
4/6/2021 5:30:00 AM 6.49 43.682 0.047 6.86 4.07 11.56
4/6/2021 5:45:00 AM 6.42 43.556 0.047 6.84 4.42 11.59
4/6/2021 6:00:00 AM 6.35 43.43 0.047 6.86 4.21 11.61
4/6/2021 6:15:00 AM 6.28 43.304 0.047 6.84 3.92 11.63
4/6/2021 6:30:00 AM 6.21 43.178 0.047 6.86 3.93 11.65
4/6/2021 6:45:00 AM 6.14 43.052 0.047 6.84 3.72 11.68
4/6/2021 7:00:00 AM 6.08 42.944 0.047 6.84 3.84 11.71
4/6/2021 7:15:00 AM 6.02 42.836 0.047 6.83 3.66 11.75
4/6/2021 7:30:00 AM 5.98 42.764 0.047 6.88 3.8 11.79
4/6/2021 7:45:00 AM 5.94 42.692 0.047 6.87 3.92 11.84
4/6/2021 8:00:00 AM 5.92 42.656 0.047 6.9 3.48 11.88
4/6/2021 8:15:00 AM 5.91 42.638 0.047 6.89 3.54 11.93
4/6/2021 8:30:00 AM 5.93 42.674 0.046 6.9 3.62 11.97
4/6/2021 8:45:00 AM 5.98 42.764 0.046 6.92 3.57 12
4/6/2021 9:00:00 AM 6.05 42.89 0.046 6.96 3.58 12.02
4/6/2021 9:15:00 AM 6.13 43.034 0.046 6.97 3.62 12.03
4/6/2021 9:30:00 AM 6.23 43.214 0.046 6.97 3.49 12.03
4/6/2021 9:45:00 AM 6.35 43.43 0.046 6.95 3.73 12.03
4/6/2021 10:00:00 AM 6.49 43.682 0.046 6.97 3.63 12.02
4/6/2021 10:15:00 AM 6.64 43.952 0.046 6.96 3.87 12
4/6/2021 10:30:00 AM 6.82 44.276 0.046 7 3.52 11.96
4/6/2021 10:45:00 AM 7.01 44.618 0.046 6.98 3.67 11.93
4/6/2021 11:00:00 AM 7.22 44.996 0.046 7.01 3.77 11.88
4/6/2021 11:15:00 AM 7.46 45.428 0.046 6.99 3.88 11.83
4/6/2021 11:30:00 AM 7.69 45.842 0.046 7.03 3.74 11.78
4/6/2021 11:45:00 AM 7.92 46.256 0.046 7.02 3.44 11.72
4/6/2021 12:00:00 PM 8.17 46.706 0.046 7.03 3.68 11.66
4/6/2021 12:15:00 PM 8.41 47.138 0.046 7.02 3.75 11.6
4/6/2021 12:30:00 PM 8.65 47.57 0.046 7.05 4.18 11.54
4/6/2021 12:45:00 PM 8.9 48.02 0.046 7.05 3.08 11.47
4/6/2021 1:00:00 PM 9.13 48.434 0.046 7.01 3.37 11.42
4/6/2021 1:15:00 PM 9.27 48.686 0.046 7.01 3.55 11.36
4/6/2021 1:30:00 PM 9.53 49.154 0.046 7.02 3.61 11.29
4/6/2021 1:45:00 PM 9.79 49.622 0.045 7.02 4.09 11.23
4/6/2021 2:00:00 PM 10.04 50.072 0.045 7.03 3.86 11.16
4/6/2021 2:15:00 PM 10.29 50.522 0.046 7.01 3.46 11.1
4/6/2021 2:30:00 PM 10.45 50.81 0.046 7.03 3.42 11.03
4/6/2021 2:45:00 PM 10.68 51.224 0.046 7.02 3.88 10.97
4/6/2021 3:00:00 PM 10.86 51.548 0.046 7.03 3.83 10.91
4/6/2021 3:15:00 PM 11.06 51.908 0.046 7 3.41 10.86
4/6/2021 3:30:00 PM 11.24 52.232 0.046 7.01 3.41 10.8
4/6/2021 3:45:00 PM 11.39 52.502 0.046 7.04 3.58 10.75
4/6/2021 4:00:00 PM 11.47 52.646 0.045 7.04 3.59 10.71
4/6/2021 4:15:00 PM 11.51 52.718 0.046 7.03 3.55 10.67
4/6/2021 4:30:00 PM 11.58 52.844 0.045 7.06 4.42 10.65
4/6/2021 4:45:00 PM 11.6 52.88 0.046 7.02 3.8 10.62
4/6/2021 5:00:00 PM 11.63 52.934 0.045 7.02 3.63 10.59
4/6/2021 5:15:00 PM 11.65 52.97 0.045 7 3.65 10.59
4/6/2021 5:30:00 PM 11.63 52.934 0.046 7.05 3.84 10.57
4/6/2021 5:45:00 PM 11.57 52.826 0.046 7.01 3.74 10.55
4/6/2021 6:00:00 PM 11.53 52.754 0.046 7.04 3.54 10.55
4/6/2021 6:15:00 PM 11.43 52.574 0.046 6.98 3.87 10.52
4/6/2021 6:30:00 PM 11.35 52.43 0.046 7.01 3.68 10.5
4/6/2021 6:45:00 PM 11.24 52.232 0.046 6.97 3.78 10.49
4/6/2021 7:00:00 PM 11.13 52.034 0.046 6.97 3.86 10.46
4/6/2021 7:15:00 PM 11.04 51.872 0.046 6.92 4.03 10.45
4/6/2021 7:30:00 PM 10.94 51.692 0.046 6.93 4.02 10.43
4/6/2021 7:45:00 PM 10.83 51.494 0.046 6.88 4.1 10.42
4/6/2021 8:00:00 PM 10.72 51.296 0.047 6.88 3.95 10.41
4/6/2021 8:15:00 PM 10.61 51.098 0.047 6.84 4.03 10.43
4/6/2021 8:30:00 PM 10.5 50.9 0.047 6.86 4.04 10.45
4/6/2021 8:45:00 PM 10.39 50.702 0.047 6.84 4.14 10.47
4/6/2021 9:00:00 PM 10.28 50.504 0.047 6.85 4.36 10.49
4/6/2021 9:15:00 PM 10.14 50.252 0.047 6.84 4.2 10.52
4/6/2021 9:30:00 PM 10.02 50.036 0.047 6.78 4.28 10.54
4/6/2021 9:45:00 PM 9.89 49.802 0.047 6.83 4.54 10.58
4/6/2021 10:00:00 PM 9.75 49.55 0.047 6.87 4.23 10.62
4/6/2021 10:15:00 PM 9.63 49.334 0.047 6.82 4.89 10.65
4/6/2021 10:30:00 PM 9.51 49.118 0.047 6.86 4.42 10.69
4/6/2021 10:45:00 PM 9.39 48.902 0.047 6.78 4.35 10.72
4/6/2021 11:00:00 PM 9.27 48.686 0.047 6.87 4.58 10.75
4/6/2021 11:15:00 PM 9.18 48.524 0.047 6.82 4.24 10.78
4/6/2021 11:30:00 PM 9.08 48.344 0.047 6.82 4.32 10.81
4/6/2021 11:45:00 PM 8.99 48.182 0.047 6.82 4.08 10.84
4/7/2021 12:00:00 AM 8.91 48.038 0.047 6.81 4.24 10.86
4/7/2021 12:15:00 AM 8.84 47.912 0.047 6.79 4.11 10.88
4/7/2021 12:30:00 AM 8.76 47.768 0.047 6.86 4.09 10.91
4/7/2021 12:45:00 AM 8.68 47.624 0.047 6.82 4.07 10.92
4/7/2021 1:00:00 AM 8.6 47.48 0.047 6.86 4.54 10.95
4/7/2021 1:15:00 AM 8.52 47.336 0.047 6.83 4.4 10.97
4/7/2021 1:30:00 AM 8.45 47.21 0.047 6.83 4.47 10.99
4/7/2021 1:45:00 AM 8.38 47.084 0.047 6.8 4.42 11.01
4/7/2021 2:00:00 AM 8.3 46.94 0.047 6.83 4.5 11.03
4/7/2021 2:15:00 AM 8.23 46.814 0.047 6.8 4.46 11.04
4/7/2021 2:30:00 AM 8.15 46.67 0.047 6.86 4.24 11.06
4/7/2021 2:45:00 AM 8.07 46.526 0.047 6.81 4.03 11.08
4/7/2021 3:00:00 AM 8 46.4 0.047 6.85 4.43 11.1
4/7/2021 3:15:00 AM 7.93 46.274 0.047 6.8 4.27 11.12
4/7/2021 3:30:00 AM 7.87 46.166 0.047 6.86 4.31 11.15
4/7/2021 3:45:00 AM 7.83 46.094 0.047 6.79 4.17 11.16
4/7/2021 4:00:00 AM 7.79 46.022 0.047 6.86 4.25 11.17
4/7/2021 4:15:00 AM 7.76 45.968 0.047 6.8 4.17 11.19
4/7/2021 4:30:00 AM 7.73 45.914 0.047 6.83 4.16 11.2
4/7/2021 4:45:00 AM 7.7 45.86 0.047 6.81 4.25 11.21
4/7/2021 5:00:00 AM 7.67 45.806 0.047 6.85 3.82 11.23
4/7/2021 5:15:00 AM 7.64 45.752 0.047 6.82 4.35 11.23
4/7/2021 5:30:00 AM 7.62 45.716 0.047 6.86 4.38 11.24
4/7/2021 5:45:00 AM 7.6 45.68 0.047 6.83 4.47 11.25
4/7/2021 6:00:00 AM 7.58 45.644 0.047 6.86 4.03 11.25
4/7/2021 6:15:00 AM 7.57 45.626 0.047 6.83 4.14 11.26
4/7/2021 6:30:00 AM 7.55 45.59 0.047 6.86 4.45 11.26
4/7/2021 6:45:00 AM 7.53 45.554 0.047 6.82 4.04 11.26
4/7/2021 7:00:00 AM 7.51 45.518 0.047 6.87 4.22 11.27
4/7/2021 7:15:00 AM 7.5 45.5 0.047 6.83 4.22 11.29
4/7/2021 7:30:00 AM 7.48 45.464 0.047 6.84 4.28 11.3
4/7/2021 7:45:00 AM 7.48 45.464 0.047 6.84 4.39 11.35
4/7/2021 8:00:00 AM 7.5 45.5 0.047 6.89 3.93 11.39
4/7/2021 8:15:00 AM 7.5 45.5 0.047 6.87 3.9 11.42
4/7/2021 8:30:00 AM 7.53 45.554 0.047 6.89 3.64 11.47
4/7/2021 8:45:00 AM 7.59 45.662 0.047 6.9 3.85 11.5
4/7/2021 9:00:00 AM 7.67 45.806 0.046 6.96 4.07 11.52
4/7/2021 9:15:00 AM 7.77 45.986 0.046 6.94 4.03 11.54
4/7/2021 9:30:00 AM 7.88 46.184 0.046 6.96 3.8 11.54
4/7/2021 9:45:00 AM 8 46.4 0.046 6.96 3.71 11.53
4/7/2021 10:00:00 AM 8.14 46.652 0.046 7 3.71 11.52
4/7/2021 10:15:00 AM 8.3 46.94 0.046 7 3.88 11.5
4/7/2021 10:30:00 AM 8.47 47.246 0.046 6.99 3.94 11.49
4/7/2021 10:45:00 AM 8.66 47.588 0.046 6.99 3.8 11.45
4/7/2021 11:00:00 AM 8.88 47.984 0.046 7.03 3.76 11.41
4/7/2021 11:15:00 AM 9.12 48.416 0.046 7.03 3.81 11.37
4/7/2021 11:30:00 AM 9.38 48.884 0.046 7.03 3.38 11.31
4/7/2021 11:45:00 AM 9.64 49.352 0.046 7.02 3.73 11.27
4/7/2021 12:00:00 PM 9.91 49.838 0.046 7.02 3.79 11.2
4/7/2021 12:15:00 PM 10.2 50.36 0.046 7.06 3.81 11.15
4/7/2021 12:30:00 PM 10.51 50.918 0.046 7.06 3.98 11.09
4/7/2021 12:45:00 PM 10.7 51.26 0.046 7.03 3.35 11.01
4/7/2021 1:00:00 PM 10.76 51.368 0.046 7.05 3.76 10.95
4/7/2021 1:15:00 PM 10.87 51.566 0.046 7.05 3.83 10.91
4/7/2021 1:30:00 PM 10.91 51.638 0.046 7.06 3.91 10.86
4/7/2021 1:45:00 PM 11.17 52.106 0.046 7.05 3.75 10.84
4/7/2021 2:00:00 PM 11.24 52.232 0.046 7.06 3.64 10.77
4/7/2021 2:15:00 PM 11.44 52.592 0.046 7.05 3.83 10.72
4/7/2021 2:30:00 PM 11.58 52.844 0.046 7.03 3.74 10.68
4/7/2021 2:45:00 PM 11.68 53.024 0.046 7.01 3.75 10.66
4/7/2021 3:00:00 PM 11.84 53.312 0.046 7.03 3.76 10.62
4/7/2021 3:15:00 PM 11.91 53.438 0.046 7.04 3.87 10.61
4/7/2021 3:30:00 PM 12.02 53.636 0.046 7.05 3.94 10.56
4/7/2021 3:45:00 PM 11.94 53.492 0.046 7 3.91 10.5
4/7/2021 4:00:00 PM 12.12 53.816 0.046 7.07 4.03 10.52
4/7/2021 4:15:00 PM 12.26 54.068 0.046 7.07 3.86 10.49
4/7/2021 4:30:00 PM 12.22 53.996 0.046 7.05 3.92 10.42
4/7/2021 4:45:00 PM 12.24 54.032 0.046 7.03 3.84 10.41
4/7/2021 5:00:00 PM 12.3 54.14 0.046 7.05 4.21 10.42
4/7/2021 5:15:00 PM 12.29 54.122 0.046 7.02 4.24 10.4
4/7/2021 5:30:00 PM 12.33 54.194 0.046 7.05 3.88 10.39
4/7/2021 5:45:00 PM 12.33 54.194 0.046 7.01 3.99 10.36
4/7/2021 6:00:00 PM 12.28 54.104 0.046 7.02 4.08 10.35
4/7/2021 6:15:00 PM 12.21 53.978 0.046 6.99 3.98 10.33
4/7/2021 6:30:00 PM 12.12 53.816 0.046 7.03 4 10.31
4/7/2021 6:45:00 PM 12.04 53.672 0.046 6.97 4.04 10.28
4/7/2021 7:00:00 PM 11.94 53.492 0.046 7 3.91 10.27
4/7/2021 7:15:00 PM 11.85 53.33 0.046 6.95 4 10.25
4/7/2021 7:30:00 PM 11.75 53.15 0.046 6.98 4.37 10.23
4/7/2021 7:45:00 PM 11.64 52.952 0.046 6.93 4.24 10.22
4/7/2021 8:00:00 PM 11.52 52.736 0.046 6.93 4.05 10.22
4/7/2021 8:15:00 PM 11.41 52.538 0.047 6.92 4.34 10.22
4/7/2021 8:30:00 PM 11.28 52.304 0.047 6.9 4.53 10.24
4/7/2021 8:45:00 PM 11.16 52.088 0.047 6.88 4.23 10.26
4/7/2021 9:00:00 PM 11.04 51.872 0.047 6.91 4.65 10.29
4/7/2021 9:15:00 PM 10.91 51.638 0.047 6.9 4.64 10.31
4/7/2021 9:30:00 PM 10.79 51.422 0.047 6.9 4.62 10.34
4/7/2021 9:45:00 PM 10.66 51.188 0.047 6.87 4.53 10.36
4/7/2021 10:00:00 PM 10.53 50.954 0.047 6.86 4.61 10.4
4/7/2021 10:15:00 PM 10.4 50.72 0.047 6.85 4.59 10.44
4/7/2021 10:30:00 PM 10.27 50.486 0.047 6.88 4.31 10.47
4/7/2021 10:45:00 PM 10.15 50.27 0.047 6.85 4.33 10.5
4/7/2021 11:00:00 PM 10.01 50.018 0.047 6.85 4.29 10.54
4/7/2021 11:15:00 PM 9.88 49.784 0.047 6.87 4.28 10.57
4/7/2021 11:30:00 PM 9.76 49.568 0.047 6.86 4.29 10.61
4/7/2021 11:45:00 PM 9.63 49.334 0.047 6.87 4.45 10.64
4/8/2021 12:00:00 AM 9.51 49.118 0.047 6.85 4.72 10.67
4/8/2021 12:15:00 AM 9.39 48.902 0.047 6.88 4.51 10.7
4/8/2021 12:30:00 AM 9.28 48.704 0.047 6.84 4.26 10.73
4/8/2021 12:45:00 AM 9.16 48.488 0.047 6.88 4.03 10.77
4/8/2021 1:00:00 AM 9.05 48.29 0.047 6.86 4.47 10.8
4/8/2021 1:15:00 AM 8.94 48.092 0.047 6.85 4.05 10.82
4/8/2021 1:30:00 AM 8.83 47.894 0.047 6.89 4.36 10.85
4/8/2021 1:45:00 AM 8.73 47.714 0.047 6.85 4.49 10.88
4/8/2021 2:00:00 AM 8.63 47.534 0.047 6.86 4.01 10.91
4/8/2021 2:15:00 AM 8.53 47.354 0.047 6.85 3.87 10.94
4/8/2021 2:30:00 AM 8.44 47.192 0.047 6.88 4.35 10.97
4/8/2021 2:45:00 AM 8.34 47.012 0.047 6.85 4.16 10.99
4/8/2021 3:00:00 AM 8.25 46.85 0.047 6.85 4.11 11.02
4/8/2021 3:15:00 AM 8.17 46.706 0.047 6.84 4.54 11.04
4/8/2021 3:30:00 AM 8.09 46.562 0.047 6.88 4.22 11.06
4/8/2021 3:45:00 AM 8 46.4 0.047 6.85 4.28 11.09
4/8/2021 4:00:00 AM 7.92 46.256 0.047 6.88 4.37 11.12
4/8/2021 4:15:00 AM 7.85 46.13 0.047 6.85 3.97 11.14
4/8/2021 4:30:00 AM 7.78 46.004 0.047 6.88 4.23 11.16
4/8/2021 4:45:00 AM 7.7 45.86 0.047 6.85 4.21 11.17
4/8/2021 5:00:00 AM 7.63 45.734 0.047 6.88 4.39 11.2
4/8/2021 5:15:00 AM 7.56 45.608 0.047 6.84 4.16 11.22
4/8/2021 5:30:00 AM 7.49 45.482 0.047 6.86 4.2 11.24
4/8/2021 5:45:00 AM 7.42 45.356 0.047 6.85 4.21 11.26
4/8/2021 6:00:00 AM 7.36 45.248 0.047 6.87 4.41 11.28
4/8/2021 6:15:00 AM 7.3 45.14 0.047 6.83 4.12 11.3
4/8/2021 6:30:00 AM 7.24 45.032 0.047 6.87 4.81 11.32
4/8/2021 6:45:00 AM 7.18 44.924 0.047 6.84 4.08 11.34
4/8/2021 7:00:00 AM 7.13 44.834 0.047 6.88 4.19 11.38
4/8/2021 7:15:00 AM 7.08 44.744 0.047 6.84 4.49 11.41
4/8/2021 7:30:00 AM 7.05 44.69 0.047 6.86 4.08 11.45
4/8/2021 7:45:00 AM 7.03 44.654 0.047 6.86 4.26 11.5
4/8/2021 8:00:00 AM 7.02 44.636 0.047 6.91 4.15 11.55
4/8/2021 8:15:00 AM 7.05 44.69 0.047 6.92 3.97 11.59
4/8/2021 8:30:00 AM 7.09 44.762 0.047 6.92 4.54 11.62
4/8/2021 8:45:00 AM 7.15 44.87 0.047 6.92 4.15 11.65
4/8/2021 9:00:00 AM 7.24 45.032 0.047 6.97 3.64 11.67
4/8/2021 9:15:00 AM 7.36 45.248 0.047 6.96 3.77 11.68
4/8/2021 9:30:00 AM 7.49 45.482 0.047 6.97 3.7 11.68
4/8/2021 9:45:00 AM 7.65 45.77 0.047 6.98 3.68 11.67
4/8/2021 10:00:00 AM 7.82 46.076 0.046 7.02 3.77 11.66
4/8/2021 10:15:00 AM 8 46.4 0.047 7 3.71 11.63
4/8/2021 10:30:00 AM 8.19 46.742 0.046 7.03 3.87 11.59
4/8/2021 10:45:00 AM 8.41 47.138 0.047 7.01 3.65 11.56
4/8/2021 11:00:00 AM 8.64 47.552 0.046 7.03 3.68 11.52
4/8/2021 11:15:00 AM 8.9 48.02 0.046 7.02 3.96 11.46
4/8/2021 11:30:00 AM 9.16 48.488 0.046 7.03 3.85 11.41
4/8/2021 11:45:00 AM 9.43 48.974 0.046 7.03 3.91 11.34
4/8/2021 12:00:00 PM 9.7 49.46 0.046 7.06 4.09 11.28
4/8/2021 12:15:00 PM 9.98 49.964 0.046 7.07 3.55 11.21
4/8/2021 12:30:00 PM 10.26 50.468 0.046 7.08 3.81 11.14
4/8/2021 12:45:00 PM 10.53 50.954 0.046 7.06 3.88 11.08
4/8/2021 1:00:00 PM 10.8 51.44 0.046 7.07 3.73 11
4/8/2021 1:15:00 PM 11.08 51.944 0.046 7.09 3.82 10.94
4/8/2021 1:30:00 PM 11.35 52.43 0.046 7.05 3.85 10.87
4/8/2021 1:45:00 PM 11.61 52.898 0.046 7.07 3.66 10.8
4/8/2021 2:00:00 PM 11.85 53.33 0.046 7.09 3.71 10.74
4/8/2021 2:15:00 PM 12.08 53.744 0.046 7.07 4.13 10.67
4/8/2021 2:30:00 PM 12.31 54.158 0.046 7.09 4.11 10.62
4/8/2021 2:45:00 PM 12.53 54.554 0.046 7.08 3.8 10.55
4/8/2021 3:00:00 PM 12.73 54.914 0.046 7.09 3.96 10.49
4/8/2021 3:15:00 PM 12.9 55.22 0.046 7.06 3.92 10.44
4/8/2021 3:30:00 PM 13.05 55.49 0.046 7.11 3.91 10.4
4/8/2021 3:45:00 PM 13.19 55.742 0.046 7.1 4.12 10.35
4/8/2021 4:00:00 PM 13.32 55.976 0.047 7.11 3.68 10.31
4/8/2021 4:15:00 PM 13.39 56.102 0.046 7.07 4.15 10.27
4/8/2021 4:30:00 PM 13.44 56.192 0.046 7.06 3.98 10.23
4/8/2021 4:45:00 PM 13.48 56.264 0.046 7.05 3.68 10.2
4/8/2021 5:00:00 PM 13.49 56.282 0.046 7.1 4.58 10.17
4/8/2021 5:15:00 PM 13.49 56.282 0.046 7.04 4.11 10.14
4/8/2021 5:30:00 PM 13.46 56.228 0.046 7.09 3.94 10.12
4/8/2021 5:45:00 PM 13.38 56.084 0.046 7.08 4.19 10.1
4/8/2021 6:00:00 PM 13.29 55.922 0.046 7.04 4 10.08
4/8/2021 6:15:00 PM 13.19 55.742 0.046 7.05 4.17 10.06
4/8/2021 6:30:00 PM 13.06 55.508 0.046 7.04 4.22 10.05
4/8/2021 6:45:00 PM 12.93 55.274 0.046 7 4.32 10.04
4/8/2021 7:00:00 PM 12.8 55.04 0.047 6.97 4.4 10.03
4/8/2021 7:15:00 PM 12.66 54.788 0.047 6.98 3.82 10.01
4/8/2021 7:30:00 PM 12.54 54.572 0.047 6.96 4.18 10
4/8/2021 7:45:00 PM 12.42 54.356 0.047 6.95 4.13 10
4/8/2021 8:00:00 PM 12.3 54.14 0.047 6.95 4.19 10
4/8/2021 8:15:00 PM 12.16 53.888 0.047 6.93 4.52 10.01
4/8/2021 8:30:00 PM 12.04 53.672 0.047 6.95 4.43 10.02
4/8/2021 8:45:00 PM 11.91 53.438 0.047 6.91 4.51 10.05
4/8/2021 9:00:00 PM 11.78 53.204 0.047 6.89 4.36 10.07
4/8/2021 9:15:00 PM 11.66 52.988 0.047 6.88 4.43 10.1
4/8/2021 9:30:00 PM 11.52 52.736 0.047 6.93 4.18 10.13
4/8/2021 9:45:00 PM 11.39 52.502 0.047 6.91 4.14 10.16
4/8/2021 10:00:00 PM 11.25 52.25 0.047 6.93 4.41 10.19
4/8/2021 10:15:00 PM 11.12 52.016 0.047 6.91 4.36 10.23
4/8/2021 10:30:00 PM 10.98 51.764 0.047 6.92 4.7 10.27
4/8/2021 10:45:00 PM 10.84 51.512 0.047 6.87 4.56 10.3
4/8/2021 11:00:00 PM 10.71 51.278 0.047 6.88 4.53 10.33
4/8/2021 11:15:00 PM 10.57 51.026 0.047 6.88 4.31 10.37
4/8/2021 11:30:00 PM 10.45 50.81 0.047 6.9 4.62 10.4
4/8/2021 11:45:00 PM 10.33 50.594 0.047 6.9 4.4 10.44
4/9/2021 12:00:00 AM 10.22 50.396 0.047 6.93 4.51 10.46
4/9/2021 12:15:00 AM 10.12 50.216 0.047 6.89 4.42 10.49
4/9/2021 12:30:00 AM 10.02 50.036 0.047 6.92 4.23 10.52
4/9/2021 12:45:00 AM 9.93 49.874 0.047 6.85 4.34 10.54
4/9/2021 1:00:00 AM 9.85 49.73 0.047 6.92 4.09 10.58
4/9/2021 1:15:00 AM 9.76 49.568 0.047 6.91 4.56 10.6
4/9/2021 1:30:00 AM 9.68 49.424 0.047 6.91 4.46 10.62
4/9/2021 1:45:00 AM 9.61 49.298 0.047 6.9 4.49 10.64
4/9/2021 2:00:00 AM 9.53 49.154 0.047 6.9 4.15 10.66
4/9/2021 2:15:00 AM 9.47 49.046 0.047 6.89 4.48 10.68
4/9/2021 2:30:00 AM 9.42 48.956 0.047 6.9 4.39 10.69
4/9/2021 2:45:00 AM 9.37 48.866 0.048 6.9 5.05 10.7
4/9/2021 3:00:00 AM 9.32 48.776 0.048 6.9 4.33 10.72
4/9/2021 3:15:00 AM 9.28 48.704 0.047 6.89 4.21 10.73
4/9/2021 3:30:00 AM 9.23 48.614 0.048 6.9 4.32 10.76
4/9/2021 3:45:00 AM 9.18 48.524 0.047 6.89 4.34 10.77
4/9/2021 4:00:00 AM 9.14 48.452 0.047 6.91 4.29 10.78
4/9/2021 4:15:00 AM 9.11 48.398 0.047 6.91 4.31 10.79
4/9/2021 4:30:00 AM 9.08 48.344 0.047 6.9 4.14 10.8
4/9/2021 4:45:00 AM 9.05 48.29 0.047 6.89 4.21 10.81
4/9/2021 5:00:00 AM 9.03 48.254 0.048 6.9 4.8 10.82
4/9/2021 5:15:00 AM 9 48.2 0.047 6.89 4.3 10.83
4/9/2021 5:30:00 AM 8.97 48.146 0.047 6.93 4.12 10.83
4/9/2021 5:45:00 AM 8.94 48.092 0.047 6.9 4.67 10.84
4/9/2021 6:00:00 AM 8.91 48.038 0.047 6.92 4.66 10.85
4/9/2021 6:15:00 AM 8.88 47.984 0.047 6.9 4.16 10.86
4/9/2021 6:30:00 AM 8.85 47.93 0.047 6.91 4.18 10.87
4/9/2021 6:45:00 AM 8.83 47.894 0.047 6.91 4.75 10.87
4/9/2021 7:00:00 AM 8.81 47.858 0.047 6.9 4.7 10.89
4/9/2021 7:15:00 AM 8.79 47.822 0.047 6.9 4.38 10.91
4/9/2021 7:30:00 AM 8.77 47.786 0.047 6.91 4.62 10.92
4/9/2021 7:45:00 AM 8.75 47.75 0.048 6.92 4.38 10.94
4/9/2021 8:00:00 AM 8.74 47.732 0.048 6.93 4.05 10.96
4/9/2021 8:15:00 AM 8.72 47.696 0.047 6.92 3.99 10.97
4/9/2021 8:30:00 AM 8.73 47.714 0.047 6.93 3.91 11.03
4/9/2021 8:45:00 AM 8.75 47.75 0.047 6.94 3.73 11.07
4/9/2021 9:00:00 AM 8.75 47.75 0.047 6.95 3.61 11.07
4/9/2021 9:15:00 AM 8.75 47.75 0.047 6.95 3.82 11.09
4/9/2021 9:30:00 AM 8.77 47.786 0.047 6.98 3.87 11.14
4/9/2021 9:45:00 AM 8.79 47.822 0.047 6.97 3.54 11.15
4/9/2021 10:00:00 AM 8.81 47.858 0.047 6.99 3.71 11.17
4/9/2021 10:15:00 AM 8.84 47.912 0.047 7 3.66 11.2
4/9/2021 10:30:00 AM 8.9 48.02 0.047 7.01 3.84 11.23
4/9/2021 10:45:00 AM 8.94 48.092 0.047 7.01 4.07 11.24
4/9/2021 11:00:00 AM 9 48.2 0.047 7.02 3.66 11.26
4/9/2021 11:15:00 AM 9.08 48.344 0.047 7.03 3.86 11.26
4/9/2021 11:30:00 AM 9.18 48.524 0.047 7.07 4.02 11.27
4/9/2021 11:45:00 AM 9.26 48.668 0.047 7.06 3.55 11.25
4/9/2021 12:00:00 PM 9.32 48.776 0.046 7.06 3.69 11.24
4/9/2021 12:15:00 PM 9.42 48.956 0.046 7.07 3.89 11.23
4/9/2021 12:30:00 PM 9.49 49.082 0.046 7.09 4 11.2
4/9/2021 12:45:00 PM 9.51 49.118 0.046 7.07 3.79 11.17
4/9/2021 1:00:00 PM 9.55 49.19 0.046 7.1 3.82 11.14
4/9/2021 1:15:00 PM 9.57 49.226 0.046 7.06 3.97 11.11
4/9/2021 1:30:00 PM 9.61 49.298 0.046 7.09 3.59 11.11
4/9/2021 1:45:00 PM 9.71 49.478 0.046 7.07 3.87 11.12
4/9/2021 2:00:00 PM 9.77 49.586 0.046 7.1 3.73 11.09
4/9/2021 2:15:00 PM 9.85 49.73 0.046 7.09 3.77 11.09
4/9/2021 2:30:00 PM 9.93 49.874 0.046 7.08 3.63 11.07
4/9/2021 2:45:00 PM 10 50 0.046 7.1 3.7 11.04
4/9/2021 3:00:00 PM 10.09 50.162 0.046 7.09 3.49 11.04
4/9/2021 3:15:00 PM 10.15 50.27 0.046 7.08 3.59 11.01
4/9/2021 3:30:00 PM 10.25 50.45 0.046 7.09 3.7 11.01
4/9/2021 3:45:00 PM 10.34 50.612 0.046 7.1 4.09 10.99
4/9/2021 4:00:00 PM 10.39 50.702 0.046 7.1 3.73 10.97
4/9/2021 4:15:00 PM 10.39 50.702 0.046 7.09 3.85 10.91
4/9/2021 4:30:00 PM 10.43 50.774 0.046 7.09 3.88 10.93
4/9/2021 4:45:00 PM 10.46 50.828 0.046 7.08 3.74 10.89
4/9/2021 5:00:00 PM 10.43 50.774 0.046 7.05 4.21 10.82
4/9/2021 5:15:00 PM 10.41 50.738 0.046 7.07 3.8 10.81
4/9/2021 5:30:00 PM 10.41 50.738 0.046 7.05 3.45 10.82
4/9/2021 5:45:00 PM 10.41 50.738 0.046 7.07 3.66 10.82
4/9/2021 6:00:00 PM 10.39 50.702 0.046 7.04 3.75 10.78
4/9/2021 6:15:00 PM 10.38 50.684 0.047 7.04 3.83 10.78
4/9/2021 6:30:00 PM 10.36 50.648 0.046 7.02 3.73 10.74
4/9/2021 6:45:00 PM 10.32 50.576 0.047 7.03 3.81 10.71
4/9/2021 7:00:00 PM 10.28 50.504 0.047 6.99 3.94 10.68
4/9/2021 7:15:00 PM 10.25 50.45 0.047 6.98 3.9 10.66
4/9/2021 7:30:00 PM 10.21 50.378 0.047 6.99 4.01 10.62
4/9/2021 7:45:00 PM 10.18 50.324 0.047 6.97 4.11 10.6
4/9/2021 8:00:00 PM 10.15 50.27 0.047 6.95 4.03 10.58
4/9/2021 8:15:00 PM 10.11 50.198 0.047 6.98 4.07 10.57
4/9/2021 8:30:00 PM 10.08 50.144 0.047 6.94 3.82 10.56
4/9/2021 8:45:00 PM 10.04 50.072 0.047 6.94 4.19 10.57
4/9/2021 9:00:00 PM 10 50 0.047 6.93 4.2 10.57
4/9/2021 9:15:00 PM 9.96 49.928 0.047 6.94 4.01 10.58
4/9/2021 9:30:00 PM 9.91 49.838 0.047 6.93 4.54 10.59
4/9/2021 9:45:00 PM 9.87 49.766 0.048 6.95 4.49 10.6
4/9/2021 10:00:00 PM 9.83 49.694 0.048 6.92 4.55 10.62
4/9/2021 10:15:00 PM 9.79 49.622 0.048 6.92 4.31 10.63
4/9/2021 10:30:00 PM 9.75 49.55 0.048 6.91 4.52 10.64
4/9/2021 10:45:00 PM 9.71 49.478 0.048 6.92 4.46 10.64
4/9/2021 11:00:00 PM 9.67 49.406 0.048 6.92 4.2 10.65
4/9/2021 11:15:00 PM 9.64 49.352 0.048 6.96 4.57 10.66
4/9/2021 11:30:00 PM 9.6 49.28 0.048 6.94 4.04 10.67
4/9/2021 11:45:00 PM 9.57 49.226 0.048 6.94 4.14 10.68
4/10/2021 12:00:00 AM 9.53 49.154 0.048 6.92 4.62 10.68
4/10/2021 12:15:00 AM 9.5 49.1 0.048 6.92 4.3 10.69
4/10/2021 12:30:00 AM 9.47 49.046 0.048 6.95 4.51 10.7
4/10/2021 12:45:00 AM 9.44 48.992 0.048 6.91 4.71 10.71
4/10/2021 1:00:00 AM 9.41 48.938 0.048 6.93 4.23 10.71
4/10/2021 1:15:00 AM 9.38 48.884 0.048 6.92 4.77 10.73
4/10/2021 1:30:00 AM 9.36 48.848 0.048 6.91 4.19 10.74
4/10/2021 1:45:00 AM 9.33 48.794 0.048 6.95 3.82 10.74
4/10/2021 2:00:00 AM 9.31 48.758 0.048 6.93 3.74 10.75
4/10/2021 2:15:00 AM 9.28 48.704 0.048 6.95 3.99 10.76
4/10/2021 2:30:00 AM 9.25 48.65 0.048 6.93 4.22 10.76
4/10/2021 2:45:00 AM 9.23 48.614 0.048 6.93 4.02 10.77
4/10/2021 3:00:00 AM 9.21 48.578 0.048 6.94 4.09 10.78
4/10/2021 3:15:00 AM 9.19 48.542 0.048 6.94 4.92 10.78
4/10/2021 3:30:00 AM 9.16 48.488 0.048 6.94 4.96 10.78
4/10/2021 3:45:00 AM 9.14 48.452 0.048 6.94 3.92 10.78
4/10/2021 4:00:00 AM 9.12 48.416 0.048 6.93 4.07 10.79
4/10/2021 4:15:00 AM 9.1 48.38 0.048 6.92 4.3 10.79
4/10/2021 4:30:00 AM 9.08 48.344 0.048 6.93 4.21 10.79
4/10/2021 4:45:00 AM 9.07 48.326 0.048 6.91 4.26 10.8
4/10/2021 5:00:00 AM 9.05 48.29 0.048 6.89 4.18 10.81
4/10/2021 5:15:00 AM 9.03 48.254 0.048 6.9 4.12 10.81
4/10/2021 5:30:00 AM 9.01 48.218 0.048 6.94 4.15 10.81
4/10/2021 5:45:00 AM 9 48.2 0.048 6.9 4.31 10.82
4/10/2021 6:00:00 AM 8.98 48.164 0.048 6.9 4.69 10.82
4/10/2021 6:15:00 AM 8.97 48.146 0.048 6.9 5.1 10.82
4/10/2021 6:30:00 AM 8.96 48.128 0.048 6.91 4.27 10.83
4/10/2021 6:45:00 AM 8.95 48.11 0.048 6.9 4.2 10.84
4/10/2021 7:00:00 AM 8.94 48.092 0.048 6.92 4.03 10.85
4/10/2021 7:15:00 AM 8.93 48.074 0.048 6.92 4.16 10.87
4/10/2021 7:30:00 AM 8.93 48.074 0.048 6.93 4.11 10.88
4/10/2021 7:45:00 AM 8.93 48.074 0.048 6.92 4.11 10.91
4/10/2021 8:00:00 AM 8.94 48.092 0.048 6.96 3.99 10.95
4/10/2021 8:15:00 AM 8.96 48.128 0.048 6.95 3.91 10.98
4/10/2021 8:30:00 AM 8.98 48.164 0.048 6.98 3.9 11.01
4/10/2021 8:45:00 AM 9.01 48.218 0.047 6.98 3.67 11.04
4/10/2021 9:00:00 AM 9.04 48.272 0.047 7.01 3.54 11.08
4/10/2021 9:15:00 AM 9.1 48.38 0.047 7.01 4.1 11.13
4/10/2021 9:30:00 AM 9.17 48.506 0.047 7.01 3.7 11.14
4/10/2021 9:45:00 AM 9.27 48.686 0.047 7.04 3.59 11.17
4/10/2021 10:00:00 AM 9.4 48.92 0.047 7.06 3.62 11.17
4/10/2021 10:15:00 AM 9.56 49.208 0.047 7.06 3.82 11.17
4/10/2021 10:30:00 AM 9.82 49.676 0.047 7.09 3.71 11.15
4/10/2021 10:45:00 AM 10.03 50.054 0.047 7.08 3.97 11.11
4/10/2021 11:00:00 AM 10.26 50.468 0.047 7.09 3.89 11.08
4/10/2021 11:15:00 AM 10.47 50.846 0.047 7.12 3.6 11.04
4/10/2021 11:30:00 AM 10.63 51.134 0.047 7.11 3.64 11.01
4/10/2021 11:45:00 AM 10.8 51.44 0.047 7.11 3.97 10.97
4/10/2021 12:00:00 PM 10.97 51.746 0.047 7.14 3.78 10.94
4/10/2021 12:15:00 PM 11.17 52.106 0.047 7.11 4.08 10.9
4/10/2021 12:30:00 PM 11.4 52.52 0.047 7.12 3.58 10.84
4/10/2021 12:45:00 PM 11.65 52.97 0.046 7.14 3.94 10.8
4/10/2021 1:00:00 PM 11.87 53.366 0.046 7.13 4.12 10.74
4/10/2021 1:15:00 PM 12.07 53.726 0.046 7.13 4.22 10.69
4/10/2021 1:30:00 PM 12.24 54.032 0.046 7.15 3.66 10.64
4/10/2021 1:45:00 PM 12.42 54.356 0.046 7.13 3.87 10.6
4/10/2021 2:00:00 PM 12.57 54.626 0.046 7.14 3.68 10.55
4/10/2021 2:15:00 PM 12.71 54.878 0.046 7.16 3.84 10.5
4/10/2021 2:30:00 PM 12.88 55.184 0.046 7.16 3.57 10.46
4/10/2021 2:45:00 PM 13.03 55.454 0.046 7.15 4.07 10.42
4/10/2021 3:00:00 PM 13.15 55.67 0.046 7.16 3.97 10.38
4/10/2021 3:15:00 PM 13.26 55.868 0.046 7.15 3.91 10.35
4/10/2021 3:30:00 PM 13.37 56.066 0.046 7.16 3.97 10.31
4/10/2021 3:45:00 PM 13.44 56.192 0.046 7.14 3.82 10.28
4/10/2021 4:00:00 PM 13.51 56.318 0.046 7.17 3.96 10.25
4/10/2021 4:15:00 PM 13.56 56.408 0.046 7.16 4.04 10.22
4/10/2021 4:30:00 PM 13.59 56.462 0.046 7.17 3.93 10.19
4/10/2021 4:45:00 PM 13.58 56.444 0.046 7.15 3.85 10.17
4/10/2021 5:00:00 PM 13.6 56.48 0.046 7.15 3.64 10.15
4/10/2021 5:15:00 PM 13.59 56.462 0.047 7.15 3.86 10.13
4/10/2021 5:30:00 PM 13.57 56.426 0.047 7.12 3.8 10.11
4/10/2021 5:45:00 PM 13.51 56.318 0.047 7.13 4.08 10.08
4/10/2021 6:00:00 PM 13.43 56.174 0.047 7.1 3.95 10.05
4/10/2021 6:15:00 PM 13.35 56.03 0.047 7.1 4.25 10.02
4/10/2021 6:30:00 PM 13.26 55.868 0.047 7.07 3.91 9.99
4/10/2021 6:45:00 PM 13.17 55.706 0.047 7.05 3.97 9.97
4/10/2021 7:00:00 PM 13.08 55.544 0.047 7.07 3.99 9.95
4/10/2021 7:15:00 PM 12.98 55.364 0.047 7.03 4.23 9.92
4/10/2021 7:30:00 PM 12.87 55.166 0.047 7.03 4 9.89
4/10/2021 7:45:00 PM 12.76 54.968 0.047 7 4.43 9.86
4/10/2021 8:00:00 PM 12.65 54.77 0.047 7 4.2 9.86
4/10/2021 8:15:00 PM 12.54 54.572 0.048 6.97 4.47 9.85
4/10/2021 8:30:00 PM 12.43 54.374 0.048 6.95 4.09 9.86
4/10/2021 8:45:00 PM 12.32 54.176 0.048 6.98 4.39 9.87
4/10/2021 9:00:00 PM 12.21 53.978 0.048 6.95 4.95 9.89
4/10/2021 9:15:00 PM 12.1 53.78 0.048 6.95 4.57 9.9
4/10/2021 9:30:00 PM 11.99 53.582 0.048 6.93 4.79 9.92
4/10/2021 9:45:00 PM 11.88 53.384 0.048 6.96 4.45 9.95
4/10/2021 10:00:00 PM 11.76 53.168 0.048 6.92 4.48 9.98
4/10/2021 10:15:00 PM 11.66 52.988 0.048 6.95 4.34 10
4/10/2021 10:30:00 PM 11.58 52.844 0.048 6.93 4.7 10.03
4/10/2021 10:45:00 PM 11.49 52.682 0.048 6.92 4.49 10.05
4/10/2021 11:00:00 PM 11.41 52.538 0.048 6.94 4.62 10.07
4/10/2021 11:15:00 PM 11.33 52.394 0.048 6.95 4.37 10.09
4/10/2021 11:30:00 PM 11.24 52.232 0.048 6.95 4.37 10.11
4/10/2021 11:45:00 PM 11.16 52.088 0.048 6.93 4.41 10.14
4/11/2021 12:00:00 AM 11.08 51.944 0.048 6.94 4.35 10.16
4/11/2021 12:15:00 AM 11.01 51.818 0.048 6.92 4.74 10.18
4/11/2021 12:30:00 AM 10.94 51.692 0.048 6.94 4.11 10.19
4/11/2021 12:45:00 AM 10.88 51.584 0.048 6.93 4.06 10.2
4/11/2021 1:00:00 AM 10.82 51.476 0.048 6.95 4.24 10.21
4/11/2021 1:15:00 AM 10.77 51.386 0.048 6.92 4.38 10.22
4/11/2021 1:30:00 AM 10.71 51.278 0.048 6.94 4.16 10.23
4/11/2021 1:45:00 AM 10.66 51.188 0.048 6.93 4.23 10.25
4/11/2021 2:00:00 AM 10.6 51.08 0.048 6.95 4.21 10.26
4/11/2021 2:15:00 AM 10.55 50.99 0.048 6.95 4.78 10.28
4/11/2021 2:30:00 AM 10.51 50.918 0.048 6.94 4.28 10.28
4/11/2021 2:45:00 AM 10.46 50.828 0.048 6.93 4.32 10.3
4/11/2021 3:00:00 AM 10.42 50.756 0.048 6.95 4.34 10.3
4/11/2021 3:15:00 AM 10.39 50.702 0.048 6.95 4.15 10.31
4/11/2021 3:30:00 AM 10.35 50.63 0.048 6.95 4.98 10.32
4/11/2021 3:45:00 AM 10.32 50.576 0.048 6.94 4.33 10.32
4/11/2021 4:00:00 AM 10.28 50.504 0.048 6.94 4.65 10.33
4/11/2021 4:15:00 AM 10.25 50.45 0.048 6.94 4.33 10.33
4/11/2021 4:30:00 AM 10.22 50.396 0.048 6.95 4.36 10.34
4/11/2021 4:45:00 AM 10.19 50.342 0.048 6.9 4.24 10.34
4/11/2021 5:00:00 AM 10.16 50.288 0.048 6.92 4.13 10.35
4/11/2021 5:15:00 AM 10.13 50.234 0.048 6.94 4.36 10.35
4/11/2021 5:30:00 AM 10.11 50.198 0.048 6.93 4.37 10.35
4/11/2021 5:45:00 AM 10.09 50.162 0.048 6.93 4.45 10.35
4/11/2021 6:00:00 AM 10.08 50.144 0.048 6.92 4.43 10.36
4/11/2021 6:15:00 AM 10.05 50.09 0.048 6.92 4.58 10.36
4/11/2021 6:30:00 AM 10.03 50.054 0.048 6.92 4.85 10.36
4/11/2021 6:45:00 AM 10.02 50.036 0.048 6.93 4.56 10.37
4/11/2021 7:00:00 AM 10 50 0.048 6.93 4.63 10.37
4/11/2021 7:15:00 AM 9.99 49.982 0.048 6.93 4.43 10.38
4/11/2021 7:30:00 AM 9.98 49.964 0.048 6.91 4.5 10.39
4/11/2021 7:45:00 AM 9.97 49.946 0.048 6.9 4.86 10.4
4/11/2021 8:00:00 AM 9.97 49.946 0.048 6.93 4.82 10.41
4/11/2021 8:15:00 AM 9.96 49.928 0.048 6.93 4.11 10.42
4/11/2021 8:30:00 AM 9.96 49.928 0.048 6.91 4.66 10.43
4/11/2021 8:45:00 AM 9.96 49.928 0.048 6.94 4.59 10.45
4/11/2021 9:00:00 AM 9.97 49.946 0.048 6.91 4.74 10.48
4/11/2021 9:15:00 AM 9.98 49.964 0.048 6.92 4.4 10.5
4/11/2021 9:30:00 AM 9.99 49.982 0.048 6.94 4.51 10.53
4/11/2021 9:45:00 AM 10.01 50.018 0.048 6.96 4.8 10.56
4/11/2021 10:00:00 AM 10.02 50.036 0.048 6.97 4.55 10.55
4/11/2021 10:15:00 AM 10.03 50.054 0.048 6.96 4.31 10.56
4/11/2021 10:30:00 AM 10.04 50.072 0.048 6.95 4.38 10.59
4/11/2021 10:45:00 AM 10.07 50.126 0.048 6.99 4.51 10.62
4/11/2021 11:00:00 AM 10.1 50.18 0.048 6.99 5.16 10.62
4/11/2021 11:15:00 AM 10.12 50.216 0.049 6.99 4.87 10.62
4/11/2021 11:30:00 AM 10.16 50.288 0.049 7 5.12 10.66
4/11/2021 11:45:00 AM 10.22 50.396 0.049 6.99 5.13 10.68
4/11/2021 12:00:00 PM 10.29 50.522 0.049 7.02 4.77 10.7
4/11/2021 12:15:00 PM 10.34 50.612 0.05 7.01 4.68 10.71
4/11/2021 12:30:00 PM 10.45 50.81 0.05 7.01 5.02 10.73
4/11/2021 12:45:00 PM 10.56 51.008 0.051 7.06 5.14 10.72
4/11/2021 1:00:00 PM 10.68 51.224 0.051 7.05 4.76 10.72
4/11/2021 1:15:00 PM 10.83 51.494 0.051 7.07 5.37 10.72
4/11/2021 1:30:00 PM 10.87 51.566 0.052 7.07 5.15 10.67
4/11/2021 1:45:00 PM 10.97 51.746 0.052 7.07 5.04 10.68
4/11/2021 2:00:00 PM 11 51.8 0.052 7.08 5 10.63
4/11/2021 2:15:00 PM 11.05 51.89 0.052 7.08 4.83 10.62
4/11/2021 2:30:00 PM 11.11 51.998 0.052 7.08 5.18 10.61
4/11/2021 2:45:00 PM 11.23 52.214 0.053 7.11 4.81 10.6
4/11/2021 3:00:00 PM 11.32 52.376 0.053 7.08 4.63 10.57
4/11/2021 3:15:00 PM 11.37 52.466 0.054 7.1 4.7 10.54
4/11/2021 3:30:00 PM 11.51 52.718 0.054 7.12 4.87 10.55
4/11/2021 3:45:00 PM 11.61 52.898 0.054 7.1 4.75 10.52
4/11/2021 4:00:00 PM 11.67 53.006 0.055 7.1 5.02 10.49
4/11/2021 4:15:00 PM 11.71 53.078 0.055 7.11 4.58 10.45
4/11/2021 4:30:00 PM 11.68 53.024 0.055 7.07 4.74 10.36
4/11/2021 4:45:00 PM 11.64 52.952 0.056 7.05 5.3 10.31
4/11/2021 5:00:00 PM 11.62 52.916 0.056 7.06 4.97 10.31
4/11/2021 5:15:00 PM 11.64 52.952 0.056 7.05 4.52 10.32
4/11/2021 5:30:00 PM 11.62 52.916 0.057 7.03 4.69 10.26
4/11/2021 5:45:00 PM 11.6 52.88 0.058 7.04 4.33 10.26
4/11/2021 6:00:00 PM 11.56 52.808 0.058 7.01 4.36 10.23
4/11/2021 6:15:00 PM 11.52 52.736 0.059 7.03 4.58 10.25
4/11/2021 6:30:00 PM 11.49 52.682 0.059 7.01 4.22 10.27
4/11/2021 6:45:00 PM 11.45 52.61 0.06 7.03 4.32 10.22
4/11/2021 7:00:00 PM 11.4 52.52 0.06 7.01 4.52 10.21
4/11/2021 7:15:00 PM 11.34 52.412 0.06 6.99 4.37 10.22
4/11/2021 7:30:00 PM 11.28 52.304 0.061 6.99 4.56 10.2
4/11/2021 7:45:00 PM 11.22 52.196 0.061 6.98 4.72 10.17
4/11/2021 8:00:00 PM 11.16 52.088 0.061 6.95 4.65 10.15
4/11/2021 8:15:00 PM 11.09 51.962 0.061 6.93 4.49 10.14
4/11/2021 8:30:00 PM 11.03 51.854 0.062 6.94 4.39 10.14
4/11/2021 8:45:00 PM 10.97 51.746 0.062 6.92 5.03 10.14
4/11/2021 9:00:00 PM 10.9 51.62 0.062 6.93 4.36 10.14
4/11/2021 9:15:00 PM 10.84 51.512 0.062 6.91 4.61 10.15
4/11/2021 9:30:00 PM 10.79 51.422 0.062 6.9 4.47 10.16
4/11/2021 9:45:00 PM 10.74 51.332 0.062 6.9 4.91 10.17
4/11/2021 10:00:00 PM 10.69 51.242 0.062 6.93 4.69 10.19
4/11/2021 10:15:00 PM 10.63 51.134 0.061 6.91 5.11 10.2
4/11/2021 10:30:00 PM 10.57 51.026 0.061 6.92 5.04 10.22
4/11/2021 10:45:00 PM 10.51 50.918 0.061 6.91 5.26 10.23
4/11/2021 11:00:00 PM 10.45 50.81 0.061 6.91 5.4 10.24
4/11/2021 11:15:00 PM 10.4 50.72 0.061 6.89 4.9 10.26
4/11/2021 11:30:00 PM 10.34 50.612 0.061 6.89 5.59 10.26
4/11/2021 11:45:00 PM 10.29 50.522 0.061 6.88 5.5 10.28
4/12/2021 12:00:00 AM 10.24 50.432 0.061 6.88 5.05 10.3
4/12/2021 12:15:00 AM 10.19 50.342 0.062 6.9 5.24 10.31
4/12/2021 12:30:00 AM 10.14 50.252 0.063 6.87 5.14 10.33
4/12/2021 12:45:00 AM 10.09 50.162 0.063 6.9 5.49 10.34
4/12/2021 1:00:00 AM 10.04 50.072 0.064 6.89 5.81 10.35
4/12/2021 1:15:00 AM 9.99 49.982 0.064 6.9 5.47 10.37
4/12/2021 1:30:00 AM 9.95 49.91 0.064 6.9 6.04 10.38
4/12/2021 1:45:00 AM 9.91 49.838 0.064 6.89 7.24 10.4
4/12/2021 2:00:00 AM 9.87 49.766 0.065 6.89 6.13 10.41
4/12/2021 2:15:00 AM 9.83 49.694 0.065 6.87 6.59 10.42
4/12/2021 2:30:00 AM 9.79 49.622 0.065 6.89 6.08 10.44
4/12/2021 2:45:00 AM 9.75 49.55 0.065 6.9 5.61 10.45
4/12/2021 3:00:00 AM 9.72 49.496 0.065 6.88 5.55 10.46
4/12/2021 3:15:00 AM 9.68 49.424 0.065 6.9 5.37 10.46
4/12/2021 3:30:00 AM 9.64 49.352 0.065 6.87 5.17 10.47
4/12/2021 3:45:00 AM 9.6 49.28 0.065 6.87 5.15 10.48
4/12/2021 4:00:00 AM 9.56 49.208 0.065 6.86 5.2 10.5
4/12/2021 4:15:00 AM 9.52 49.136 0.065 6.89 5.53 10.5
4/12/2021 4:30:00 AM 9.48 49.064 0.066 6.88 5.12 10.51
4/12/2021 4:45:00 AM 9.45 49.01 0.067 6.87 5.03 10.52
4/12/2021 5:00:00 AM 9.41 48.938 0.068 6.89 5.01 10.53
4/12/2021 5:15:00 AM 9.38 48.884 0.069 6.89 4.86 10.54
4/12/2021 5:30:00 AM 9.34 48.812 0.07 6.88 4.7 10.55
4/12/2021 5:45:00 AM 9.31 48.758 0.071 6.89 4.73 10.56
4/12/2021 6:00:00 AM 9.28 48.704 0.072 6.88 4.68 10.57
4/12/2021 6:15:00 AM 9.24 48.632 0.073 6.89 5.56 10.58
4/12/2021 6:30:00 AM 9.21 48.578 0.074 6.88 5.17 10.59
4/12/2021 6:45:00 AM 9.18 48.524 0.075 6.9 4.84 10.6
4/12/2021 7:00:00 AM 9.14 48.452 0.076 6.89 4.96 10.64
4/12/2021 7:15:00 AM 9.12 48.416 0.076 6.9 5.09 10.65
4/12/2021 7:30:00 AM 9.11 48.398 0.077 6.89 4.64 10.69
4/12/2021 7:45:00 AM 9.1 48.38 0.077 6.93 5.04 10.72
4/12/2021 8:00:00 AM 9.1 48.38 0.077 6.94 4.89 10.74
4/12/2021 8:15:00 AM 9.09 48.362 0.077 6.95 4.48 10.75
4/12/2021 8:30:00 AM 9.08 48.344 0.077 6.95 4.28 10.79
4/12/2021 8:45:00 AM 9.08 48.344 0.077 6.97 4.34 10.8
4/12/2021 9:00:00 AM 9.07 48.326 0.076 6.97 4.44 10.82
4/12/2021 9:15:00 AM 9.07 48.326 0.076 6.99 4.4 10.84
4/12/2021 9:30:00 AM 9.07 48.326 0.076 6.98 4.09 10.83
4/12/2021 9:45:00 AM 9.06 48.308 0.075 6.98 4.19 10.84
4/12/2021 10:00:00 AM 9.06 48.308 0.075 7 4.26 10.85
4/12/2021 10:15:00 AM 9.07 48.326 0.075 7.01 4.03 10.88
4/12/2021 10:30:00 AM 9.09 48.362 0.074 7.02 4.23 10.92
4/12/2021 10:45:00 AM 9.1 48.38 0.074 7.03 4.16 10.93
4/12/2021 11:00:00 AM 9.11 48.398 0.073 7.02 4.17 10.93
4/12/2021 11:15:00 AM 9.12 48.416 0.073 7.04 4.05 10.95
4/12/2021 11:30:00 AM 9.14 48.452 0.073 7.04 3.81 10.98
4/12/2021 11:45:00 AM 9.16 48.488 0.072 7.06 3.94 10.99
4/12/2021 12:00:00 PM 9.19 48.542 0.072 7.06 3.84 11.01
4/12/2021 12:15:00 PM 9.25 48.65 0.072 7.07 3.8 11.03
4/12/2021 12:30:00 PM 9.32 48.776 0.071 7.1 3.84 11.05
4/12/2021 12:45:00 PM 9.41 48.938 0.071 7.11 3.83 11.06
4/12/2021 1:00:00 PM 9.43 48.974 0.07 7.08 3.74 11.01
4/12/2021 1:15:00 PM 9.47 49.046 0.07 7.09 3.76 11.03
4/12/2021 1:30:00 PM 9.53 49.154 0.07 7.12 3.67 11.03
4/12/2021 1:45:00 PM 9.62 49.316 0.069 7.13 3.71 11.05
4/12/2021 2:00:00 PM 9.78 49.604 0.069 7.15 4.01 11.05
4/12/2021 2:15:00 PM 9.87 49.766 0.069 7.13 3.85 11.03
4/12/2021 2:30:00 PM 10.01 50.018 0.069 7.14 3.85 11.02
4/12/2021 2:45:00 PM 10.08 50.144 0.068 7.15 3.8 10.97
4/12/2021 3:00:00 PM 10.14 50.252 0.068 7.16 4.17 10.97
4/12/2021 3:15:00 PM 10.21 50.378 0.068 7.16 4.05 10.93
4/12/2021 3:30:00 PM 10.17 50.306 0.068 7.12 3.96 10.86
4/12/2021 3:45:00 PM 10.13 50.234 0.068 7.1 3.87 10.75
4/12/2021 4:00:00 PM 10.08 50.144 0.068 7.09 3.85 10.71
4/12/2021 4:15:00 PM 10.08 50.144 0.068 7.1 3.97 10.78
4/12/2021 4:30:00 PM 10.09 50.162 0.067 7.09 3.79 10.79
4/12/2021 4:45:00 PM 10.09 50.162 0.067 7.09 4.12 10.79
4/12/2021 5:00:00 PM 10.08 50.144 0.067 7.09 3.81 10.8
4/12/2021 5:15:00 PM 10.06 50.108 0.067 7.11 4.08 10.81
4/12/2021 5:30:00 PM 10.04 50.072 0.066 7.11 3.92 10.8
4/12/2021 5:45:00 PM 10.03 50.054 0.066 7.08 4.03 10.79
4/12/2021 6:00:00 PM 10.02 50.036 0.066 7.09 4 10.79
4/12/2021 6:15:00 PM 10.02 50.036 0.065 7.08 4.07 10.77
4/12/2021 6:30:00 PM 10 50 0.066 7.09 3.91 10.75
4/12/2021 6:45:00 PM 9.99 49.982 0.066 7.07 3.94 10.74
4/12/2021 7:00:00 PM 9.96 49.928 0.065 7.06 4.16 10.71
4/12/2021 7:15:00 PM 9.94 49.892 0.065 7.04 4.03 10.67
4/12/2021 7:30:00 PM 9.9 49.82 0.065 7.05 4.1 10.65
4/12/2021 7:45:00 PM 9.87 49.766 0.065 7.04 3.98 10.62
4/12/2021 8:00:00 PM 9.83 49.694 0.065 7.03 3.98 10.6
4/12/2021 8:15:00 PM 9.79 49.622 0.065 7.01 4.27 10.58
4/12/2021 8:30:00 PM 9.75 49.55 0.065 7.01 4.04 10.58
4/12/2021 8:45:00 PM 9.71 49.478 0.065 7 4.8 10.58
4/12/2021 9:00:00 PM 9.66 49.388 0.065 6.99 4.02 10.58
4/12/2021 9:15:00 PM 9.62 49.316 0.065 7 4.5 10.59
4/12/2021 9:30:00 PM 9.57 49.226 0.064 6.97 4.63 10.6
4/12/2021 9:45:00 PM 9.52 49.136 0.064 6.96 4.74 10.61
4/12/2021 10:00:00 PM 9.48 49.064 0.064 6.98 4.74 10.62
4/12/2021 10:15:00 PM 9.43 48.974 0.064 6.98 4.23 10.63
4/12/2021 10:30:00 PM 9.39 48.902 0.064 6.97 4.05 10.64
4/12/2021 10:45:00 PM 9.35 48.83 0.063 6.97 4.36 10.65
4/12/2021 11:00:00 PM 9.31 48.758 0.063 6.96 4.96 10.66
4/12/2021 11:15:00 PM 9.27 48.686 0.063 6.94 4.75 10.68
4/12/2021 11:30:00 PM 9.23 48.614 0.063 6.96 4.58 10.69
4/12/2021 11:45:00 PM 9.19 48.542 0.063 6.95 4.25 10.7
4/13/2021 12:00:00 AM 9.16 48.488 0.063 6.94 4.45 10.72
4/13/2021 12:15:00 AM 9.13 48.434 0.063 6.96 4.06 10.73
4/13/2021 12:30:00 AM 9.09 48.362 0.063 6.97 4.16 10.74
4/13/2021 12:45:00 AM 9.06 48.308 0.063 6.95 4.48 10.75
4/13/2021 1:00:00 AM 9.03 48.254 0.063 6.96 4.52 10.76
4/13/2021 1:15:00 AM 8.99 48.182 0.063 6.95 4.76 10.77
4/13/2021 1:30:00 AM 8.96 48.128 0.063 6.95 4.54 10.77
4/13/2021 1:45:00 AM 8.94 48.092 0.063 6.95 4.24 10.79
4/13/2021 2:00:00 AM 8.91 48.038 0.063 6.96 4.37 10.8
4/13/2021 2:15:00 AM 8.88 47.984 0.063 6.94 4.11 10.8
4/13/2021 2:30:00 AM 8.86 47.948 0.063 6.94 4.14 10.81
4/13/2021 2:45:00 AM 8.83 47.894 0.063 6.94 4.06 10.82
4/13/2021 3:00:00 AM 8.8 47.84 0.062 6.96 4.16 10.83
4/13/2021 3:15:00 AM 8.78 47.804 0.062 6.96 4.12 10.83
4/13/2021 3:30:00 AM 8.76 47.768 0.062 6.96 4.16 10.84
4/13/2021 3:45:00 AM 8.73 47.714 0.062 6.94 4.3 10.85
4/13/2021 4:00:00 AM 8.71 47.678 0.062 6.96 4.27 10.85
4/13/2021 4:15:00 AM 8.68 47.624 0.062 6.95 4.16 10.86
4/13/2021 4:30:00 AM 8.66 47.588 0.062 6.96 4.13 10.87
4/13/2021 4:45:00 AM 8.64 47.552 0.062 6.95 4.53 10.89
4/13/2021 5:00:00 AM 8.62 47.516 0.062 6.96 4.66 10.89
4/13/2021 5:15:00 AM 8.59 47.462 0.062 6.96 4.14 10.9
4/13/2021 5:30:00 AM 8.57 47.426 0.062 6.95 4.11 10.91
4/13/2021 5:45:00 AM 8.55 47.39 0.062 6.93 4.58 10.92
4/13/2021 6:00:00 AM 8.53 47.354 0.062 6.96 4.21 10.92
4/13/2021 6:15:00 AM 8.51 47.318 0.062 6.94 4.17 10.93
4/13/2021 6:30:00 AM 8.49 47.282 0.062 6.95 4.51 10.94
4/13/2021 6:45:00 AM 8.47 47.246 0.062 6.96 4.22 10.95
4/13/2021 7:00:00 AM 8.45 47.21 0.062 6.95 4.15 10.96
4/13/2021 7:15:00 AM 8.44 47.192 0.062 6.95 4.17 10.98
4/13/2021 7:30:00 AM 8.43 47.174 0.062 6.94 4.27 11.01
4/13/2021 7:45:00 AM 8.42 47.156 0.061 6.96 4.14 11.02
4/13/2021 8:00:00 AM 8.41 47.138 0.061 6.97 4 11.06
4/13/2021 8:15:00 AM 8.41 47.138 0.061 6.99 3.87 11.09
4/13/2021 8:30:00 AM 8.41 47.138 0.061 6.98 4.04 11.11
4/13/2021 8:45:00 AM 8.43 47.174 0.061 7.01 3.8 11.17
4/13/2021 9:00:00 AM 8.46 47.228 0.061 7.03 3.96 11.23
4/13/2021 9:15:00 AM 8.56 47.408 0.061 7.06 3.86 11.29
4/13/2021 9:30:00 AM 8.69 47.642 0.061 7.05 3.95 11.31
4/13/2021 9:45:00 AM 8.83 47.894 0.061 7.08 4.04 11.31
4/13/2021 10:00:00 AM 9.1 48.38 0.06 7.08 3.83 11.33
4/13/2021 10:15:00 AM 9.19 48.542 0.06 7.09 3.89 11.3
4/13/2021 10:30:00 AM 9.32 48.776 0.06 7.08 3.87 11.3
4/13/2021 10:45:00 AM 9.53 49.154 0.06 7.11 3.69 11.27
4/13/2021 11:00:00 AM 9.52 49.136 0.06 7.11 3.78 11.22
4/13/2021 11:15:00 AM 9.73 49.514 0.06 7.12 3.68 11.23
4/13/2021 11:30:00 AM 9.86 49.748 0.06 7.12 3.83 11.19
4/13/2021 11:45:00 AM 9.92 49.856 0.06 7.11 3.78 11.16
4/13/2021 12:00:00 PM 9.96 49.928 0.059 7.1 3.73 11.14
4/13/2021 12:15:00 PM 10.05 50.09 0.059 7.12 3.9 11.11
4/13/2021 12:30:00 PM 10.02 50.036 0.059 7.11 3.96 11.07
4/13/2021 12:45:00 PM 9.95 49.91 0.059 7.11 4.02 11
4/13/2021 1:00:00 PM 9.92 49.856 0.059 7.09 3.93 11
4/13/2021 1:15:00 PM 9.96 49.928 0.059 7.11 3.76 11.03
4/13/2021 1:30:00 PM 9.98 49.964 0.059 7.09 3.8 11
4/13/2021 1:45:00 PM 10.02 50.036 0.059 7.13 3.76 11.02
4/13/2021 2:00:00 PM 10.19 50.342 0.059 7.13 3.75 11.03
4/13/2021 2:15:00 PM 10.19 50.342 0.059 7.11 3.69 10.95
4/13/2021 2:30:00 PM 10.17 50.306 0.059 7.08 3.88 10.87
4/13/2021 2:45:00 PM 10.2 50.36 0.059 7.08 3.88 10.85
4/13/2021 3:00:00 PM 10.29 50.522 0.059 7.11 3.91 10.91
4/13/2021 3:15:00 PM 10.45 50.81 0.059 7.13 3.88 10.9
4/13/2021 3:30:00 PM 10.45 50.81 0.059 7.1 4.02 10.87
4/13/2021 3:45:00 PM 10.57 51.026 0.059 7.13 4.01 10.88
4/13/2021 4:00:00 PM 10.73 51.314 0.059 7.15 3.74 10.88
4/13/2021 4:15:00 PM 10.88 51.584 0.059 7.17 3.69 10.87
4/13/2021 4:30:00 PM 10.93 51.674 0.059 7.16 3.88 10.84
4/13/2021 4:45:00 PM 10.99 51.782 0.059 7.15 3.96 10.82
4/13/2021 5:00:00 PM 11.03 51.854 0.059 7.14 4.04 10.78
4/13/2021 5:15:00 PM 11.08 51.944 0.059 7.15 3.85 10.78
4/13/2021 5:30:00 PM 11.15 52.07 0.059 7.15 3.82 10.77
4/13/2021 5:45:00 PM 11.1 51.98 0.059 7.13 3.96 10.71
4/13/2021 6:00:00 PM 11.15 52.07 0.058 7.12 3.79 10.71
4/13/2021 6:15:00 PM 11.09 51.962 0.058 7.13 3.81 10.67
4/13/2021 6:30:00 PM 11.02 51.836 0.058 7.11 3.98 10.63
4/13/2021 6:45:00 PM 10.96 51.728 0.058 7.09 3.99 10.61
4/13/2021 7:00:00 PM 10.88 51.584 0.058 7.05 3.85 10.56
4/13/2021 7:15:00 PM 10.81 51.458 0.058 7.03 4.32 10.53
4/13/2021 7:30:00 PM 10.73 51.314 0.058 7.02 5.09 10.5
4/13/2021 7:45:00 PM 10.65 51.17 0.059 7.02 4.38 10.49
4/13/2021 8:00:00 PM 10.56 51.008 0.059 7 4.11 10.47
4/13/2021 8:15:00 PM 10.47 50.846 0.059 6.98 4 10.47
4/13/2021 8:30:00 PM 10.38 50.684 0.059 6.98 4.48 10.47
4/13/2021 8:45:00 PM 10.28 50.504 0.059 6.97 4.15 10.48
4/13/2021 9:00:00 PM 10.18 50.324 0.059 6.97 4.67 10.49
4/13/2021 9:15:00 PM 10.08 50.144 0.059 6.95 3.97 10.5
4/13/2021 9:30:00 PM 9.99 49.982 0.059 6.94 4.08 10.53
4/13/2021 9:45:00 PM 9.89 49.802 0.059 6.96 4.47 10.56
4/13/2021 10:00:00 PM 9.79 49.622 0.058 6.93 4.18 10.58
4/13/2021 10:15:00 PM 9.71 49.478 0.058 6.95 4.23 10.6
4/13/2021 10:30:00 PM 9.64 49.352 0.058 6.91 4.08 10.63
4/13/2021 10:45:00 PM 9.56 49.208 0.058 6.94 4.15 10.65
4/13/2021 11:00:00 PM 9.47 49.046 0.058 6.92 4.52 10.67
4/13/2021 11:15:00 PM 9.39 48.902 0.058 6.93 4.25 10.69
4/13/2021 11:30:00 PM 9.3 48.74 0.058 6.91 4.03 10.72
4/13/2021 11:45:00 PM 9.2 48.56 0.058 6.94 4.06 10.75
4/14/2021 12:00:00 AM 9.13 48.434 0.058 6.94 4.51 10.77
4/14/2021 12:15:00 AM 9.06 48.308 0.058 6.93 4.98 10.79
4/14/2021 12:30:00 AM 9 48.2 0.058 6.92 4.16 10.81
4/14/2021 12:45:00 AM 8.93 48.074 0.058 6.92 3.89 10.83
4/14/2021 1:00:00 AM 8.86 47.948 0.058 6.92 4.19 10.85
4/14/2021 1:15:00 AM 8.8 47.84 0.058 6.92 4.27 10.86
4/14/2021 1:30:00 AM 8.71 47.678 0.058 6.92 4.18 10.88
4/14/2021 1:45:00 AM 8.63 47.534 0.058 6.92 4.4 10.9
4/14/2021 2:00:00 AM 8.56 47.408 0.058 6.91 4.32 10.93
4/14/2021 2:15:00 AM 8.51 47.318 0.058 6.9 4.08 10.94
4/14/2021 2:30:00 AM 8.46 47.228 0.058 6.93 4.31 10.96
4/14/2021 2:45:00 AM 8.41 47.138 0.058 6.92 3.83 10.98
4/14/2021 3:00:00 AM 8.37 47.066 0.058 6.91 4.23 10.99
4/14/2021 3:15:00 AM 8.32 46.976 0.058 6.93 4.31 11
4/14/2021 3:30:00 AM 8.28 46.904 0.058 6.9 4.39 11.01
4/14/2021 3:45:00 AM 8.23 46.814 0.057 6.92 5.66 11.02
4/14/2021 4:00:00 AM 8.18 46.724 0.057 6.91 3.94 11.03
4/14/2021 4:15:00 AM 8.12 46.616 0.057 6.89 4.46 11.05
4/14/2021 4:30:00 AM 8.07 46.526 0.057 6.9 4.09 11.06
4/14/2021 4:45:00 AM 8.02 46.436 0.057 6.9 4.4 11.07
4/14/2021 5:00:00 AM 7.98 46.364 0.057 6.89 5.08 11.08
4/14/2021 5:15:00 AM 7.94 46.292 0.057 6.91 5.74 11.1
4/14/2021 5:30:00 AM 7.91 46.238 0.057 6.9 4.26 11.11
4/14/2021 5:45:00 AM 7.86 46.148 0.057 6.92 4.65 11.13
4/14/2021 6:00:00 AM 7.82 46.076 0.057 6.91 4.21 11.14
4/14/2021 6:15:00 AM 7.77 45.986 0.057 6.91 4.42 11.16
4/14/2021 6:30:00 AM 7.72 45.896 0.057 6.9 4.5 11.17
4/14/2021 6:45:00 AM 7.67 45.806 0.057 6.92 4.37 11.19
4/14/2021 7:00:00 AM 7.63 45.734 0.057 6.9 4.25 11.22
4/14/2021 7:15:00 AM 7.59 45.662 0.057 6.91 4.36 11.25
4/14/2021 7:30:00 AM 7.56 45.608 0.056 6.94 4.19 11.31
4/14/2021 7:45:00 AM 7.55 45.59 0.056 6.95 4.16 11.37
4/14/2021 8:00:00 AM 7.55 45.59 0.056 6.97 3.99 11.41
4/14/2021 8:15:00 AM 7.59 45.662 0.056 6.99 4.05 11.47
4/14/2021 8:30:00 AM 7.66 45.788 0.056 7 3.92 11.52
4/14/2021 8:45:00 AM 7.72 45.896 0.056 7.03 4.58 11.55
4/14/2021 9:00:00 AM 7.77 45.986 0.056 7.02 4.19 11.55
4/14/2021 9:15:00 AM 7.9 46.22 0.056 7.06 3.92 11.57
4/14/2021 9:30:00 AM 7.96 46.328 0.056 7.05 4.59 11.57
4/14/2021 9:45:00 AM 8.11 46.598 0.055 7.06 4.13 11.57
4/14/2021 10:00:00 AM 8.22 46.796 0.055 7.1 3.75 11.56
4/14/2021 10:15:00 AM 8.29 46.922 0.055 7.09 3.77 11.53
4/14/2021 10:30:00 AM 8.47 47.246 0.055 7.1 3.88 11.53
4/14/2021 10:45:00 AM 8.58 47.444 0.055 7.11 4.08 11.5
4/14/2021 11:00:00 AM 8.62 47.516 0.055 7.13 4.04 11.47
4/14/2021 11:15:00 AM 8.9 48.02 0.055 7.11 3.84 11.45
4/14/2021 11:30:00 AM 9.11 48.398 0.055 7.14 3.74 11.41
4/14/2021 11:45:00 AM 9.24 48.632 0.054 7.14 3.76 11.35
4/14/2021 12:00:00 PM 9.47 49.046 0.054 7.15 3.78 11.3
4/14/2021 12:15:00 PM 9.51 49.118 0.054 7.14 3.84 11.26
4/14/2021 12:30:00 PM 9.73 49.514 0.054 7.15 3.93 11.23
4/14/2021 12:45:00 PM 9.74 49.532 0.054 7.11 3.79 11.16
4/14/2021 1:00:00 PM 10 50 0.054 7.15 3.85 11.16
4/14/2021 1:15:00 PM 10.28 50.504 0.054 7.15 3.83 11.11
4/14/2021 1:30:00 PM 10.43 50.774 0.054 7.13 3.96 11.06
4/14/2021 1:45:00 PM 10.7 51.26 0.054 7.15 4.03 11
4/14/2021 2:00:00 PM 10.99 51.782 0.054 7.15 4.52 10.96
4/14/2021 2:15:00 PM 11.04 51.872 0.054 7.13 4.08 10.89
4/14/2021 2:30:00 PM 10.99 51.782 0.054 7.13 4.06 10.86
4/14/2021 2:45:00 PM 11.25 52.25 0.054 7.17 3.88 10.84
4/14/2021 3:00:00 PM 11.31 52.358 0.054 7.16 4.01 10.79
4/14/2021 3:15:00 PM 11.41 52.538 0.054 7.17 4.4 10.76
4/14/2021 3:30:00 PM 11.61 52.898 0.054 7.14 3.79 10.73
4/14/2021 3:45:00 PM 11.78 53.204 0.054 7.15 4.01 10.7
4/14/2021 4:00:00 PM 11.69 53.042 0.054 7.14 3.84 10.61
4/14/2021 4:15:00 PM 11.8 53.24 0.054 7.17 3.77 10.63
4/14/2021 4:30:00 PM 11.68 53.024 0.055 7.15 3.9 10.56
4/14/2021 4:45:00 PM 11.55 52.79 0.055 7.12 4.11 10.55
4/14/2021 5:00:00 PM 11.62 52.916 0.054 7.13 3.88 10.6
4/14/2021 5:15:00 PM 11.67 53.006 0.054 7.17 4 10.59
4/14/2021 5:30:00 PM 11.59 52.862 0.054 7.12 3.93 10.55
4/14/2021 5:45:00 PM 11.51 52.718 0.054 7.12 4.08 10.54
4/14/2021 6:00:00 PM 11.46 52.628 0.054 7.14 4.16 10.54
4/14/2021 6:15:00 PM 11.33 52.394 0.054 7.12 4.02 10.52
4/14/2021 6:30:00 PM 11.21 52.178 0.054 7.11 4.21 10.5
4/14/2021 6:45:00 PM 11.1 51.98 0.054 7.09 4.04 10.47
4/14/2021 7:00:00 PM 11.01 51.818 0.054 7.07 3.85 10.45
4/14/2021 7:15:00 PM 10.9 51.62 0.054 7.04 3.86 10.45
4/14/2021 7:30:00 PM 10.77 51.386 0.054 7.03 4.11 10.42
4/14/2021 7:45:00 PM 10.67 51.206 0.054 7 4.14 10.42
4/14/2021 8:00:00 PM 10.58 51.044 0.054 7 4.05 10.4
4/14/2021 8:15:00 PM 10.51 50.918 0.054 6.97 4.42 10.4
4/14/2021 8:30:00 PM 10.43 50.774 0.055 6.98 4.28 10.4
4/14/2021 8:45:00 PM 10.36 50.648 0.054 6.96 4.4 10.41
4/14/2021 9:00:00 PM 10.29 50.522 0.055 6.99 4.35 10.42
4/14/2021 9:15:00 PM 10.21 50.378 0.055 6.98 4.26 10.43
4/14/2021 9:30:00 PM 10.11 50.198 0.055 6.99 4.18 10.45
4/14/2021 9:45:00 PM 9.99 49.982 0.055 6.97 4.24 10.47
4/14/2021 10:00:00 PM 9.88 49.784 0.054 6.97 4.62 10.51
4/14/2021 10:15:00 PM 9.77 49.586 0.054 6.96 4.53 10.53
4/14/2021 10:30:00 PM 9.65 49.37 0.054 6.98 5.35 10.56
4/14/2021 10:45:00 PM 9.53 49.154 0.054 6.96 4.62 10.58
4/14/2021 11:00:00 PM 9.44 48.992 0.054 6.96 4.52 10.61
4/14/2021 11:15:00 PM 9.36 48.848 0.054 6.95 4.74 10.63
4/14/2021 11:30:00 PM 9.27 48.686 0.054 6.95 4.48 10.67
4/14/2021 11:45:00 PM 9.19 48.542 0.054 6.95 4.76 10.69
4/15/2021 12:00:00 AM 9.11 48.398 0.054 6.97 4.65 10.71
4/15/2021 12:15:00 AM 9.03 48.254 0.054 6.93 4.19 10.73
4/15/2021 12:30:00 AM 8.95 48.11 0.054 6.97 4.5 10.75
4/15/2021 12:45:00 AM 8.87 47.966 0.054 6.94 4.65 10.77
4/15/2021 1:00:00 AM 8.79 47.822 0.054 6.96 4.62 10.79
4/15/2021 1:15:00 AM 8.71 47.678 0.054 6.94 4.7 10.81
4/15/2021 1:30:00 AM 8.64 47.552 0.054 6.95 5.12 10.83
4/15/2021 1:45:00 AM 8.56 47.408 0.054 6.93 4.33 10.85
4/15/2021 2:00:00 AM 8.49 47.282 0.054 6.95 4.28 10.87
4/15/2021 2:15:00 AM 8.42 47.156 0.054 6.95 4.66 10.88
4/15/2021 2:30:00 AM 8.36 47.048 0.054 6.96 4.17 10.91
4/15/2021 2:45:00 AM 8.31 46.958 0.054 6.92 4.51 10.92
4/15/2021 3:00:00 AM 8.25 46.85 0.054 6.94 4.3 10.93
4/15/2021 3:15:00 AM 8.19 46.742 0.054 6.93 4.2 10.94
4/15/2021 3:30:00 AM 8.13 46.634 0.054 6.95 4.37 10.96
4/15/2021 3:45:00 AM 8.07 46.526 0.053 6.93 4.43 10.97
4/15/2021 4:00:00 AM 8.02 46.436 0.053 6.95 4.17 10.99
4/15/2021 4:15:00 AM 7.97 46.346 0.053 6.95 4.35 11
4/15/2021 4:30:00 AM 7.91 46.238 0.053 6.94 4.3 11.02
4/15/2021 4:45:00 AM 7.85 46.13 0.053 6.92 4.51 11.03
4/15/2021 5:00:00 AM 7.8 46.04 0.053 6.93 4.43 11.05
4/15/2021 5:15:00 AM 7.75 45.95 0.053 6.93 4.47 11.06
4/15/2021 5:30:00 AM 7.7 45.86 0.053 6.94 4.57 11.08
4/15/2021 5:45:00 AM 7.66 45.788 0.053 6.94 4.7 11.09
4/15/2021 6:00:00 AM 7.63 45.734 0.053 6.94 4.79 11.09
4/15/2021 6:15:00 AM 7.59 45.662 0.053 6.92 4.16 11.1
4/15/2021 6:30:00 AM 7.56 45.608 0.053 6.94 4.51 11.12
4/15/2021 6:45:00 AM 7.53 45.554 0.053 6.94 4.59 11.13
4/15/2021 7:00:00 AM 7.5 45.5 0.053 6.93 4.28 11.14
4/15/2021 7:15:00 AM 7.46 45.428 0.053 6.95 4.78 11.16
4/15/2021 7:30:00 AM 7.45 45.41 0.053 6.95 4.39 11.17
4/15/2021 7:45:00 AM 7.44 45.392 0.053 6.93 4.15 11.19
4/15/2021 8:00:00 AM 7.43 45.374 0.053 6.94 3.94 11.22
4/15/2021 8:15:00 AM 7.42 45.356 0.053 6.97 4.12 11.25
4/15/2021 8:30:00 AM 7.42 45.356 0.053 6.98 4.14 11.28
4/15/2021 8:45:00 AM 7.41 45.338 0.053 6.97 4.07 11.31
4/15/2021 9:00:00 AM 7.41 45.338 0.053 6.99 3.99 11.35
4/15/2021 9:15:00 AM 7.42 45.356 0.052 7 4.01 11.39
4/15/2021 9:30:00 AM 7.44 45.392 0.052 7.03 4.3 11.43
4/15/2021 9:45:00 AM 7.44 45.392 0.052 7 3.96 11.43
4/15/2021 10:00:00 AM 7.45 45.41 0.052 7.03 4.14 11.47
4/15/2021 10:15:00 AM 7.51 45.518 0.052 7.04 3.91 11.52
4/15/2021 10:30:00 AM 7.61 45.698 0.052 7.08 4.35 11.55
4/15/2021 10:45:00 AM 7.73 45.914 0.052 7.06 4.19 11.54
4/15/2021 11:00:00 AM 7.72 45.896 0.052 7.08 3.95 11.51
4/15/2021 11:15:00 AM 7.78 46.004 0.052 7.08 4.42 11.54
4/15/2021 11:30:00 AM 7.86 46.148 0.052 7.11 3.77 11.55
4/15/2021 11:45:00 AM 7.84 46.112 0.052 7.07 3.87 11.5
4/15/2021 12:00:00 PM 7.79 46.022 0.052 7.09 3.94 11.43
4/15/2021 12:15:00 PM 7.76 45.968 0.052 7.05 5.08 11.41
4/15/2021 12:30:00 PM 7.73 45.914 0.052 7.06 4.89 11.4
4/15/2021 12:45:00 PM 7.77 45.986 0.052 7.08 3.89 11.47
4/15/2021 1:00:00 PM 7.77 45.986 0.052 7.1 4.05 11.46
4/15/2021 1:15:00 PM 7.73 45.914 0.052 7.07 3.95 11.42
4/15/2021 1:30:00 PM 7.7 45.86 0.052 7.08 4.07 11.42
4/15/2021 1:45:00 PM 7.66 45.788 0.052 7.06 3.82 11.42
4/15/2021 2:00:00 PM 7.63 45.734 0.052 7.09 3.82 11.44
4/15/2021 2:15:00 PM 7.62 45.716 0.052 7.07 4.12 11.44
4/15/2021 2:30:00 PM 7.6 45.68 0.052 7.07 3.77 11.42
4/15/2021 2:45:00 PM 7.57 45.626 0.052 7.06 4.16 11.41
4/15/2021 3:00:00 PM 7.54 45.572 0.052 7.07 3.93 11.42
4/15/2021 3:15:00 PM 7.52 45.536 0.052 7.07 3.98 11.41
4/15/2021 3:30:00 PM 7.53 45.554 0.052 7.07 3.95 11.47
4/15/2021 3:45:00 PM 7.54 45.572 0.052 7.09 3.75 11.47
4/15/2021 4:00:00 PM 7.52 45.536 0.052 7.08 3.89 11.46
4/15/2021 4:15:00 PM 7.52 45.536 0.052 7.07 3.54 11.48
4/15/2021 4:30:00 PM 7.5 45.5 0.052 7.09 3.59 11.47
4/15/2021 4:45:00 PM 7.5 45.5 0.052 7.07 3.69 11.5
4/15/2021 5:00:00 PM 7.56 45.608 0.052 7.11 4.12 11.54
4/15/2021 5:15:00 PM 7.59 45.662 0.052 7.08 3.77 11.54
4/15/2021 5:30:00 PM 7.56 45.608 0.052 7.09 3.81 11.47
4/15/2021 5:45:00 PM 7.53 45.554 0.052 7.06 3.86 11.46
4/15/2021 6:00:00 PM 7.53 45.554 0.052 7.1 3.83 11.5
4/15/2021 6:15:00 PM 7.52 45.536 0.052 7.07 3.9 11.47
4/15/2021 6:30:00 PM 7.46 45.428 0.052 7.05 4.11 11.43
4/15/2021 6:45:00 PM 7.43 45.374 0.052 7.06 4.49 11.43
4/15/2021 7:00:00 PM 7.39 45.302 0.052 7.06 4.3 11.43
4/15/2021 7:15:00 PM 7.35 45.23 0.052 7.03 3.98 11.38
4/15/2021 7:30:00 PM 7.29 45.122 0.052 7.01 3.97 11.36
4/15/2021 7:45:00 PM 7.24 45.032 0.052 7 4.14 11.34
4/15/2021 8:00:00 PM 7.18 44.924 0.052 7.01 3.93 11.32
4/15/2021 8:15:00 PM 7.13 44.834 0.052 6.97 3.93 11.31
4/15/2021 8:30:00 PM 7.08 44.744 0.052 6.99 4.22 11.3
4/15/2021 8:45:00 PM 7.04 44.672 0.052 6.97 4.11 11.3
4/15/2021 9:00:00 PM 6.98 44.564 0.052 6.96 4.4 11.31
4/15/2021 9:15:00 PM 6.95 44.51 0.052 6.98 3.99 11.31
4/15/2021 9:30:00 PM 6.92 44.456 0.052 6.94 3.99 11.31
4/15/2021 9:45:00 PM 6.88 44.384 0.052 6.95 4.03 11.32
4/15/2021 10:00:00 PM 6.83 44.294 0.052 6.95 4.01 11.33
4/15/2021 10:15:00 PM 6.78 44.204 0.052 6.96 4.03 11.35
4/15/2021 10:30:00 PM 6.73 44.114 0.052 6.95 4.14 11.36
4/15/2021 10:45:00 PM 6.69 44.042 0.052 6.96 4.05 11.38
4/15/2021 11:00:00 PM 6.65 43.97 0.052 6.94 3.88 11.39
4/15/2021 11:15:00 PM 6.61 43.898 0.052 6.95 4.18 11.41
4/15/2021 11:30:00 PM 6.58 43.844 0.052 6.96 4.1 11.42
4/15/2021 11:45:00 PM 6.53 43.754 0.052 6.94 4.01 11.43
4/16/2021 12:00:00 AM 6.49 43.682 0.052 6.94 3.73 11.44
4/16/2021 12:15:00 AM 6.46 43.628 0.052 6.96 3.96 11.45
4/16/2021 12:30:00 AM 6.42 43.556 0.052 6.94 4.01 11.46
4/16/2021 12:45:00 AM 6.39 43.502 0.052 6.97 3.99 11.47
4/16/2021 1:00:00 AM 6.34 43.412 0.052 6.94 4.01 11.48
4/16/2021 1:15:00 AM 6.3 43.34 0.052 6.96 3.94 11.49
4/16/2021 1:30:00 AM 6.26 43.268 0.052 6.95 4.05 11.5
4/16/2021 1:45:00 AM 6.24 43.232 0.052 6.95 4.2 11.51
4/16/2021 2:00:00 AM 6.21 43.178 0.052 6.95 3.89 11.51
4/16/2021 2:15:00 AM 6.19 43.142 0.052 6.96 3.92 11.52
4/16/2021 2:30:00 AM 6.17 43.106 0.052 6.93 4.05 11.53
4/16/2021 2:45:00 AM 6.14 43.052 0.052 6.96 3.97 11.53
4/16/2021 3:00:00 AM 6.12 43.016 0.052 6.9 4.09 11.54
4/16/2021 3:15:00 AM 6.09 42.962 0.052 6.94 3.92 11.55
4/16/2021 3:30:00 AM 6.07 42.926 0.052 6.9 4.11 11.56
4/16/2021 3:45:00 AM 6.04 42.872 0.052 6.95 4.04 11.56
4/16/2021 4:00:00 AM 6.01 42.818 0.052 6.89 3.89 11.57
4/16/2021 4:15:00 AM 5.96 42.728 0.052 6.92 3.84 11.58
4/16/2021 4:30:00 AM 5.9 42.62 0.051 6.87 3.96 11.58
4/16/2021 4:45:00 AM 5.82 42.476 0.051 6.9 3.9 11.6
4/16/2021 5:00:00 AM 5.77 42.386 0.051 6.9 4.04 11.61
4/16/2021 5:15:00 AM 5.73 42.314 0.051 6.92 3.82 11.63
4/16/2021 5:30:00 AM 5.7 42.26 0.051 6.9 3.96 11.64
4/16/2021 5:45:00 AM 5.7 42.26 0.051 6.94 4.34 11.64
4/16/2021 6:00:00 AM 5.69 42.242 0.051 6.9 4.2 11.65
4/16/2021 6:15:00 AM 5.68 42.224 0.051 6.93 4.1 11.66
4/16/2021 6:30:00 AM 5.68 42.224 0.051 6.92 3.98 11.67
4/16/2021 6:45:00 AM 5.67 42.206 0.051 6.9 4.19 11.68
4/16/2021 7:00:00 AM 5.67 42.206 0.051 6.93 3.92 11.69
4/16/2021 7:15:00 AM 5.67 42.206 0.051 6.92 4.03 11.71
4/16/2021 7:30:00 AM 5.68 42.224 0.051 6.96 4.02 11.75
4/16/2021 7:45:00 AM 5.69 42.242 0.051 6.93 3.8 11.76
4/16/2021 8:00:00 AM 5.71 42.278 0.052 6.98 3.93 11.8
4/16/2021 8:15:00 AM 5.73 42.314 0.052 6.95 3.77 11.82
4/16/2021 8:30:00 AM 5.74 42.332 0.052 6.96 3.83 11.82
4/16/2021 8:45:00 AM 5.77 42.386 0.052 6.96 3.53 11.86
4/16/2021 9:00:00 AM 5.79 42.422 0.052 7 3.77 11.87
4/16/2021 9:15:00 AM 5.84 42.512 0.052 6.99 3.67 11.92
4/16/2021 9:30:00 AM 5.92 42.656 0.052 7.05 3.84 11.95
4/16/2021 9:45:00 AM 6 42.8 0.052 7.04 3.56 11.96
4/16/2021 10:00:00 AM 6.07 42.926 0.052 7.07 3.9 11.96
4/16/2021 10:15:00 AM 6.18 43.124 0.052 7.06 3.69 11.97
4/16/2021 10:30:00 AM 6.3 43.34 0.051 7.1 3.43 11.97
4/16